Darstellungsparameter: Aktuell verwendete Einstellungen:
Skalierung der Graphiken ... ?
xyx+y,   Skalierungsfaktor:      Skalierung: Modus: x, Faktor: 1
Darstellungszeitraum ... ?
Vom - - bis: - -   Zeitraum: 01.08.2009 - 31.07.2010
Min/Max/Avg-Anzeige ... ?
Zeige MMA aktuell
Zeige MMA Monat
Zeige MMA alles
Zeige --A aktuell
Zeige --A Monat
Zeige --A alles
Keine MMA-Anzeige
MMA:
Average (ber die Originaldaten)
MMA-Basis: 23.02.2003 - 03.08.2020
Quicknavigation für Darstellung... ?
Tage:      1T, 2T, 3T, 5T -1T -2T -3T -5T +1T +2T +3T +5T
Wochen: 1W, 2W, 3W -1W -2W -3W +1W +2W +3W
Monate: 1M, 3M, 6M -1M -3M -6M +1M +3M +6M
Jahre:    1J, 3J, 5J, 10J -1J -3J -5J -10J +1J +3J +5J +10J
Nutze für die Darstellung ... ?
Originaldaten oder ...
Mittelwerte Minima Maxima auf...
Stundenbasis Tagesbasis Wochenbasis
Monatsbasis Jahresbasis      Datenbasis: Mittelwerte auf Stundenbasis
Darstellen als:
Statistik (Auto) Statistik J:M      Darstellung:
Zur Graphik,    zurück zur Übersicht aller Sensoren.
 
Tabellarische Datenbersicht: ?
 
Sensor: Nr:Datum:Temp:Abs-Feuchte:Windchill:Wind:
Aussen-T/F 1 01-08-2009 00:00:00 17.56 C 6.73 g/m*3 17.56 C 0 km/h
2 01-08-2009 01:00:00 16.24 C 6.77 g/m*3 16.24 C 0 km/h
3 01-08-2009 02:00:00 15.08 C 7.01 g/m*3 15.08 C 0 km/h
4 01-08-2009 03:00:00 14.1 C 7.43 g/m*3 14.1 C 0 km/h
5 01-08-2009 04:00:00 13.62 C 7.78 g/m*3 13.62 C 0 km/h
6 01-08-2009 05:00:00 13.56 C 8.03 g/m*3 13.56 C 0 km/h
7 01-08-2009 06:00:00 13.86 C 8.23 g/m*3 13.86 C 0 km/h
8 01-08-2009 07:00:00 14.36 C 8.46 g/m*3 14.36 C 0 km/h
9 01-08-2009 08:00:00 14.7 C 8.56 g/m*3 14.7 C 0 km/h
10 01-08-2009 09:00:00 17.16 C 8.15 g/m*3 17.16 C 0 km/h
11 01-08-2009 10:00:00 21.12 C 7.6 g/m*3 21.12 C 0 km/h
12 01-08-2009 11:00:00 23.78 C 7.69 g/m*3 23.78 C 0 km/h
13 01-08-2009 12:00:00 26.4 C 8.12 g/m*3 26.4 C 0 km/h
14 01-08-2009 13:00:00 27.94 C 8.19 g/m*3 27.94 C 0 km/h
15 01-08-2009 14:00:00 30.28 C 7.88 g/m*3 30.28 C 0 km/h
16 01-08-2009 15:00:00 31.04 C 7.18 g/m*3 31.04 C 0 km/h
17 01-08-2009 16:00:00 32.28 C 6.85 g/m*3 32.28 C 0 km/h
18 01-08-2009 17:00:00 32.44 C 6.91 g/m*3 32.44 C 0 km/h
19 01-08-2009 18:00:00 33.1 C 7.16 g/m*3 33.1 C 0 km/h
20 01-08-2009 19:00:00 31.56 C 7.72 g/m*3 31.56 C 0 km/h
21 01-08-2009 20:00:00 28.06 C 9.39 g/m*3 28.06 C 0 km/h
22 01-08-2009 21:00:00 24.78 C 9.32 g/m*3 24.78 C 0 km/h
23 01-08-2009 22:00:00 23.3 C 9.37 g/m*3 23.3 C 0 km/h
24 01-08-2009 23:00:00 22.6 C 9.64 g/m*3 22.6 C 0 km/h
25 02-08-2009 00:00:00 21.58 C 9.59 g/m*3 21.58 C 0 km/h
Sensor: Nr:Datum:Temp:Abs-Feuchte:Windchill:Wind:
Aussen-T/F 26 02-08-2009 01:00:00 20.2 C 9.86 g/m*3 20.2 C 0 km/h
27 02-08-2009 02:00:00 19.08 C 9.95 g/m*3 19.08 C 0 km/h
28 02-08-2009 03:00:00 18.66 C 10.32 g/m*3 18.66 C 0 km/h
29 02-08-2009 04:00:00 17.44 C 11.85 g/m*3 17.44 C 0 km/h
30 02-08-2009 05:00:00 17.44 C 12.45 g/m*3 17.44 C 0 km/h
31 02-08-2009 06:00:00 17.46 C 12.64 g/m*3 17.46 C 0 km/h
32 02-08-2009 07:00:00 18.08 C 13.18 g/m*3 18.08 C 0 km/h
33 02-08-2009 08:00:00 19.86 C 12.96 g/m*3 19.86 C 0 km/h
34 02-08-2009 09:00:00 21.3 C 11.26 g/m*3 21.3 C 0 km/h
35 02-08-2009 10:00:00 22.12 C 10.79 g/m*3 22.12 C 0 km/h
36 02-08-2009 11:00:00 22.62 C 10.5 g/m*3 22.62 C 0 km/h
37 02-08-2009 12:00:00 22.08 C 11.07 g/m*3 22.08 C 0 km/h
38 02-08-2009 13:00:00 23.6 C 10.68 g/m*3 23.6 C 0 km/h
39 02-08-2009 14:00:00 25.2 C 9.59 g/m*3 25.2 C 0 km/h
40 02-08-2009 15:00:00 24.9 C 9.43 g/m*3 24.9 C 0 km/h
41 02-08-2009 16:00:00 23.04 C 10.51 g/m*3 23.04 C 0 km/h
42 02-08-2009 17:00:00 21.78 C 10.85 g/m*3 21.78 C 0 km/h
43 02-08-2009 18:00:00 21.46 C 10.72 g/m*3 21.46 C 0 km/h
44 02-08-2009 19:00:00 20.6 C 10.09 g/m*3 20.6 C 0 km/h
45 02-08-2009 20:00:00 20.54 C 9.7 g/m*3 20.54 C 0 km/h
46 02-08-2009 21:00:00 18.6 C 9.52 g/m*3 18.6 C 0 km/h
47 02-08-2009 22:00:00 17.36 C 9.99 g/m*3 17.36 C 0 km/h
48 02-08-2009 23:00:00 16.32 C 10.08 g/m*3 16.32 C 0 km/h
49 03-08-2009 00:00:00 16.54 C 10.33 g/m*3 16.54 C 0 km/h
50 03-08-2009 01:00:00 16.36 C 10.39 g/m*3 16.36 C 0 km/h
Sensor: Nr:Datum:Temp:Abs-Feuchte:Windchill:Wind:
Aussen-T/F 51 03-08-2009 02:00:00 16.34 C 10.37 g/m*3 16.34 C 0 km/h
52 03-08-2009 03:00:00 16.38 C 10.43 g/m*3 16.38 C 0 km/h
53 03-08-2009 04:00:00 16.24 C 10.56 g/m*3 16.24 C 0 km/h
54 03-08-2009 05:00:00 15.52 C 10.96 g/m*3 15.52 C 0 km/h
55 03-08-2009 06:00:00 15.2 C 11.32 g/m*3 15.2 C 0 km/h
56 03-08-2009 07:00:00 15.66 C 11.64 g/m*3 15.66 C 0 km/h
57 03-08-2009 08:00:00 16.62 C 11.34 g/m*3 16.62 C 0 km/h
58 03-08-2009 09:00:00 17.52 C 10.69 g/m*3 17.52 C 0 km/h
59 03-08-2009 10:00:00 19.56 C 9.57 g/m*3 19.56 C 0 km/h
60 03-08-2009 11:00:00 22.74 C 8.26 g/m*3 22.74 C 0 km/h
61 03-08-2009 12:00:00 21.9 C 7.45 g/m*3 21.9 C 0 km/h
62 03-08-2009 13:00:00 22.56 C 7.82 g/m*3 22.56 C 0 km/h
63 03-08-2009 14:00:00 25.68 C 6.79 g/m*3 25.68 C 0 km/h
64 03-08-2009 15:00:00 26.72 C 5.98 g/m*3 26.72 C 0 km/h
65 03-08-2009 16:00:00 25.1 C 6.16 g/m*3 25.1 C 0 km/h
66 03-08-2009 17:00:00 21.62 C 6.91 g/m*3 21.62 C 0 km/h
67 03-08-2009 18:00:00 21.2 C 7.41 g/m*3 21.2 C 0 km/h
68 03-08-2009 19:00:00 20.7 C 7.38 g/m*3 20.7 C 0 km/h
69 03-08-2009 20:00:00 19.8 C 7.75 g/m*3 19.8 C 0 km/h
70 03-08-2009 21:00:00 18.82 C 7.74 g/m*3 18.82 C 0 km/h
71 03-08-2009 22:00:00 17.82 C 8.39 g/m*3 17.82 C 0 km/h
72 03-08-2009 23:00:00 16.78 C 9.34 g/m*3 16.78 C 0 km/h
73 04-08-2009 00:00:00 15.38 C 9.5 g/m*3 15.38 C 0 km/h
74 04-08-2009 01:00:00 14.3 C 9.34 g/m*3 14.3 C 0 km/h
75 04-08-2009 02:00:00 13.42 C 9.59 g/m*3 13.42 C 0 km/h
Sensor: Nr:Datum:Temp:Abs-Feuchte:Windchill:Wind:
Aussen-T/F 76 04-08-2009 03:00:00 12.94 C 9.63 g/m*3 12.94 C 0 km/h
77 04-08-2009 04:00:00 12.66 C 9.53 g/m*3 12.66 C 0 km/h
78 04-08-2009 05:00:00 12.3 C 9.21 g/m*3 12.3 C 0 km/h
79 04-08-2009 06:00:00 12.26 C 9.18 g/m*3 12.26 C 0 km/h
80 04-08-2009 07:00:00 12.04 C 9.25 g/m*3 12.04 C 0 km/h
81 04-08-2009 08:00:00 13.16 C 9.32 g/m*3 13.16 C 0 km/h
82 04-08-2009 09:00:00 13.72 C 9.3 g/m*3 13.72 C 0 km/h
83 04-08-2009 10:00:00 17.16 C 9.09 g/m*3 17.16 C 0 km/h
84 04-08-2009 11:00:00 20.96 C 7.35 g/m*3 20.96 C 0 km/h
85 04-08-2009 12:00:00 23.4 C 5.34 g/m*3 23.4 C 0 km/h
86 04-08-2009 13:00:00 26.42 C 4.98 g/m*3 26.42 C 0 km/h
87 04-08-2009 14:00:00 27.66 C 5.34 g/m*3 27.66 C 0 km/h
88 04-08-2009 15:00:00 29.68 C 5.96 g/m*3 29.68 C 0 km/h
89 04-08-2009 16:00:00 30.38 C 6.19 g/m*3 30.38 C 0 km/h
90 04-08-2009 17:00:00 31.84 C 6.69 g/m*3 31.84 C 0 km/h
91 04-08-2009 18:00:00 31.74 C 6.66 g/m*3 31.74 C 0 km/h
92 04-08-2009 19:00:00 31.2 C 6.47 g/m*3 31.2 C 0 km/h
93 04-08-2009 20:00:00 27.52 C 5.67 g/m*3 27.52 C 0 km/h
94 04-08-2009 21:00:00 22.6 C 5.95 g/m*3 22.6 C 0 km/h
95 04-08-2009 22:00:00 20.24 C 5.96 g/m*3 20.24 C 0 km/h
96 04-08-2009 23:00:00 18.76 C 6.11 g/m*3 18.76 C 0 km/h
97 05-08-2009 00:00:00 17.28 C 6.42 g/m*3 17.28 C 0 km/h
98 05-08-2009 01:00:00 16.08 C 6.71 g/m*3 16.08 C 0 km/h
99 05-08-2009 02:00:00 15.04 C 6.81 g/m*3 15.04 C 0 km/h
100 05-08-2009 03:00:00 14.14 C 7.11 g/m*3 14.14 C 0 km/h
Sensor: Nr:Datum:Temp:Abs-Feuchte:Windchill:Wind:
Aussen-T/F 101 05-08-2009 04:00:00 13.2 C 7.21 g/m*3 13.2 C 0 km/h
102 05-08-2009 05:00:00 12.54 C 7.38 g/m*3 12.54 C 0 km/h
103 05-08-2009 06:00:00 12.1 C 7.46 g/m*3 12.1 C 0 km/h
104 05-08-2009 07:00:00 12.32 C 7.83 g/m*3 12.32 C 0 km/h
105 05-08-2009 08:00:00 13.38 C 8.1 g/m*3 13.38 C 0 km/h
106 05-08-2009 09:00:00 15.84 C 8.37 g/m*3 15.84 C 0 km/h
107 05-08-2009 10:00:00 19.42 C 8.52 g/m*3 19.42 C 0 km/h
108 05-08-2009 11:00:00 23.24 C 8.46 g/m*3 23.24 C 0 km/h
109 05-08-2009 12:00:00 26.34 C 6.25 g/m*3 26.34 C 0 km/h
110 05-08-2009 13:00:00 29.22 C 6.1 g/m*3 29.22 C 0 km/h
111 05-08-2009 14:00:00 30.26 C 6.15 g/m*3 30.26 C 0 km/h
112 05-08-2009 15:00:00 31.54 C 6.59 g/m*3 31.54 C 0 km/h
113 05-08-2009 16:00:00 32.12 C 6.8 g/m*3 32.12 C 0 km/h
114 05-08-2009 17:00:00 32.8 C 7.04 g/m*3 32.8 C 0 km/h
115 05-08-2009 18:00:00 32.7 C 7.01 g/m*3 32.7 C 0 km/h
116 05-08-2009 19:00:00 31.08 C 6.81 g/m*3 31.08 C 0 km/h
117 05-08-2009 20:00:00 28.84 C 7.4 g/m*3 28.84 C 0 km/h
118 05-08-2009 21:00:00 24.6 C 7.61 g/m*3 24.6 C 0 km/h
119 05-08-2009 22:00:00 23.06 C 8.13 g/m*3 23.06 C 0 km/h
120 05-08-2009 23:00:00 21.52 C 8.19 g/m*3 21.52 C 0 km/h
121 06-08-2009 00:00:00 20.04 C 8.66 g/m*3 20.04 C 0 km/h
122 06-08-2009 01:00:00 18.92 C 8.73 g/m*3 18.92 C 0 km/h
123 06-08-2009 02:00:00 17.98 C 8.93 g/m*3 17.98 C 0 km/h
124 06-08-2009 03:00:00 16.98 C 9.02 g/m*3 16.98 C 0 km/h
125 06-08-2009 04:00:00 16.12 C 9.06 g/m*3 16.12 C 0 km/h
Sensor: Nr:Datum:Temp:Abs-Feuchte:Windchill:Wind:
Aussen-T/F 126 06-08-2009 05:00:00 15.36 C 9.25 g/m*3 15.36 C 0 km/h
127 06-08-2009 06:00:00 14.86 C 9.33 g/m*3 14.86 C 0 km/h
128 06-08-2009 07:00:00 15.26 C 9.59 g/m*3 15.26 C 0 km/h
129 06-08-2009 08:00:00 16.3 C 9.77 g/m*3 16.3 C 0 km/h
130 06-08-2009 09:00:00 18.92 C 10.02 g/m*3 18.92 C 0 km/h
131 06-08-2009 10:00:00 22.78 C 9.09 g/m*3 22.78 C 0 km/h
132 06-08-2009 11:00:00 25.5 C 8.62 g/m*3 25.5 C 0 km/h
133 06-08-2009 12:00:00 28.3 C 8.18 g/m*3 28.3 C 0 km/h
134 06-08-2009 13:00:00 30.96 C 7.28 g/m*3 30.96 C 0 km/h
135 06-08-2009 14:00:00 31.3 C 6.5 g/m*3 31.3 C 0 km/h
136 06-08-2009 15:00:00 32.68 C 7 g/m*3 32.68 C 0 km/h
137 06-08-2009 16:00:00 33.3 C 7.23 g/m*3 33.3 C 0 km/h
138 06-08-2009 17:00:00 33.98 C 7.5 g/m*3 33.98 C 0 km/h
139 06-08-2009 18:00:00 33.68 C 7.38 g/m*3 33.68 C 0 km/h
140 06-08-2009 19:00:00 32.86 C 7.07 g/m*3 32.86 C 0 km/h
141 06-08-2009 20:00:00 30.36 C 7.79 g/m*3 30.36 C 0 km/h
142 06-08-2009 21:00:00 26.4 C 8.31 g/m*3 26.4 C 0 km/h
143 06-08-2009 22:00:00 24.68 C 9 g/m*3 24.68 C 0 km/h
144 06-08-2009 23:00:00 23.2 C 9.36 g/m*3 23.2 C 0 km/h
145 07-08-2009 00:00:00 22.06 C 9.43 g/m*3 22.06 C 0 km/h
146 07-08-2009 01:00:00 20.94 C 9.71 g/m*3 20.94 C 0 km/h
147 07-08-2009 02:00:00 19.78 C 10 g/m*3 19.78 C 0 km/h
148 07-08-2009 03:00:00 18.86 C 10.21 g/m*3 18.86 C 0 km/h
149 07-08-2009 04:00:00 18.08 C 10.31 g/m*3 18.08 C 0 km/h
150 07-08-2009 05:00:00 17.38 C 10.36 g/m*3 17.38 C 0 km/h
Sensor: Nr:Datum:Temp:Abs-Feuchte:Windchill:Wind:
Aussen-T/F 151 07-08-2009 06:00:00 16.96 C 10.36 g/m*3 16.96 C 0 km/h
152 07-08-2009 07:00:00 17.26 C 10.67 g/m*3 17.26 C 0 km/h
153 07-08-2009 08:00:00 18.4 C 10.88 g/m*3 18.4 C 0 km/h
154 07-08-2009 09:00:00 20.76 C 10.95 g/m*3 20.76 C 0 km/h
155 07-08-2009 10:00:00 24.18 C 10.95 g/m*3 24.18 C 0 km/h
156 07-08-2009 11:00:00 27.7 C 9.31 g/m*3 27.7 C 0 km/h
157 07-08-2009 12:00:00 30.1 C 8.48 g/m*3 30.1 C 0 km/h
158 07-08-2009 13:00:00 30.88 C 7 g/m*3 30.88 C 0 km/h
159 07-08-2009 14:00:00 32.02 C 6.76 g/m*3 32.02 C 0 km/h
160 07-08-2009 15:00:00 32.56 C 6.96 g/m*3 32.56 C 0 km/h
161 07-08-2009 16:00:00 33.38 C 7.26 g/m*3 33.38 C 0 km/h
162 07-08-2009 17:00:00 33.8 C 7.43 g/m*3 33.8 C 0 km/h
163 07-08-2009 18:00:00 33.86 C 7.45 g/m*3 33.86 C 0 km/h
164 07-08-2009 19:00:00 32.08 C 7.53 g/m*3 32.08 C 0 km/h
165 07-08-2009 20:00:00 28.44 C 8.13 g/m*3 28.44 C 0 km/h
166 07-08-2009 21:00:00 26.36 C 8.3 g/m*3 26.36 C 0 km/h
167 07-08-2009 22:00:00 25.06 C 9.52 g/m*3 25.06 C 0 km/h
168 07-08-2009 23:00:00 24.08 C 10.4 g/m*3 24.08 C 0 km/h
169 08-08-2009 00:00:00 23.42 C 10.78 g/m*3 23.42 C 0 km/h
170 08-08-2009 01:00:00 23.12 C 11.13 g/m*3 23.12 C 0 km/h
171 08-08-2009 02:00:00 22.58 C 11.28 g/m*3 22.58 C 0 km/h
172 08-08-2009 03:00:00 21.72 C 11.46 g/m*3 21.72 C 0 km/h
173 08-08-2009 04:00:00 21.16 C 12.09 g/m*3 21.16 C 0 km/h
174 08-08-2009 05:00:00 21.28 C 12.59 g/m*3 21.28 C 0 km/h
175 08-08-2009 06:00:00 21.3 C 12.71 g/m*3 21.3 C 0 km/h
Sensor: Nr:Datum:Temp:Abs-Feuchte:Windchill:Wind:
Aussen-T/F 176 08-08-2009 07:00:00 21.04 C 12.89 g/m*3 21.04 C 0 km/h
177 08-08-2009 08:00:00 21.24 C 12.85 g/m*3 21.24 C 0 km/h
178 08-08-2009 09:00:00 21.52 C 12.69 g/m*3 21.52 C 0 km/h
179 08-08-2009 10:00:00 21.34 C 12.26 g/m*3 21.34 C 0 km/h
180 08-08-2009 11:00:00 20.4 C 12.49 g/m*3 20.4 C 0 km/h
181 08-08-2009 12:00:00 20.5 C 12.6 g/m*3 20.5 C 0 km/h
182 08-08-2009 13:00:00 21.88 C 12.07 g/m*3 21.88 C 0 km/h
183 08-08-2009 14:00:00 21.98 C 12.06 g/m*3 21.98 C 0 km/h
184 08-08-2009 15:00:00 21.94 C 12.07 g/m*3 21.94 C 0 km/h
185 08-08-2009 16:00:00 20.8 C 12.28 g/m*3 20.8 C 0 km/h
186 08-08-2009 17:00:00 20.84 C 12.38 g/m*3 20.84 C 0 km/h
187 08-08-2009 18:00:00 20.56 C 12.32 g/m*3 20.56 C 0 km/h
188 08-08-2009 19:00:00 20.48 C 12.55 g/m*3 20.48 C 0 km/h
189 08-08-2009 20:00:00 20.46 C 12.46 g/m*3 20.46 C 0 km/h
190 08-08-2009 21:00:00 20.1 C 12.45 g/m*3 20.1 C 0 km/h
191 08-08-2009 22:00:00 19.92 C 12.56 g/m*3 19.92 C 0 km/h
192 08-08-2009 23:00:00 19.84 C 12.64 g/m*3 19.84 C 0 km/h
193 09-08-2009 00:00:00 19.94 C 12.64 g/m*3 19.94 C 0 km/h
194 09-08-2009 01:00:00 19.72 C 12.85 g/m*3 19.72 C 0 km/h
195 09-08-2009 02:00:00 19.68 C 12.72 g/m*3 19.68 C 0 km/h
196 09-08-2009 03:00:00 19.5 C 12.69 g/m*3 19.5 C 0 km/h
197 09-08-2009 04:00:00 19.3 C 12.71 g/m*3 19.3 C 0 km/h
198 09-08-2009 05:00:00 19.28 C 12.76 g/m*3 19.28 C 0 km/h
199 09-08-2009 06:00:00 19.2 C 12.76 g/m*3 19.2 C 0 km/h
200 09-08-2009 07:00:00 19.36 C 12.85 g/m*3 19.36 C 0 km/h
Sensor: Nr:Datum:Temp:Abs-Feuchte:Windchill:Wind:
Aussen-T/F 201 09-08-2009 08:00:00 20.06 C 12.63 g/m*3 20.06 C 0 km/h
202 09-08-2009 09:00:00 20.98 C 12.33 g/m*3 20.98 C 0 km/h
203 09-08-2009 10:00:00 22.44 C 12.18 g/m*3 22.44 C 0 km/h
204 09-08-2009 11:00:00 24.6 C 11.57 g/m*3 24.6 C 0 km/h
205 09-08-2009 12:00:00 24.38 C 11.34 g/m*3 24.38 C 0 km/h
206 09-08-2009 13:00:00 24.06 C 11.31 g/m*3 24.06 C 0 km/h
207 09-08-2009 14:00:00 25.16 C 11.2 g/m*3 25.16 C 0 km/h
208 09-08-2009 15:00:00 27.64 C 10.61 g/m*3 27.64 C 0 km/h
209 09-08-2009 16:00:00 29.56 C 10.13 g/m*3 29.56 C 0 km/h
210 09-08-2009 17:00:00 29.78 C 9.89 g/m*3 29.78 C 0 km/h
211 09-08-2009 18:00:00 27.66 C 9.98 g/m*3 27.66 C 0 km/h
212 09-08-2009 19:00:00 25.5 C 10.56 g/m*3 25.5 C 0 km/h
213 09-08-2009 20:00:00 24.1 C 11.2 g/m*3 24.1 C 0 km/h
214 09-08-2009 21:00:00 22.825 C 11.5 g/m*3 22.83 C 0 km/h
215 09-08-2009 22:00:00 21.86 C 11.55 g/m*3 21.86 C 0 km/h
216 09-08-2009 23:00:00 21.12 C 11.77 g/m*3 21.12 C 0 km/h
217 10-08-2009 00:00:00 20.58 C 11.98 g/m*3 20.58 C 0 km/h
218 10-08-2009 01:00:00 19.98 C 12.15 g/m*3 19.98 C 0 km/h
219 10-08-2009 02:00:00 19.76 C 12.27 g/m*3 19.76 C 0 km/h
220 10-08-2009 03:00:00 19.28 C 12.33 g/m*3 19.28 C 0 km/h
221 10-08-2009 04:00:00 19.02 C 12.43 g/m*3 19.02 C 0 km/h
222 10-08-2009 05:00:00 18.7 C 12.46 g/m*3 18.7 C 0 km/h
223 10-08-2009 06:00:00 18.84 C 12.62 g/m*3 18.84 C 0 km/h
224 10-08-2009 07:00:00 18.98 C 12.7 g/m*3 18.98 C 0 km/h
225 10-08-2009 08:00:00 19.8 C 12.74 g/m*3 19.8 C 0 km/h
Sensor: Nr:Datum:Temp:Abs-Feuchte:Windchill:Wind:
Aussen-T/F 226 10-08-2009 09:00:00 20.96 C 12.57 g/m*3 20.96 C 0 km/h
227 10-08-2009 10:00:00 21.76 C 12.25 g/m*3 21.76 C 0 km/h
228 10-08-2009 11:00:00 21.76 C 12.25 g/m*3 21.76 C 0 km/h
229 10-08-2009 12:00:00 20.28 C 13.14 g/m*3 20.28 C 0 km/h
230 10-08-2009 13:00:00 22.02 C 15.19 g/m*3 22.02 C 0 km/h
231 10-08-2009 14:00:00 26.56 C 13.91 g/m*3 26.56 C 0 km/h
232 10-08-2009 15:00:00 28.1 C 11.32 g/m*3 28.1 C 0 km/h
233 10-08-2009 16:00:00 26.78 C 10.42 g/m*3 26.78 C 0 km/h
234 10-08-2009 17:00:00 25.4 C 10.55 g/m*3 25.4 C 0 km/h
235 10-08-2009 18:00:00 25.58 C 10.13 g/m*3 25.58 C 0 km/h
236 10-08-2009 19:00:00 25.46 C 9.02 g/m*3 25.46 C 0 km/h
237 10-08-2009 20:00:00 23.56 C 7.98 g/m*3 23.56 C 0 km/h
238 10-08-2009 21:00:00 20.64 C 8.72 g/m*3 20.64 C 0 km/h
239 10-08-2009 22:00:00 18.9 C 9.07 g/m*3 18.9 C 0 km/h
240 10-08-2009 23:00:00 18.16 C 9.24 g/m*3 18.16 C 0 km/h
241 11-08-2009 00:00:00 18.44 C 9.68 g/m*3 18.44 C 0 km/h
242 11-08-2009 01:00:00 18.14 C 9.79 g/m*3 18.14 C 0 km/h
243 11-08-2009 02:00:00 17.86 C 10.05 g/m*3 17.86 C 0 km/h
244 11-08-2009 03:00:00 17.96 C 10.17 g/m*3 17.96 C 0 km/h
245 11-08-2009 04:00:00 17.88 C 10.71 g/m*3 17.88 C 0 km/h
246 11-08-2009 05:00:00 17.78 C 11.31 g/m*3 17.78 C 0 km/h
247 11-08-2009 06:00:00 17.68 C 11.54 g/m*3 17.68 C 0 km/h
248 11-08-2009 07:00:00 18.28 C 11.49 g/m*3 18.28 C 0 km/h
249 11-08-2009 08:00:00 19.06 C 11.15 g/m*3 19.06 C 0 km/h
250 11-08-2009 09:00:00 18.12 C 12 g/m*3 18.12 C 0 km/h
Sensor: Nr:Datum:Temp:Abs-Feuchte:Windchill:Wind:
Aussen-T/F 251 11-08-2009 10:00:00 19.64 C 11.78 g/m*3 19.64 C 0 km/h
252 11-08-2009 11:00:00 20.68 C 11.26 g/m*3 20.68 C 0 km/h
253 11-08-2009 12:00:00 20.4 C 12.88 g/m*3 20.4 C 0 km/h
254 11-08-2009 13:00:00 20.9 C 12.75 g/m*3 20.9 C 0 km/h
255 11-08-2009 14:00:00 22.16 C 13.67 g/m*3 22.16 C 0 km/h
256 11-08-2009 15:00:00 23.16 C 13.36 g/m*3 23.16 C 0 km/h
257 11-08-2009 16:00:00 25.92 C 12.36 g/m*3 25.92 C 0 km/h
258 11-08-2009 17:00:00 26.36 C 11.52 g/m*3 26.36 C 0 km/h
259 11-08-2009 18:00:00 24.32 C 10.94 g/m*3 24.32 C 0 km/h
260 11-08-2009 19:00:00 23.66 C 10.84 g/m*3 23.66 C 0 km/h
261 11-08-2009 20:00:00 22.12 C 11.69 g/m*3 22.12 C 0 km/h
262 11-08-2009 21:00:00 20.82 C 11.78 g/m*3 20.82 C 0 km/h
263 11-08-2009 22:00:00 19.74 C 11.91 g/m*3 19.74 C 0 km/h
264 11-08-2009 23:00:00 19.48 C 12.14 g/m*3 19.48 C 0 km/h
265 12-08-2009 00:00:00 19.18 C 12.15 g/m*3 19.18 C 0 km/h
266 12-08-2009 01:00:00 18.6 C 11.55 g/m*3 18.6 C 0 km/h
267 12-08-2009 02:00:00 18.2 C 11.47 g/m*3 18.2 C 0 km/h
268 12-08-2009 03:00:00 17.84 C 11.78 g/m*3 17.84 C 0 km/h
269 12-08-2009 04:00:00 17.22 C 11.88 g/m*3 17.22 C 0 km/h
270 12-08-2009 05:00:00 16 C 11.36 g/m*3 16 C 0 km/h
271 12-08-2009 06:00:00 15.14 C 11.25 g/m*3 15.14 C 0 km/h
272 12-08-2009 07:00:00 15.08 C 11.36 g/m*3 15.08 C 0 km/h
273 12-08-2009 08:00:00 16.4 C 11.33 g/m*3 16.4 C 0 km/h
274 12-08-2009 09:00:00 17.84 C 10.59 g/m*3 17.84 C 0 km/h
275 12-08-2009 10:00:00 20.18 C 9.78 g/m*3 20.18 C 0 km/h
Sensor: Nr:Datum:Temp:Abs-Feuchte:Windchill:Wind:
Aussen-T/F 276 12-08-2009 11:00:00 22.7 C 9.58 g/m*3 22.7 C 0 km/h
277 12-08-2009 12:00:00 24.8 C 8.97 g/m*3 24.8 C 0 km/h
278 12-08-2009 13:00:00 25.68 C 8.66 g/m*3 25.68 C 0 km/h
279 12-08-2009 14:00:00 26.94 C 8.05 g/m*3 26.94 C 0 km/h
280 12-08-2009 15:00:00 27.38 C 7.83 g/m*3 27.38 C 0 km/h
281 12-08-2009 16:00:00 26.16 C 8.35 g/m*3 26.16 C 0 km/h
282 12-08-2009 17:00:00 25.82 C 8.72 g/m*3 25.82 C 0 km/h
283 12-08-2009 18:00:00 25.52 C 9.1 g/m*3 25.52 C 0 km/h
284 12-08-2009 19:00:00 24.86 C 9.41 g/m*3 24.86 C 0 km/h
285 12-08-2009 20:00:00 23.68 C 10.55 g/m*3 23.68 C 0 km/h
286 12-08-2009 21:00:00 19.7 C 13.96 g/m*3 19.7 C 0 km/h
287 12-08-2009 22:00:00 19.28 C 13.52 g/m*3 19.28 C 0 km/h
288 12-08-2009 23:00:00 19.14 C 13.47 g/m*3 19.14 C 0 km/h
289 13-08-2009 00:00:00 18.78 C 13.54 g/m*3 18.78 C 0 km/h
290 13-08-2009 01:00:00 18.18 C 13.54 g/m*3 18.18 C 0 km/h
291 13-08-2009 02:00:00 17.9 C 13.5 g/m*3 17.9 C 0 km/h
292 13-08-2009 03:00:00 17.54 C 13.57 g/m*3 17.54 C 0 km/h
293 13-08-2009 04:00:00 16.48 C 12.87 g/m*3 16.48 C 0 km/h
294 13-08-2009 05:00:00 16.34 C 12.93 g/m*3 16.34 C 0 km/h
295 13-08-2009 06:00:00 16.2 C 12.88 g/m*3 16.2 C 0 km/h
296 13-08-2009 07:00:00 16.6 C 13.19 g/m*3 16.6 C 0 km/h
297 13-08-2009 08:00:00 17.08 C 13.32 g/m*3 17.08 C 0 km/h
298 13-08-2009 09:00:00 18.2 C 13.21 g/m*3 18.2 C 0 km/h
299 13-08-2009 10:00:00 19.58 C 12.28 g/m*3 19.58 C 0 km/h
300 13-08-2009 11:00:00 20.94 C 10.66 g/m*3 20.94 C 0 km/h
Sensor: Nr:Datum:Temp:Abs-Feuchte:Windchill:Wind:
Aussen-T/F 301 13-08-2009 12:00:00 23.38 C 10.12 g/m*3 23.38 C 0 km/h
302 13-08-2009 13:00:00 23.56 C 10.99 g/m*3 23.56 C 0 km/h
303 13-08-2009 14:00:00 24.56 C 10.64 g/m*3 24.56 C 0 km/h
304 13-08-2009 15:00:00 22.9 C 12.02 g/m*3 22.9 C 0 km/h
305 13-08-2009 16:00:00 19.32 C 12.75 g/m*3 19.32 C 0 km/h
306 13-08-2009 17:00:00 18.74 C 13.35 g/m*3 18.74 C 0 km/h
307 13-08-2009 18:00:00 17.98 C 13.68 g/m*3 17.98 C 0 km/h
308 13-08-2009 19:00:00 17.64 C 13.53 g/m*3 17.64 C 0 km/h
309 13-08-2009 20:00:00 17.56 C 13.38 g/m*3 17.56 C 0 km/h
310 13-08-2009 21:00:00 16.56 C 12.71 g/m*3 16.56 C 0 km/h
311 13-08-2009 22:00:00 15.1 C 11.77 g/m*3 15.1 C 0 km/h
312 13-08-2009 23:00:00 14.3 C 11.3 g/m*3 14.3 C 0 km/h
313 14-08-2009 00:00:00 14.18 C 11.27 g/m*3 14.18 C 0 km/h
314 14-08-2009 01:00:00 14.32 C 11.49 g/m*3 14.32 C 0 km/h
315 14-08-2009 02:00:00 14.36 C 11.59 g/m*3 14.36 C 0 km/h
316 14-08-2009 03:00:00 14.1 C 11.29 g/m*3 14.1 C 0 km/h
317 14-08-2009 04:00:00 14.04 C 11.08 g/m*3 14.04 C 0 km/h
318 14-08-2009 05:00:00 14.14 C 11 g/m*3 14.14 C 0 km/h
319 14-08-2009 06:00:00 14.02 C 10.97 g/m*3 14.02 C 0 km/h
320 14-08-2009 07:00:00 14.2 C 11.09 g/m*3 14.2 C 0 km/h
321 14-08-2009 08:00:00 15.22 C 11.36 g/m*3 15.22 C 0 km/h
322 14-08-2009 09:00:00 16.66 C 11.29 g/m*3 16.66 C 0 km/h
323 14-08-2009 10:00:00 17.54 C 10.82 g/m*3 17.54 C 0 km/h
324 14-08-2009 11:00:00 19.1 C 10.59 g/m*3 19.1 C 0 km/h
325 14-08-2009 12:00:00 21.04 C 10.14 g/m*3 21.04 C 0 km/h
Sensor: Nr:Datum:Temp:Abs-Feuchte:Windchill:Wind:
Aussen-T/F 326 14-08-2009 13:00:00 22.98 C 9.44 g/m*3 22.98 C 0 km/h
327 14-08-2009 14:00:00 25.06 C 8.64 g/m*3 25.06 C 0 km/h
328 14-08-2009 15:00:00 26.22 C 7.49 g/m*3 26.22 C 0 km/h
329 14-08-2009 16:00:00 26.92 C 7.28 g/m*3 26.92 C 0 km/h
330 14-08-2009 17:00:00 28.96 C 7.11 g/m*3 28.96 C 0 km/h
331 14-08-2009 18:00:00 29.22 C 7.5 g/m*3 29.22 C 0 km/h
332 14-08-2009 19:00:00 26.12 C 8.92 g/m*3 26.12 C 0 km/h
333 14-08-2009 20:00:00 22.52 C 9.32 g/m*3 22.52 C 0 km/h
334 14-08-2009 21:00:00 19.58 C 9.44 g/m*3 19.58 C 0 km/h
335 14-08-2009 22:00:00 18.62 C 9.98 g/m*3 18.62 C 0 km/h
336 14-08-2009 23:00:00 17.46 C 9.88 g/m*3 17.46 C 0 km/h
337 15-08-2009 00:00:00 16.6 C 9.94 g/m*3 16.6 C 0 km/h
338 15-08-2009 01:00:00 15.8 C 10.28 g/m*3 15.8 C 0 km/h
339 15-08-2009 02:00:00 15.08 C 10.36 g/m*3 15.08 C 0 km/h
340 15-08-2009 03:00:00 14.52 C 10.31 g/m*3 14.52 C 0 km/h
341 15-08-2009 04:00:00 13.94 C 10.19 g/m*3 13.94 C 0 km/h
342 15-08-2009 05:00:00 13.74 C 10.42 g/m*3 13.74 C 0 km/h
343 15-08-2009 06:00:00 13.94 C 10.31 g/m*3 13.94 C 0 km/h
344 15-08-2009 07:00:00 13.76 C 10.13 g/m*3 13.76 C 0 km/h
345 15-08-2009 08:00:00 14.28 C 10.21 g/m*3 14.28 C 0 km/h
346 15-08-2009 09:00:00 15.2 C 10.28 g/m*3 15.2 C 0 km/h
347 15-08-2009 10:00:00 17.78 C 10.98 g/m*3 17.78 C 0 km/h
348 15-08-2009 11:00:00 21.4 C 11.06 g/m*3 21.4 C 0 km/h
349 15-08-2009 12:00:00 24.12 C 9.07 g/m*3 24.12 C 0 km/h
350 15-08-2009 13:00:00 26.38 C 7.86 g/m*3 26.38 C 0 km/h
Sensor: Nr:Datum:Temp:Abs-Feuchte:Windchill:Wind:
Aussen-T/F 351 15-08-2009 14:00:00 28.02 C 8.17 g/m*3 28.02 C 0 km/h
352 15-08-2009 15:00:00 29.96 C 8.05 g/m*3 29.96 C 0 km/h
353 15-08-2009 16:00:00 31.08 C 7.2 g/m*3 31.08 C 0 km/h
354 15-08-2009 17:00:00 31.74 C 6.66 g/m*3 31.74 C 0 km/h
355 15-08-2009 18:00:00 31.42 C 6.55 g/m*3 31.42 C 0 km/h
356 15-08-2009 19:00:00 30.94 C 7.21 g/m*3 30.94 C 0 km/h
357 15-08-2009 20:00:00 27.14 C 8.61 g/m*3 27.14 C 0 km/h
358 15-08-2009 21:00:00 23.64 C 9.59 g/m*3 23.64 C 0 km/h
359 15-08-2009 22:00:00 21.92 C 9.78 g/m*3 21.92 C 0 km/h
360 15-08-2009 23:00:00 20.7 C 9.97 g/m*3 20.7 C 0 km/h
361 16-08-2009 00:00:00 19.6 C 10.1 g/m*3 19.6 C 0 km/h
362 16-08-2009 01:00:00 18.48 C 10.21 g/m*3 18.48 C 0 km/h
363 16-08-2009 02:00:00 17.76 C 10.39 g/m*3 17.76 C 0 km/h
364 16-08-2009 03:00:00 16.98 C 10.46 g/m*3 16.98 C 0 km/h
365 16-08-2009 04:00:00 16.28 C 10.5 g/m*3 16.28 C 0 km/h
366 16-08-2009 05:00:00 15.84 C 10.66 g/m*3 15.84 C 0 km/h
367 16-08-2009 06:00:00 15.52 C 10.48 g/m*3 15.52 C 0 km/h
368 16-08-2009 07:00:00 15.56 C 10.59 g/m*3 15.56 C 0 km/h
369 16-08-2009 08:00:00 16.34 C 10.96 g/m*3 16.34 C 0 km/h
370 16-08-2009 09:00:00 18.18 C 11.36 g/m*3 18.18 C 0 km/h
371 16-08-2009 10:00:00 21.36 C 11.9 g/m*3 21.36 C 0 km/h
372 16-08-2009 11:00:00 25.04 C 11.49 g/m*3 25.04 C 0 km/h
373 16-08-2009 12:00:00 28.1 C 9.46 g/m*3 28.1 C 0 km/h
374 16-08-2009 13:00:00 30.4 C 8.37 g/m*3 30.4 C 0 km/h
375 16-08-2009 14:00:00 31.58 C 7.33 g/m*3 31.58 C 0 km/h
Sensor: Nr:Datum:Temp:Abs-Feuchte:Windchill:Wind:
Aussen-T/F 376 16-08-2009 15:00:00 32.36 C 6.88 g/m*3 32.36 C 0 km/h
377 16-08-2009 16:00:00 32.84 C 7.06 g/m*3 32.84 C 0 km/h
378 16-08-2009 17:00:00 32.78 C 7.04 g/m*3 32.78 C 0 km/h
379 16-08-2009 18:00:00 32.3 C 7.48 g/m*3 32.3 C 0 km/h
380 16-08-2009 19:00:00 31.58 C 9.11 g/m*3 31.58 C 0 km/h
381 16-08-2009 20:00:00 28.98 C 10.16 g/m*3 28.98 C 0 km/h
382 16-08-2009 21:00:00 26.28 C 11.03 g/m*3 26.28 C 0 km/h
383 16-08-2009 22:00:00 24.72 C 11.42 g/m*3 24.72 C 0 km/h
384 16-08-2009 23:00:00 23.44 C 11.76 g/m*3 23.44 C 0 km/h
385 17-08-2009 00:00:00 22.54 C 11.93 g/m*3 22.54 C 0 km/h
386 17-08-2009 01:00:00 21.5 C 11.62 g/m*3 21.5 C 0 km/h
387 17-08-2009 02:00:00 20.66 C 11.82 g/m*3 20.66 C 0 km/h
388 17-08-2009 03:00:00 19.6 C 11.99 g/m*3 19.6 C 0 km/h
389 17-08-2009 04:00:00 18.84 C 12.11 g/m*3 18.84 C 0 km/h
390 17-08-2009 05:00:00 18.16 C 12.03 g/m*3 18.16 C 0 km/h
391 17-08-2009 06:00:00 17.86 C 12.09 g/m*3 17.86 C 0 km/h
392 17-08-2009 07:00:00 18.38 C 12.16 g/m*3 18.38 C 0 km/h
393 17-08-2009 08:00:00 19.18 C 12.12 g/m*3 19.18 C 0 km/h
394 17-08-2009 09:00:00 20.82 C 12.04 g/m*3 20.82 C 0 km/h
395 17-08-2009 10:00:00 22.88 C 12.08 g/m*3 22.88 C 0 km/h
396 17-08-2009 11:00:00 26.16 C 11.64 g/m*3 26.16 C 0 km/h
397 17-08-2009 12:00:00 28.22 C 11.01 g/m*3 28.22 C 0 km/h
398 17-08-2009 13:00:00 29.74 C 10.23 g/m*3 29.74 C 0 km/h
399 17-08-2009 14:00:00 30.14 C 9.9 g/m*3 30.14 C 0 km/h
400 17-08-2009 15:00:00 29.82 C 10.03 g/m*3 29.82 C 0 km/h
Sensor: Nr:Datum:Temp:Abs-Feuchte:Windchill:Wind:
Aussen-T/F 401 17-08-2009 16:00:00 29.9 C 10.01 g/m*3 29.9 C 0 km/h
402 17-08-2009 17:00:00 29.2 C 9.52 g/m*3 29.2 C 0 km/h
403 17-08-2009 18:00:00 28.88 C 8.73 g/m*3 28.88 C 0 km/h
404 17-08-2009 19:00:00 26.7 C 8.76 g/m*3 26.7 C 0 km/h
405 17-08-2009 20:00:00 23.58 C 8.84 g/m*3 23.58 C 0 km/h
406 17-08-2009 21:00:00 22.22 C 8.37 g/m*3 22.22 C 0 km/h
407 17-08-2009 22:00:00 21.06 C 8.9 g/m*3 21.06 C 0 km/h
408 17-08-2009 23:00:00 20.72 C 9.44 g/m*3 20.72 C 0 km/h
409 18-08-2009 00:00:00 19.9 C 9.55 g/m*3 19.9 C 0 km/h
410 18-08-2009 01:00:00 18.8 C 9.37 g/m*3 18.8 C 0 km/h
411 18-08-2009 02:00:00 18 C 9.49 g/m*3 18 C 0 km/h
412 18-08-2009 03:00:00 16.9 C 9.69 g/m*3 16.9 C 0 km/h
413 18-08-2009 04:00:00 15.9 C 9.94 g/m*3 15.9 C 0 km/h
414 18-08-2009 05:00:00 15.14 C 9.91 g/m*3 15.14 C 0 km/h
415 18-08-2009 06:00:00 14.38 C 9.95 g/m*3 14.38 C 0 km/h
416 18-08-2009 07:00:00 14.32 C 10.06 g/m*3 14.32 C 0 km/h
417 18-08-2009 08:00:00 14.92 C 10.31 g/m*3 14.92 C 0 km/h
418 18-08-2009 09:00:00 16.88 C 10.6 g/m*3 16.88 C 0 km/h
419 18-08-2009 10:00:00 19.58 C 10.22 g/m*3 19.58 C 0 km/h
420 18-08-2009 11:00:00 21.94 C 8.7 g/m*3 21.94 C 0 km/h
421 18-08-2009 12:00:00 23.88 C 7.61 g/m*3 23.88 C 0 km/h
422 18-08-2009 13:00:00 26.58 C 7.04 g/m*3 26.58 C 0 km/h
423 18-08-2009 14:00:00 27.9 C 6.11 g/m*3 27.9 C 0 km/h
424 18-08-2009 15:00:00 30.34 C 6.18 g/m*3 30.34 C 0 km/h
425 18-08-2009 16:00:00 31.12 C 6.44 g/m*3 31.12 C 0 km/h
Sensor: Nr:Datum:Temp:Abs-Feuchte:Windchill:Wind:
Aussen-T/F 426 18-08-2009 17:00:00 32.44 C 6.91 g/m*3 32.44 C 0 km/h
427 18-08-2009 18:00:00 32.08 C 6.78 g/m*3 32.08 C 0 km/h
428 18-08-2009 19:00:00 29.56 C 6.87 g/m*3 29.56 C 0 km/h
429 18-08-2009 20:00:00 25.2 C 7.03 g/m*3 25.2 C 0 km/h
430 18-08-2009 21:00:00 22.94 C 7.7 g/m*3 22.94 C 0 km/h
431 18-08-2009 22:00:00 21.48 C 7.95 g/m*3 21.48 C 0 km/h
432 18-08-2009 23:00:00 20.34 C 8.29 g/m*3 20.34 C 0 km/h
433 19-08-2009 00:00:00 19.28 C 8.91 g/m*3 19.28 C 0 km/h
434 19-08-2009 01:00:00 18.22 C 9.18 g/m*3 18.22 C 0 km/h
435 19-08-2009 02:00:00 17.38 C 9.36 g/m*3 17.38 C 0 km/h
436 19-08-2009 03:00:00 16.6 C 9.38 g/m*3 16.6 C 0 km/h
437 19-08-2009 04:00:00 15.74 C 9.44 g/m*3 15.74 C 0 km/h
438 19-08-2009 05:00:00 15.1 C 9.47 g/m*3 15.1 C 0 km/h
439 19-08-2009 06:00:00 14.52 C 9.46 g/m*3 14.52 C 0 km/h
440 19-08-2009 07:00:00 14.58 C 9.72 g/m*3 14.58 C 0 km/h
441 19-08-2009 08:00:00 15.54 C 10.18 g/m*3 15.54 C 0 km/h
442 19-08-2009 09:00:00 17.58 C 10.4 g/m*3 17.58 C 0 km/h
443 19-08-2009 10:00:00 20.8 C 10.18 g/m*3 20.8 C 0 km/h
444 19-08-2009 11:00:00 24.18 C 10.15 g/m*3 24.18 C 0 km/h
445 19-08-2009 12:00:00 27.46 C 8.92 g/m*3 27.46 C 0 km/h
446 19-08-2009 13:00:00 30.16 C 8.08 g/m*3 30.16 C 0 km/h
447 19-08-2009 14:00:00 31.74 C 7.46 g/m*3 31.74 C 0 km/h
448 19-08-2009 15:00:00 32.88 C 7.15 g/m*3 32.88 C 0 km/h
449 19-08-2009 16:00:00 33.3 C 7.23 g/m*3 33.3 C 0 km/h
450 19-08-2009 17:00:00 33.74 C 7.4 g/m*3 33.74 C 0 km/h
Sensor: Nr:Datum:Temp:Abs-Feuchte:Windchill:Wind:
Aussen-T/F 451 19-08-2009 18:00:00 34.06 C 7.53 g/m*3 34.06 C 0 km/h
452 19-08-2009 19:00:00 32.56 C 7.3 g/m*3 32.56 C 0 km/h
453 19-08-2009 20:00:00 29.38 C 9.21 g/m*3 29.38 C 0 km/h
454 19-08-2009 21:00:00 26.9 C 9.52 g/m*3 26.9 C 0 km/h
455 19-08-2009 22:00:00 25.02 C 10 g/m*3 25.02 C 0 km/h
456 19-08-2009 23:00:00 23.52 C 10.37 g/m*3 23.52 C 0 km/h
457 20-08-2009 00:00:00 22.26 C 10.8 g/m*3 22.26 C 0 km/h
458 20-08-2009 01:00:00 21.28 C 10.84 g/m*3 21.28 C 0 km/h
459 20-08-2009 02:00:00 20.38 C 10.96 g/m*3 20.38 C 0 km/h
460 20-08-2009 03:00:00 19.64 C 11.1 g/m*3 19.64 C 0 km/h
461 20-08-2009 04:00:00 18.9 C 11.24 g/m*3 18.9 C 0 km/h
462 20-08-2009 05:00:00 18.22 C 11.2 g/m*3 18.22 C 0 km/h
463 20-08-2009 06:00:00 17.68 C 11.3 g/m*3 17.68 C 0 km/h
464 20-08-2009 07:00:00 18.1 C 11.62 g/m*3 18.1 C 0 km/h
465 20-08-2009 08:00:00 19.84 C 11.71 g/m*3 19.84 C 0 km/h
466 20-08-2009 09:00:00 21.26 C 11.9 g/m*3 21.26 C 0 km/h
467 20-08-2009 10:00:00 24.46 C 12.46 g/m*3 24.46 C 0 km/h
468 20-08-2009 11:00:00 27.8 C 13.45 g/m*3 27.8 C 0 km/h
469 20-08-2009 12:00:00 31.2 C 11 g/m*3 31.2 C 0 km/h
470 20-08-2009 13:00:00 32.56 C 9.95 g/m*3 32.56 C 0 km/h
471 20-08-2009 14:00:00 33.72 C 8.8 g/m*3 33.72 C 0 km/h
472 20-08-2009 15:00:00 34.42 C 7.67 g/m*3 34.42 C 0 km/h
473 20-08-2009 16:00:00 33.64 C 7.73 g/m*3 33.64 C 0 km/h
474 20-08-2009 17:00:00 33.74 C 8.14 g/m*3 33.74 C 0 km/h
475 20-08-2009 18:00:00 33.42 C 8.01 g/m*3 33.42 C 0 km/h
Sensor: Nr:Datum:Temp:Abs-Feuchte:Windchill:Wind:
Aussen-T/F 476 20-08-2009 19:00:00 32.08 C 8.81 g/m*3 32.08 C 0 km/h
477 20-08-2009 20:00:00 30.32 C 9.75 g/m*3 30.32 C 0 km/h
478 20-08-2009 21:00:00 29.66 C 8.93 g/m*3 29.66 C 0 km/h
479 20-08-2009 22:00:00 25.66 C 10.41 g/m*3 25.66 C 0 km/h
480 20-08-2009 23:00:00 24.52 C 10.8 g/m*3 24.52 C 0 km/h
481 21-08-2009 00:00:00 23.8 C 10.93 g/m*3 23.8 C 0 km/h
482 21-08-2009 01:00:00 21.52 C 14.12 g/m*3 21.52 C 0 km/h
483 21-08-2009 02:00:00 20.5 C 13.7 g/m*3 20.5 C 0 km/h
484 21-08-2009 03:00:00 20.38 C 13.68 g/m*3 20.38 C 0 km/h
485 21-08-2009 04:00:00 20.24 C 13.74 g/m*3 20.24 C 0 km/h
486 21-08-2009 05:00:00 19.74 C 12.36 g/m*3 19.74 C 0 km/h
487 21-08-2009 06:00:00 18.28 C 10.24 g/m*3 18.28 C 0 km/h
488 21-08-2009 07:00:00 18.66 C 10 g/m*3 18.66 C 0 km/h
489 21-08-2009 08:00:00 19.34 C 10.61 g/m*3 19.34 C 0 km/h
490 21-08-2009 09:00:00 19.48 C 9.42 g/m*3 19.48 C 0 km/h
491 21-08-2009 10:00:00 19 C 8.38 g/m*3 19 C 0 km/h
492 21-08-2009 11:00:00 16.88 C 8.39 g/m*3 16.88 C 0 km/h
493 21-08-2009 12:00:00 15.58 C 10.73 g/m*3 15.58 C 0 km/h
494 21-08-2009 13:00:00 16.3 C 11.07 g/m*3 16.3 C 0 km/h
495 21-08-2009 14:00:00 18.14 C 10.47 g/m*3 18.14 C 0 km/h
496 21-08-2009 15:00:00 21.42 C 9.87 g/m*3 21.42 C 0 km/h
497 21-08-2009 16:00:00 25.48 C 8.13 g/m*3 25.48 C 0 km/h
498 21-08-2009 17:00:00 27.48 C 7.88 g/m*3 27.48 C 0 km/h
499 21-08-2009 18:00:00 26.2 C 8.03 g/m*3 26.2 C 0 km/h
500 21-08-2009 19:00:00 25.16 C 8.64 g/m*3 25.16 C 0 km/h
Sensor: Nr:Datum:Temp:Abs-Feuchte:Windchill:Wind:
Aussen-T/F 501 21-08-2009 20:00:00 20.5 C 9.57 g/m*3 20.5 C 0 km/h
502 21-08-2009 21:00:00 18.64 C 9.99 g/m*3 18.64 C 0 km/h
503 21-08-2009 22:00:00 17.5 C 10.14 g/m*3 17.5 C 0 km/h
504 21-08-2009 23:00:00 16.8 C 10.19 g/m*3 16.8 C 0 km/h
505 22-08-2009 00:00:00 15.96 C 10.09 g/m*3 15.96 C 0 km/h
506 22-08-2009 01:00:00 15.32 C 10.15 g/m*3 15.32 C 0 km/h
507 22-08-2009 02:00:00 14.58 C 10.2 g/m*3 14.58 C 0 km/h
508 22-08-2009 03:00:00 13.98 C 10.14 g/m*3 13.98 C 0 km/h
509 22-08-2009 04:00:00 13.5 C 9.85 g/m*3 13.5 C 0 km/h
510 22-08-2009 05:00:00 13.12 C 9.76 g/m*3 13.12 C 0 km/h
511 22-08-2009 06:00:00 13.1 C 9.61 g/m*3 13.1 C 0 km/h
512 22-08-2009 07:00:00 13.28 C 9.58 g/m*3 13.28 C 0 km/h
513 22-08-2009 08:00:00 14.42 C 9.68 g/m*3 14.42 C 0 km/h
514 22-08-2009 09:00:00 16.36 C 9.44 g/m*3 16.36 C 0 km/h
515 22-08-2009 10:00:00 18.26 C 9.61 g/m*3 18.26 C 0 km/h
516 22-08-2009 11:00:00 21.3 C 9.13 g/m*3 21.3 C 0 km/h
517 22-08-2009 12:00:00 22.42 C 8.47 g/m*3 22.42 C 0 km/h
518 22-08-2009 13:00:00 24.42 C 7.62 g/m*3 24.42 C 0 km/h
519 22-08-2009 14:00:00 26.06 C 6.6 g/m*3 26.06 C 0 km/h
520 22-08-2009 15:00:00 26.66 C 6.06 g/m*3 26.66 C 0 km/h
521 22-08-2009 16:00:00 29.02 C 6.04 g/m*3 29.02 C 0 km/h
522 22-08-2009 17:00:00 28.14 C 5.54 g/m*3 28.14 C 0 km/h
523 22-08-2009 18:00:00 28.56 C 5.61 g/m*3 28.56 C 0 km/h
524 22-08-2009 19:00:00 26.62 C 6.05 g/m*3 26.62 C 0 km/h
525 22-08-2009 20:00:00 23.26 C 6.72 g/m*3 23.26 C 0 km/h
Sensor: Nr:Datum:Temp:Abs-Feuchte:Windchill:Wind:
Aussen-T/F 526 22-08-2009 21:00:00 19.92 C 6.67 g/m*3 19.92 C 0 km/h
527 22-08-2009 22:00:00 18.42 C 6.96 g/m*3 18.42 C 0 km/h
528 22-08-2009 23:00:00 17.2 C 7.06 g/m*3 17.2 C 0 km/h
529 23-08-2009 00:00:00 15.88 C 7.44 g/m*3 15.88 C 0 km/h
530 23-08-2009 01:00:00 14.82 C 7.66 g/m*3 14.82 C 0 km/h
531 23-08-2009 02:00:00 13.96 C 7.72 g/m*3 13.96 C 0 km/h
532 23-08-2009 03:00:00 13.24 C 7.97 g/m*3 13.24 C 0 km/h
533 23-08-2009 04:00:00 12.56 C 8.12 g/m*3 12.56 C 0 km/h
534 23-08-2009 05:00:00 11.96 C 8.12 g/m*3 11.96 C 0 km/h
535 23-08-2009 06:00:00 11.44 C 8.05 g/m*3 11.44 C 0 km/h
536 23-08-2009 07:00:00 11.52 C 8.19 g/m*3 11.52 C 0 km/h
537 23-08-2009 08:00:00 12.42 C 8.62 g/m*3 12.42 C 0 km/h
538 23-08-2009 09:00:00 14.3 C 8.99 g/m*3 14.3 C 0 km/h
539 23-08-2009 10:00:00 17.04 C 9.34 g/m*3 17.04 C 0 km/h
540 23-08-2009 11:00:00 20.58 C 8.83 g/m*3 20.58 C 0 km/h
541 23-08-2009 12:00:00 23.4 C 7.15 g/m*3 23.4 C 0 km/h
542 23-08-2009 13:00:00 25.34 C 6.1 g/m*3 25.34 C 0 km/h
543 23-08-2009 14:00:00 27 C 5.56 g/m*3 27 C 0 km/h
544 23-08-2009 15:00:00 28.38 C 5.66 g/m*3 28.38 C 0 km/h
545 23-08-2009 16:00:00 30.22 C 6.14 g/m*3 30.22 C 0 km/h
546 23-08-2009 17:00:00 30.96 C 6.39 g/m*3 30.96 C 0 km/h
547 23-08-2009 18:00:00 30.8 C 6.33 g/m*3 30.8 C 0 km/h
548 23-08-2009 19:00:00 30.04 C 6.08 g/m*3 30.04 C 0 km/h
549 23-08-2009 20:00:00 25.08 C 6.29 g/m*3 25.08 C 0 km/h
550 23-08-2009 21:00:00 21.42 C 6.57 g/m*3 21.42 C 0 km/h
Sensor: Nr:Datum:Temp:Abs-Feuchte:Windchill:Wind:
Aussen-T/F 551 23-08-2009 22:00:00 19.82 C 7.05 g/m*3 19.82 C 0 km/h
552 23-08-2009 23:00:00 18.72 C 7.15 g/m*3 18.72 C 0 km/h
553 24-08-2009 00:00:00 17.72 C 7.25 g/m*3 17.72 C 0 km/h
554 24-08-2009 01:00:00 16.8 C 7.49 g/m*3 16.8 C 0 km/h
555 24-08-2009 02:00:00 15.74 C 7.7 g/m*3 15.74 C 0 km/h
556 24-08-2009 03:00:00 14.82 C 7.96 g/m*3 14.82 C 0 km/h
557 24-08-2009 04:00:00 13.86 C 8.11 g/m*3 13.86 C 0 km/h
558 24-08-2009 05:00:00 13.2 C 8.38 g/m*3 13.2 C 0 km/h
559 24-08-2009 06:00:00 12.7 C 8.35 g/m*3 12.7 C 0 km/h
560 24-08-2009 07:00:00 12.78 C 8.61 g/m*3 12.78 C 0 km/h
561 24-08-2009 08:00:00 13.58 C 9.05 g/m*3 13.58 C 0 km/h
562 24-08-2009 09:00:00 15.76 C 9.51 g/m*3 15.76 C 0 km/h
563 24-08-2009 10:00:00 19.36 C 9.45 g/m*3 19.36 C 0 km/h
564 24-08-2009 11:00:00 22.48 C 8.86 g/m*3 22.48 C 0 km/h
565 24-08-2009 12:00:00 24.64 C 8.39 g/m*3 24.64 C 0 km/h
566 24-08-2009 13:00:00 27.38 C 8.15 g/m*3 27.38 C 0 km/h
567 24-08-2009 14:00:00 29.8 C 8.1 g/m*3 29.8 C 0 km/h
568 24-08-2009 15:00:00 31.62 C 6.95 g/m*3 31.62 C 0 km/h
569 24-08-2009 16:00:00 32.3 C 6.86 g/m*3 32.3 C 0 km/h
570 24-08-2009 17:00:00 32.88 C 7.07 g/m*3 32.88 C 0 km/h
571 24-08-2009 18:00:00 33.06 C 7.14 g/m*3 33.06 C 0 km/h
572 24-08-2009 19:00:00 31.4 C 7.91 g/m*3 31.4 C 0 km/h
573 24-08-2009 20:00:00 27.7 C 9.36 g/m*3 27.7 C 0 km/h
574 24-08-2009 21:00:00 25.54 C 9.82 g/m*3 25.54 C 0 km/h
575 24-08-2009 22:00:00 24.36 C 9.99 g/m*3 24.36 C 0 km/h
Sensor: Nr:Datum:Temp:Abs-Feuchte:Windchill:Wind:
Aussen-T/F 576 24-08-2009 23:00:00 23.24 C 10.29 g/m*3 23.24 C 0 km/h
577 25-08-2009 00:00:00 21.9 C 10 g/m*3 21.9 C 0 km/h
578 25-08-2009 01:00:00 20.96 C 10.02 g/m*3 20.96 C 0 km/h
579 25-08-2009 02:00:00 20.74 C 10.29 g/m*3 20.74 C 0 km/h
580 25-08-2009 03:00:00 20.3 C 10.38 g/m*3 20.3 C 0 km/h
581 25-08-2009 04:00:00 19.98 C 10.46 g/m*3 19.98 C 0 km/h
582 25-08-2009 05:00:00 20 C 10.09 g/m*3 20 C 0 km/h
583 25-08-2009 06:00:00 19.24 C 10.18 g/m*3 19.24 C 0 km/h
584 25-08-2009 07:00:00 19.78 C 10.37 g/m*3 19.78 C 0 km/h
585 25-08-2009 08:00:00 20.36 C 10.66 g/m*3 20.36 C 0 km/h
586 25-08-2009 09:00:00 21.74 C 10.97 g/m*3 21.74 C 0 km/h
587 25-08-2009 10:00:00 23.64 C 10.7 g/m*3 23.64 C 0 km/h
588 25-08-2009 11:00:00 23.7 C 11.12 g/m*3 23.7 C 0 km/h
589 25-08-2009 12:00:00 26 C 10.76 g/m*3 26 C 0 km/h
590 25-08-2009 13:00:00 28.2 C 9.84 g/m*3 28.2 C 0 km/h
591 25-08-2009 14:00:00 28.46 C 9.15 g/m*3 28.46 C 0 km/h
592 25-08-2009 15:00:00 28.1 C 9.35 g/m*3 28.1 C 0 km/h
593 25-08-2009 16:00:00 28.1 C 8.97 g/m*3 28.1 C 0 km/h
594 25-08-2009 17:00:00 26.42 C 9.27 g/m*3 26.42 C 0 km/h
595 25-08-2009 18:00:00 25.26 C 9.58 g/m*3 25.26 C 0 km/h
596 25-08-2009 19:00:00 24.08 C 11.1 g/m*3 24.08 C 0 km/h
597 25-08-2009 20:00:00 23.24 C 11.67 g/m*3 23.24 C 0 km/h
598 25-08-2009 21:00:00 22.1 C 11.87 g/m*3 22.1 C 0 km/h
599 25-08-2009 22:00:00 21.52 C 12.01 g/m*3 21.52 C 0 km/h
600 25-08-2009 23:00:00 21.04 C 11.79 g/m*3 21.04 C 0 km/h
Sensor: Nr:Datum:Temp:Abs-Feuchte:Windchill:Wind:
Aussen-T/F 601 26-08-2009 00:00:00 20.52 C 10.47 g/m*3 20.52 C 0 km/h
602 26-08-2009 01:00:00 19.8 C 10.39 g/m*3 19.8 C 0 km/h
603 26-08-2009 02:00:00 18.4 C 10.29 g/m*3 18.4 C 0 km/h
604 26-08-2009 03:00:00 17.18 C 10.3 g/m*3 17.18 C 0 km/h
605 26-08-2009 04:00:00 16.24 C 10.15 g/m*3 16.24 C 0 km/h
606 26-08-2009 05:00:00 15.48 C 10.09 g/m*3 15.48 C 0 km/h
607 26-08-2009 06:00:00 15.24 C 10.1 g/m*3 15.24 C 0 km/h
608 26-08-2009 07:00:00 14.8 C 10.21 g/m*3 14.8 C 0 km/h
609 26-08-2009 08:00:00 15.44 C 10.51 g/m*3 15.44 C 0 km/h
610 26-08-2009 09:00:00 16.92 C 10.83 g/m*3 16.92 C 0 km/h
611 26-08-2009 10:00:00 19.66 C 10.16 g/m*3 19.66 C 0 km/h
612 26-08-2009 11:00:00 22.12 C 7.66 g/m*3 22.12 C 0 km/h
613 26-08-2009 12:00:00 23.96 C 6.95 g/m*3 23.96 C 0 km/h
614 26-08-2009 13:00:00 25.96 C 7 g/m*3 25.96 C 0 km/h
615 26-08-2009 14:00:00 27.84 C 7.33 g/m*3 27.84 C 0 km/h
616 26-08-2009 15:00:00 27.72 C 8.14 g/m*3 27.72 C 0 km/h
617 26-08-2009 16:00:00 28.7 C 7.69 g/m*3 28.7 C 0 km/h
618 26-08-2009 17:00:00 28.9 C 7.31 g/m*3 28.9 C 0 km/h
619 26-08-2009 18:00:00 28.12 C 6.9 g/m*3 28.12 C 0 km/h
620 26-08-2009 19:00:00 27.7 C 7.33 g/m*3 27.7 C 0 km/h
621 26-08-2009 20:00:00 23.78 C 8.21 g/m*3 23.78 C 0 km/h
622 26-08-2009 21:00:00 22.66 C 8.95 g/m*3 22.66 C 0 km/h
623 26-08-2009 22:00:00 22.04 C 9.8 g/m*3 22.04 C 0 km/h
624 26-08-2009 23:00:00 21.24 C 10.44 g/m*3 21.24 C 0 km/h
625 27-08-2009 00:00:00 20.26 C 10.67 g/m*3 20.26 C 0 km/h
Sensor: Nr:Datum:Temp:Abs-Feuchte:Windchill:Wind:
Aussen-T/F 626 27-08-2009 01:00:00 19.56 C 10.95 g/m*3 19.56 C 0 km/h
627 27-08-2009 02:00:00 18.68 C 11.07 g/m*3 18.68 C 0 km/h
628 27-08-2009 03:00:00 17.92 C 11.1 g/m*3 17.92 C 0 km/h
629 27-08-2009 04:00:00 17.28 C 11.12 g/m*3 17.28 C 0 km/h
630 27-08-2009 05:00:00 16.66 C 11.34 g/m*3 16.66 C 0 km/h
631 27-08-2009 06:00:00 16.14 C 11.13 g/m*3 16.14 C 0 km/h
632 27-08-2009 07:00:00 16.1 C 11.24 g/m*3 16.1 C 0 km/h
633 27-08-2009 08:00:00 16.68 C 11.75 g/m*3 16.68 C 0 km/h
634 27-08-2009 09:00:00 18.28 C 12.15 g/m*3 18.28 C 0 km/h
635 27-08-2009 10:00:00 21.3 C 11.48 g/m*3 21.3 C 0 km/h
636 27-08-2009 11:00:00 24.7 C 9.1 g/m*3 24.7 C 0 km/h
637 27-08-2009 12:00:00 26.26 C 8.1 g/m*3 26.26 C 0 km/h
638 27-08-2009 13:00:00 27.94 C 7.43 g/m*3 27.94 C 0 km/h
639 27-08-2009 14:00:00 29.78 C 7.19 g/m*3 29.78 C 0 km/h
640 27-08-2009 15:00:00 30.42 C 6.45 g/m*3 30.42 C 0 km/h
641 27-08-2009 16:00:00 30.38 C 6.87 g/m*3 30.38 C 0 km/h
642 27-08-2009 17:00:00 29.7 C 7.46 g/m*3 29.7 C 0 km/h
643 27-08-2009 18:00:00 30.26 C 7.01 g/m*3 30.26 C 0 km/h
644 27-08-2009 19:00:00 30.02 C 7.53 g/m*3 30.02 C 0 km/h
645 27-08-2009 20:00:00 26.66 C 8.03 g/m*3 26.66 C 0 km/h
646 27-08-2009 21:00:00 24.26 C 8.79 g/m*3 24.26 C 0 km/h
647 27-08-2009 22:00:00 23 C 9.5 g/m*3 23 C 0 km/h
648 27-08-2009 23:00:00 22.2 C 9.86 g/m*3 22.2 C 0 km/h
649 28-08-2009 00:00:00 22 C 10.05 g/m*3 22 C 0 km/h
650 28-08-2009 01:00:00 21.44 C 10.34 g/m*3 21.44 C 0 km/h
Sensor: Nr:Datum:Temp:Abs-Feuchte:Windchill:Wind:
Aussen-T/F 651 28-08-2009 02:00:00 20.92 C 10.47 g/m*3 20.92 C 0 km/h
652 28-08-2009 03:00:00 20.6 C 10.6 g/m*3 20.6 C 0 km/h
653 28-08-2009 04:00:00 20.16 C 10.54 g/m*3 20.16 C 0 km/h
654 28-08-2009 05:00:00 19.66 C 10.71 g/m*3 19.66 C 0 km/h
655 28-08-2009 06:00:00 19.54 C 10.56 g/m*3 19.54 C 0 km/h
656 28-08-2009 07:00:00 19.36 C 10.85 g/m*3 19.36 C 0 km/h
657 28-08-2009 08:00:00 20.18 C 10.97 g/m*3 20.18 C 0 km/h
658 28-08-2009 09:00:00 21.58 C 10.27 g/m*3 21.58 C 0 km/h
659 28-08-2009 10:00:00 22.02 C 9.87 g/m*3 22.02 C 0 km/h
660 28-08-2009 11:00:00 22.54 C 9.17 g/m*3 22.54 C 0 km/h
661 28-08-2009 12:00:00 23.52 C 7.75 g/m*3 23.52 C 0 km/h
662 28-08-2009 13:00:00 22.36 C 7.97 g/m*3 22.36 C 0 km/h
663 28-08-2009 14:00:00 24.3 C 7.92 g/m*3 24.3 C 0 km/h
664 28-08-2009 15:00:00 25.14 C 7.05 g/m*3 25.14 C 0 km/h
665 28-08-2009 16:00:00 25.36 C 6.15 g/m*3 25.36 C 0 km/h
666 28-08-2009 17:00:00 24.58 C 5.58 g/m*3 24.58 C 0 km/h
667 28-08-2009 18:00:00 24.7 C 4.62 g/m*3 24.7 C 0 km/h
668 28-08-2009 19:00:00 22.98 C 5.05 g/m*3 22.98 C 0 km/h
669 28-08-2009 20:00:00 20.56 C 5.29 g/m*3 20.56 C 0 km/h
670 28-08-2009 21:00:00 19.32 C 5.51 g/m*3 19.32 C 0 km/h
671 28-08-2009 22:00:00 18.14 C 5.95 g/m*3 18.14 C 0 km/h
672 28-08-2009 23:00:00 17.58 C 5.93 g/m*3 17.58 C 0 km/h
673 29-08-2009 00:00:00 16.8 C 5.95 g/m*3 16.8 C 0 km/h
674 29-08-2009 01:00:00 16.32 C 5.81 g/m*3 16.32 C 0 km/h
675 29-08-2009 02:00:00 15.44 C 5.87 g/m*3 15.44 C 0 km/h
Sensor: Nr:Datum:Temp:Abs-Feuchte:Windchill:Wind:
Aussen-T/F 676 29-08-2009 03:00:00 14.8 C 5.95 g/m*3 14.8 C 0 km/h
677 29-08-2009 04:00:00 14.18 C 6.29 g/m*3 14.18 C 0 km/h
678 29-08-2009 05:00:00 13.6 C 6.73 g/m*3 13.6 C 0 km/h
679 29-08-2009 06:00:00 12.98 C 6.98 g/m*3 12.98 C 0 km/h
680 29-08-2009 07:00:00 12.72 C 7.31 g/m*3 12.72 C 0 km/h
681 29-08-2009 08:00:00 13.4 C 7.49 g/m*3 13.4 C 0 km/h
682 29-08-2009 09:00:00 14.98 C 7.2 g/m*3 14.98 C 0 km/h
683 29-08-2009 10:00:00 16.86 C 6.8 g/m*3 16.86 C 0 km/h
684 29-08-2009 11:00:00 18.12 C 5.91 g/m*3 18.12 C 0 km/h
685 29-08-2009 12:00:00 18.82 C 5.64 g/m*3 18.82 C 0 km/h
686 29-08-2009 13:00:00 19.82 C 5.23 g/m*3 19.82 C 0 km/h
687 29-08-2009 14:00:00 20.14 C 4.95 g/m*3 20.14 C 0 km/h
688 29-08-2009 15:00:00 21.78 C 4.45 g/m*3 21.78 C 0 km/h
689 29-08-2009 16:00:00 21 C 5.24 g/m*3 21 C 0 km/h
690 29-08-2009 17:00:00 20.78 C 5.21 g/m*3 20.78 C 0 km/h
691 29-08-2009 18:00:00 18.32 C 7.36 g/m*3 18.32 C 0 km/h
692 29-08-2009 19:00:00 16.54 C 9.18 g/m*3 16.54 C 0 km/h
693 29-08-2009 20:00:00 13.96 C 7.77 g/m*3 13.96 C 0 km/h
694 29-08-2009 21:00:00 13.06 C 6.94 g/m*3 13.06 C 0 km/h
695 29-08-2009 22:00:00 12.66 C 6.75 g/m*3 12.66 C 0 km/h
696 29-08-2009 23:00:00 12 C 6.54 g/m*3 12 C 0 km/h
697 30-08-2009 00:00:00 11.34 C 6.38 g/m*3 11.34 C 0 km/h
698 30-08-2009 01:00:00 10.54 C 6.4 g/m*3 10.54 C 0 km/h
699 30-08-2009 02:00:00 10.1 C 6.43 g/m*3 10.1 C 0 km/h
700 30-08-2009 03:00:00 9.28 C 6.59 g/m*3 9.28 C 0 km/h
Sensor: Nr:Datum:Temp:Abs-Feuchte:Windchill:Wind:
Aussen-T/F 701 30-08-2009 04:00:00 8.88 C 6.75 g/m*3 8.88 C 0 km/h
702 30-08-2009 05:00:00 8.7 C 7.02 g/m*3 8.7 C 0 km/h
703 30-08-2009 06:00:00 8.6 C 6.94 g/m*3 8.6 C 0 km/h
704 30-08-2009 07:00:00 9.02 C 6.99 g/m*3 9.02 C 0 km/h
705 30-08-2009 08:00:00 10.72 C 7.08 g/m*3 10.72 C 0 km/h
706 30-08-2009 09:00:00 12.82 C 7.02 g/m*3 12.82 C 0 km/h
707 30-08-2009 10:00:00 15.22 C 6.58 g/m*3 15.22 C 0 km/h
708 30-08-2009 11:00:00 17.56 C 6.19 g/m*3 17.56 C 0 km/h
709 30-08-2009 12:00:00 19.64 C 5.99 g/m*3 19.64 C 0 km/h
710 30-08-2009 13:00:00 21.28 C 5.51 g/m*3 21.28 C 0 km/h
711 30-08-2009 14:00:00 23.04 C 4.53 g/m*3 23.04 C 0 km/h
712 30-08-2009 15:00:00 24.54 C 4.49 g/m*3 24.54 C 0 km/h
713 30-08-2009 16:00:00 25.92 C 4.85 g/m*3 25.92 C 0 km/h
714 30-08-2009 17:00:00 27.26 C 5.22 g/m*3 27.26 C 0 km/h
715 30-08-2009 18:00:00 26.96 C 5.14 g/m*3 26.96 C 0 km/h
716 30-08-2009 19:00:00 25.66 C 5.16 g/m*3 25.66 C 0 km/h
717 30-08-2009 20:00:00 21.16 C 6.18 g/m*3 21.16 C 0 km/h
718 30-08-2009 21:00:00 18.56 C 6.57 g/m*3 18.56 C 0 km/h
719 30-08-2009 22:00:00 17.08 C 6.83 g/m*3 17.08 C 0 km/h
720 30-08-2009 23:00:00 15.84 C 6.83 g/m*3 15.84 C 0 km/h
721 31-08-2009 00:00:00 14.68 C 7.04 g/m*3 14.68 C 0 km/h
722 31-08-2009 01:00:00 13.74 C 7.22 g/m*3 13.74 C 0 km/h
723 31-08-2009 02:00:00 12.82 C 7.18 g/m*3 12.82 C 0 km/h
724 31-08-2009 03:00:00 12.2 C 7.19 g/m*3 12.2 C 0 km/h
725 31-08-2009 04:00:00 11.48 C 7.12 g/m*3 11.48 C 0 km/h
Sensor: Nr:Datum:Temp:Abs-Feuchte:Windchill:Wind:
Aussen-T/F 726 31-08-2009 05:00:00 10.8 C 7.08 g/m*3 10.8 C 0 km/h
727 31-08-2009 06:00:00 10.22 C 7.03 g/m*3 10.22 C 0 km/h
728 31-08-2009 07:00:00 10.26 C 7.07 g/m*3 10.26 C 0 km/h
729 31-08-2009 08:00:00 10.78 C 7.21 g/m*3 10.78 C 0 km/h
730 31-08-2009 09:00:00 12.6 C 7.48 g/m*3 12.6 C 0 km/h
731 31-08-2009 10:00:00 16.32 C 7.5 g/m*3 16.32 C 0 km/h
732 31-08-2009 11:00:00 19.72 C 7.62 g/m*3 19.72 C 0 km/h
733 31-08-2009 12:00:00 22.88 C 6.7 g/m*3 22.88 C 0 km/h
734 31-08-2009 13:00:00 25.5 C 5.78 g/m*3 25.5 C 0 km/h
735 31-08-2009 14:00:00 27.82 C 5.44 g/m*3 27.82 C 0 km/h
736 31-08-2009 15:00:00 29.12 C 5.78 g/m*3 29.12 C 0 km/h
737 31-08-2009 16:00:00 31.32 C 6.51 g/m*3 31.32 C 0 km/h
738 31-08-2009 17:00:00 31.78 C 6.67 g/m*3 31.78 C 0 km/h
739 31-08-2009 18:00:00 31.48 C 6.57 g/m*3 31.48 C 0 km/h
740 31-08-2009 19:00:00 29.64 C 6.01 g/m*3 29.64 C 0 km/h
741 31-08-2009 20:00:00 23.86 C 5.61 g/m*3 23.86 C 0 km/h
742 31-08-2009 21:00:00 21.52 C 5.66 g/m*3 21.52 C 0 km/h
743 31-08-2009 22:00:00 19.96 C 5.9 g/m*3 19.96 C 0 km/h
744 31-08-2009 23:00:00 18.62 C 6.5 g/m*3 18.62 C 0 km/h
745 01-09-2009 00:00:00 17.4 C 6.76 g/m*3 17.4 C 0 km/h
746 01-09-2009 01:00:00 16.42 C 6.93 g/m*3 16.42 C 0 km/h
747 01-09-2009 02:00:00 15.8 C 7.27 g/m*3 15.8 C 0 km/h
748 01-09-2009 03:00:00 15.32 C 7.11 g/m*3 15.32 C 0 km/h
749 01-09-2009 04:00:00 14.6 C 7.53 g/m*3 14.6 C 0 km/h
750 01-09-2009 05:00:00 14.1 C 7.67 g/m*3 14.1 C 0 km/h
Sensor: Nr:Datum:Temp:Abs-Feuchte:Windchill:Wind:
Aussen-T/F 751 01-09-2009 06:00:00 13.62 C 7.94 g/m*3 13.62 C 0 km/h
752 01-09-2009 07:00:00 13.88 C 8.33 g/m*3 13.88 C 0 km/h
753 01-09-2009 08:00:00 14.72 C 8.57 g/m*3 14.72 C 0 km/h
754 01-09-2009 09:00:00 17.04 C 9.08 g/m*3 17.04 C 0 km/h
755 01-09-2009 10:00:00 21.34 C 9.57 g/m*3 21.34 C 0 km/h
756 01-09-2009 11:00:00 25.82 C 8.92 g/m*3 25.82 C 0 km/h
757 01-09-2009 12:00:00 28.44 C 8.41 g/m*3 28.44 C 0 km/h
758 01-09-2009 13:00:00 29.46 C 8.36 g/m*3 29.46 C 0 km/h
759 01-09-2009 14:00:00 29.82 C 8.35 g/m*3 29.82 C 0 km/h
760 01-09-2009 15:00:00 28.08 C 8.63 g/m*3 28.08 C 0 km/h
761 01-09-2009 16:00:00 23.76 C 11.25 g/m*3 23.76 C 0 km/h
762 01-09-2009 17:00:00 20.66 C 13.76 g/m*3 20.66 C 0 km/h
763 01-09-2009 18:00:00 20.04 C 14.34 g/m*3 20.04 C 0 km/h
764 01-09-2009 19:00:00 19.96 C 14.62 g/m*3 19.96 C 0 km/h
765 01-09-2009 20:00:00 19.82 C 14.36 g/m*3 19.82 C 0 km/h
766 01-09-2009 21:00:00 19.68 C 13.77 g/m*3 19.68 C 0 km/h
767 01-09-2009 22:00:00 19.58 C 13.35 g/m*3 19.58 C 0 km/h
768 01-09-2009 23:00:00 19 C 12.84 g/m*3 19 C 0 km/h
769 02-09-2009 00:00:00 18.36 C 12.74 g/m*3 18.36 C 0 km/h
770 02-09-2009 01:00:00 17.3 C 12.05 g/m*3 17.3 C 0 km/h
771 02-09-2009 02:00:00 16.86 C 11.25 g/m*3 16.86 C 0 km/h
772 02-09-2009 03:00:00 16.4 C 11.25 g/m*3 16.4 C 0 km/h
773 02-09-2009 04:00:00 15.88 C 11.06 g/m*3 15.88 C 0 km/h
774 02-09-2009 05:00:00 15.32 C 11.01 g/m*3 15.32 C 0 km/h
775 02-09-2009 06:00:00 15.14 C 10.89 g/m*3 15.14 C 0 km/h
Sensor: Nr:Datum:Temp:Abs-Feuchte:Windchill:Wind:
Aussen-T/F 776 02-09-2009 07:00:00 15.24 C 10.8 g/m*3 15.24 C 0 km/h
777 02-09-2009 08:00:00 16.2 C 10.84 g/m*3 16.2 C 0 km/h
778 02-09-2009 09:00:00 17.84 C 10.13 g/m*3 17.84 C 0 km/h
779 02-09-2009 10:00:00 19.08 C 9.5 g/m*3 19.08 C 0 km/h
780 02-09-2009 11:00:00 20.32 C 9.09 g/m*3 20.32 C 0 km/h
781 02-09-2009 12:00:00 21.82 C 8.03 g/m*3 21.82 C 0 km/h
782 02-09-2009 13:00:00 22.72 C 6.47 g/m*3 22.72 C 0 km/h
783 02-09-2009 14:00:00 22.8 C 6.54 g/m*3 22.8 C 0 km/h
784 02-09-2009 15:00:00 23.08 C 6.86 g/m*3 23.08 C 0 km/h
785 02-09-2009 16:00:00 22.84 C 6.23 g/m*3 22.84 C 0 km/h
786 02-09-2009 17:00:00 22.2 C 6.05 g/m*3 22.2 C 0 km/h
787 02-09-2009 18:00:00 21.96 C 6.08 g/m*3 21.96 C 0 km/h
788 02-09-2009 19:00:00 20.38 C 6.11 g/m*3 20.38 C 0 km/h
789 02-09-2009 20:00:00 18.12 C 6.65 g/m*3 18.12 C 0 km/h
790 02-09-2009 21:00:00 18.04 C 7.08 g/m*3 18.04 C 0 km/h
791 02-09-2009 22:00:00 16.38 C 9.01 g/m*3 16.38 C 0 km/h
792 02-09-2009 23:00:00 16.08 C 9.61 g/m*3 16.08 C 0 km/h
793 03-09-2009 00:00:00 16.54 C 9.21 g/m*3 16.54 C 0 km/h
794 03-09-2009 01:00:00 16.54 C 9.01 g/m*3 16.54 C 0 km/h
795 03-09-2009 02:00:00 15.7 C 9.47 g/m*3 15.7 C 0 km/h
796 03-09-2009 03:00:00 15.02 C 10.5 g/m*3 15.02 C 0 km/h
797 03-09-2009 04:00:00 15.26 C 10.45 g/m*3 15.26 C 0 km/h
798 03-09-2009 05:00:00 14.84 C 10.82 g/m*3 14.84 C 0 km/h
799 03-09-2009 06:00:00 14.84 C 11.12 g/m*3 14.84 C 0 km/h
800 03-09-2009 07:00:00 15 C 11.44 g/m*3 15 C 0 km/h
Sensor: Nr:Datum:Temp:Abs-Feuchte:Windchill:Wind:
Aussen-T/F 801 03-09-2009 08:00:00 15.72 C 11.55 g/m*3 15.72 C 0 km/h
802 03-09-2009 09:00:00 16.94 C 11.02 g/m*3 16.94 C 0 km/h
803 03-09-2009 10:00:00 17.8 C 10.41 g/m*3 17.8 C 0 km/h
804 03-09-2009 11:00:00 18.24 C 9.1 g/m*3 18.24 C 0 km/h
805 03-09-2009 12:00:00 19.22 C 6.93 g/m*3 19.22 C 0 km/h
806 03-09-2009 13:00:00 19.82 C 6.36 g/m*3 19.82 C 0 km/h
807 03-09-2009 14:00:00 21.04 C 6.17 g/m*3 21.04 C 0 km/h
808 03-09-2009 15:00:00 22.06 C 5.41 g/m*3 22.06 C 0 km/h
809 03-09-2009 16:00:00 20.26 C 5.61 g/m*3 20.26 C 0 km/h
810 03-09-2009 17:00:00 19.56 C 5.86 g/m*3 19.56 C 0 km/h
811 03-09-2009 18:00:00 18.14 C 7.19 g/m*3 18.14 C 0 km/h
812 03-09-2009 19:00:00 17.86 C 7.16 g/m*3 17.86 C 0 km/h
813 03-09-2009 20:00:00 17.38 C 6.9 g/m*3 17.38 C 0 km/h
814 03-09-2009 21:00:00 17.05 C 6.53 g/m*3 17.05 C 0 km/h
815 03-09-2009 22:00:00 16.34 C 6.59 g/m*3 16.34 C 0 km/h
816 03-09-2009 23:00:00 16.2 C 6.76 g/m*3 16.2 C 0 km/h
817 04-09-2009 00:00:00 16.04 C 6.64 g/m*3 16.04 C 0 km/h
818 04-09-2009 01:00:00 15.66 C 6.94 g/m*3 15.66 C 0 km/h
819 04-09-2009 02:00:00 15.26 C 7.45 g/m*3 15.26 C 0 km/h
820 04-09-2009 03:00:00 15.08 C 7.68 g/m*3 15.08 C 0 km/h
821 04-09-2009 04:00:00 14.98 C 7.89 g/m*3 14.98 C 0 km/h
822 04-09-2009 05:00:00 14.6 C 7.73 g/m*3 14.6 C 0 km/h
823 04-09-2009 06:00:00 13.76 C 7.58 g/m*3 13.76 C 0 km/h
824 04-09-2009 07:00:00 13.58 C 7.52 g/m*3 13.58 C 0 km/h
825 04-09-2009 08:00:00 13.54 C 7.34 g/m*3 13.54 C 0 km/h
Sensor: Nr:Datum:Temp:Abs-Feuchte:Windchill:Wind:
Aussen-T/F 826 04-09-2009 09:00:00 14.06 C 7.22 g/m*3 14.06 C 0 km/h
827 04-09-2009 10:00:00 15.78 C 6.78 g/m*3 15.78 C 0 km/h
828 04-09-2009 11:00:00 17.64 C 6.68 g/m*3 17.64 C 0 km/h
829 04-09-2009 12:00:00 17.58 C 6.8 g/m*3 17.58 C 0 km/h
830 04-09-2009 13:00:00 15.98 C 8.3 g/m*3 15.98 C 0 km/h
831 04-09-2009 14:00:00 14 C 9.89 g/m*3 14 C 0 km/h
832 04-09-2009 15:00:00 13.88 C 10.7 g/m*3 13.88 C 0 km/h
833 04-09-2009 16:00:00 15.26 C 11.2 g/m*3 15.26 C 0 km/h
834 04-09-2009 17:00:00 15.08 C 10.46 g/m*3 15.08 C 0 km/h
835 04-09-2009 18:00:00 14.18 C 10.37 g/m*3 14.18 C 0 km/h
836 04-09-2009 19:00:00 14.42 C 9.03 g/m*3 14.42 C 0 km/h
837 04-09-2009 20:00:00 12.44 C 8.19 g/m*3 12.44 C 0 km/h
838 04-09-2009 21:00:00 12.44 C 7.78 g/m*3 12.44 C 0 km/h
839 04-09-2009 22:00:00 12 C 7.86 g/m*3 12 C 0 km/h
840 04-09-2009 23:00:00 12.28 C 7.79 g/m*3 12.28 C 0 km/h
841 05-09-2009 00:00:00 12.78 C 7.76 g/m*3 12.78 C 0 km/h
842 05-09-2009 01:00:00 12.52 C 7.75 g/m*3 12.52 C 0 km/h
843 05-09-2009 02:00:00 12.54 C 7.67 g/m*3 12.54 C 0 km/h
844 05-09-2009 03:00:00 12.7 C 7.75 g/m*3 12.7 C 0 km/h
845 05-09-2009 04:00:00 12.76 C 7.8 g/m*3 12.76 C 0 km/h
846 05-09-2009 05:00:00 12.64 C 7.83 g/m*3 12.64 C 0 km/h
847 05-09-2009 06:00:00 12.48 C 7.8 g/m*3 12.48 C 0 km/h
848 05-09-2009 07:00:00 12.54 C 7.78 g/m*3 12.54 C 0 km/h
849 05-09-2009 08:00:00 12.78 C 7.94 g/m*3 12.78 C 0 km/h
850 05-09-2009 09:00:00 14.44 C 7.96 g/m*3 14.44 C 0 km/h
Sensor: Nr:Datum:Temp:Abs-Feuchte:Windchill:Wind:
Aussen-T/F 851 05-09-2009 10:00:00 15.54 C 7.82 g/m*3 15.54 C 0 km/h
852 05-09-2009 11:00:00 17.06 C 7.52 g/m*3 17.06 C 0 km/h
853 05-09-2009 12:00:00 17.68 C 6.54 g/m*3 17.68 C 0 km/h
854 05-09-2009 13:00:00 18.18 C 6.3 g/m*3 18.18 C 0 km/h
855 05-09-2009 14:00:00 19.4 C 5.91 g/m*3 19.4 C 0 km/h
856 05-09-2009 15:00:00 21.54 C 5.14 g/m*3 21.54 C 0 km/h
857 05-09-2009 16:00:00 17.92 C 6.91 g/m*3 17.92 C 0 km/h
858 05-09-2009 17:00:00 17.82 C 6.69 g/m*3 17.82 C 0 km/h
859 05-09-2009 18:00:00 18.28 C 6.22 g/m*3 18.28 C 0 km/h
860 05-09-2009 19:00:00 17.18 C 7.14 g/m*3 17.18 C 0 km/h
861 05-09-2009 20:00:00 14.9 C 7.93 g/m*3 14.9 C 0 km/h
862 05-09-2009 21:00:00 13.72 C 8.23 g/m*3 13.72 C 0 km/h
863 05-09-2009 22:00:00 12.92 C 8.35 g/m*3 12.92 C 0 km/h
864 05-09-2009 23:00:00 12.28 C 8.16 g/m*3 12.28 C 0 km/h
865 06-09-2009 00:00:00 11.5 C 8.41 g/m*3 11.5 C 0 km/h
866 06-09-2009 01:00:00 10.94 C 8.4 g/m*3 10.94 C 0 km/h
867 06-09-2009 02:00:00 10.78 C 8.41 g/m*3 10.78 C 0 km/h
868 06-09-2009 03:00:00 10.22 C 8.33 g/m*3 10.22 C 0 km/h
869 06-09-2009 04:00:00 9.9 C 8.42 g/m*3 9.9 C 0 km/h
870 06-09-2009 05:00:00 9.5 C 8.37 g/m*3 9.5 C 0 km/h
871 06-09-2009 06:00:00 9.36 C 8.37 g/m*3 9.36 C 0 km/h
872 06-09-2009 07:00:00 9.18 C 8.29 g/m*3 9.18 C 0 km/h
873 06-09-2009 08:00:00 10.2 C 8.79 g/m*3 10.2 C 0 km/h
874 06-09-2009 09:00:00 11.94 C 9.11 g/m*3 11.94 C 0 km/h
875 06-09-2009 10:00:00 13.18 C 8.53 g/m*3 13.18 C 0 km/h
Sensor: Nr:Datum:Temp:Abs-Feuchte:Windchill:Wind:
Aussen-T/F 876 06-09-2009 11:00:00 15.02 C 8.22 g/m*3 15.02 C 0 km/h
877 06-09-2009 12:00:00 16.82 C 7.79 g/m*3 16.82 C 0 km/h
878 06-09-2009 13:00:00 18.76 C 7.13 g/m*3 18.76 C 0 km/h
879 06-09-2009 14:00:00 19.96 C 7.1 g/m*3 19.96 C 0 km/h
880 06-09-2009 15:00:00 21.06 C 7.06 g/m*3 21.06 C 0 km/h
881 06-09-2009 16:00:00 21.8 C 6.22 g/m*3 21.8 C 0 km/h
882 06-09-2009 17:00:00 21.9 C 5.29 g/m*3 21.9 C 0 km/h
883 06-09-2009 18:00:00 21.5 C 5.77 g/m*3 21.5 C 0 km/h
884 06-09-2009 19:00:00 19.44 C 6.79 g/m*3 19.44 C 0 km/h
885 06-09-2009 20:00:00 16.72 C 7.23 g/m*3 16.72 C 0 km/h
886 06-09-2009 21:00:00 15.84 C 7.58 g/m*3 15.84 C 0 km/h
887 06-09-2009 22:00:00 14.76 C 7.99 g/m*3 14.76 C 0 km/h
888 06-09-2009 23:00:00 13.62 C 8.18 g/m*3 13.62 C 0 km/h
889 07-09-2009 00:00:00 12.7 C 8.24 g/m*3 12.7 C 0 km/h
890 07-09-2009 01:00:00 11.86 C 8.18 g/m*3 11.86 C 0 km/h
891 07-09-2009 02:00:00 11.22 C 8.08 g/m*3 11.22 C 0 km/h
892 07-09-2009 03:00:00 10.64 C 8.08 g/m*3 10.64 C 0 km/h
893 07-09-2009 04:00:00 10.08 C 7.95 g/m*3 10.08 C 0 km/h
894 07-09-2009 05:00:00 9.44 C 7.71 g/m*3 9.44 C 0 km/h
895 07-09-2009 06:00:00 9.44 C 7.82 g/m*3 9.44 C 0 km/h
896 07-09-2009 07:00:00 9.5 C 7.88 g/m*3 9.5 C 0 km/h
897 07-09-2009 08:00:00 9.72 C 8.01 g/m*3 9.72 C 0 km/h
898 07-09-2009 09:00:00 10.92 C 8.17 g/m*3 10.92 C 0 km/h
899 07-09-2009 10:00:00 13 C 8.71 g/m*3 13 C 0 km/h
900 07-09-2009 11:00:00 16.16 C 8.8 g/m*3 16.16 C 0 km/h
Sensor: Nr:Datum:Temp:Abs-Feuchte:Windchill:Wind:
Aussen-T/F 901 07-09-2009 12:00:00 19.92 C 8.46 g/m*3 19.92 C 0 km/h
902 07-09-2009 13:00:00 22.82 C 8.18 g/m*3 22.82 C 0 km/h
903 07-09-2009 14:00:00 25.78 C 7.7 g/m*3 25.78 C 0 km/h
904 07-09-2009 15:00:00 27.8 C 6.94 g/m*3 27.8 C 0 km/h
905 07-09-2009 16:00:00 28.74 C 6.17 g/m*3 28.74 C 0 km/h
906 07-09-2009 17:00:00 29.6 C 6.65 g/m*3 29.6 C 0 km/h
907 07-09-2009 18:00:00 29.38 C 7.33 g/m*3 29.38 C 0 km/h
908 07-09-2009 19:00:00 26 C 7.99 g/m*3 26 C 0 km/h
909 07-09-2009 20:00:00 21.8 C 8.37 g/m*3 21.8 C 0 km/h
910 07-09-2009 21:00:00 20.34 C 8.67 g/m*3 20.34 C 0 km/h
911 07-09-2009 22:00:00 18.74 C 8.99 g/m*3 18.74 C 0 km/h
912 07-09-2009 23:00:00 17.62 C 8.89 g/m*3 17.62 C 0 km/h
913 08-09-2009 00:00:00 16.18 C 9.17 g/m*3 16.18 C 0 km/h
914 08-09-2009 01:00:00 15.12 C 9.2 g/m*3 15.12 C 0 km/h
915 08-09-2009 02:00:00 14.22 C 9.12 g/m*3 14.22 C 0 km/h
916 08-09-2009 03:00:00 13.4 C 9.04 g/m*3 13.4 C 0 km/h
917 08-09-2009 04:00:00 12.68 C 8.83 g/m*3 12.68 C 0 km/h
918 08-09-2009 05:00:00 11.94 C 8.66 g/m*3 11.94 C 0 km/h
919 08-09-2009 06:00:00 11.56 C 8.71 g/m*3 11.56 C 0 km/h
920 08-09-2009 07:00:00 11.62 C 8.72 g/m*3 11.62 C 0 km/h
921 08-09-2009 08:00:00 12.02 C 8.9 g/m*3 12.02 C 0 km/h
922 08-09-2009 09:00:00 12.6 C 9.25 g/m*3 12.6 C 0 km/h
923 08-09-2009 10:00:00 14.32 C 9.91 g/m*3 14.32 C 0 km/h
924 08-09-2009 11:00:00 18.26 C 10.11 g/m*3 18.26 C 0 km/h
925 08-09-2009 12:00:00 21.62 C 10.1 g/m*3 21.62 C 0 km/h
Sensor: Nr:Datum:Temp:Abs-Feuchte:Windchill:Wind:
Aussen-T/F 926 08-09-2009 13:00:00 24.88 C 9.24 g/m*3 24.88 C 0 km/h
927 08-09-2009 14:00:00 28.7 C 7.8 g/m*3 28.7 C 0 km/h
928 08-09-2009 15:00:00 30.74 C 6.5 g/m*3 30.74 C 0 km/h
929 08-09-2009 16:00:00 31.74 C 6.66 g/m*3 31.74 C 0 km/h
930 08-09-2009 17:00:00 31.94 C 6.73 g/m*3 31.94 C 0 km/h
931 08-09-2009 18:00:00 31.24 C 6.48 g/m*3 31.24 C 0 km/h
932 08-09-2009 19:00:00 27.86 C 6.64 g/m*3 27.86 C 0 km/h
933 08-09-2009 20:00:00 24.24 C 7.19 g/m*3 24.24 C 0 km/h
934 08-09-2009 21:00:00 22.08 C 7.96 g/m*3 22.08 C 0 km/h
935 08-09-2009 22:00:00 19.94 C 8.37 g/m*3 19.94 C 0 km/h
936 08-09-2009 23:00:00 18.26 C 8.52 g/m*3 18.26 C 0 km/h
937 09-09-2009 00:00:00 17.08 C 8.4 g/m*3 17.08 C 0 km/h
938 09-09-2009 01:00:00 16 C 8.53 g/m*3 16 C 0 km/h
939 09-09-2009 02:00:00 14.86 C 8.62 g/m*3 14.86 C 0 km/h
940 09-09-2009 03:00:00 14.02 C 8.67 g/m*3 14.02 C 0 km/h
941 09-09-2009 04:00:00 13.28 C 8.61 g/m*3 13.28 C 0 km/h
942 09-09-2009 05:00:00 12.56 C 8.56 g/m*3 12.56 C 0 km/h
943 09-09-2009 06:00:00 11.88 C 8.42 g/m*3 11.88 C 0 km/h
944 09-09-2009 07:00:00 11.64 C 8.44 g/m*3 11.64 C 0 km/h
945 09-09-2009 08:00:00 12.24 C 8.68 g/m*3 12.24 C 0 km/h
946 09-09-2009 09:00:00 13.3 C 8.99 g/m*3 13.3 C 0 km/h
947 09-09-2009 10:00:00 15.92 C 9.08 g/m*3 15.92 C 0 km/h
948 09-09-2009 11:00:00 18.88 C 9.13 g/m*3 18.88 C 0 km/h
949 09-09-2009 12:00:00 21.78 C 9.54 g/m*3 21.78 C 0 km/h
950 09-09-2009 13:00:00 25.2 C 9.08 g/m*3 25.2 C 0 km/h
Sensor: Nr:Datum:Temp:Abs-Feuchte:Windchill:Wind:
Aussen-T/F 951 09-09-2009 14:00:00 27.84 C 7.28 g/m*3 27.84 C 0 km/h
952 09-09-2009 15:00:00 28.56 C 7.68 g/m*3 28.56 C 0 km/h
953 09-09-2009 16:00:00 28.82 C 7.28 g/m*3 28.82 C 0 km/h
954 09-09-2009 17:00:00 28.56 C 7.74 g/m*3 28.56 C 0 km/h
955 09-09-2009 18:00:00 29.1 C 7.74 g/m*3 29.1 C 0 km/h
956 09-09-2009 19:00:00 24.74 C 8.08 g/m*3 24.74 C 0 km/h
957 09-09-2009 20:00:00 22.7 C 8.2 g/m*3 22.7 C 0 km/h
958 09-09-2009 21:00:00 22.34 C 10.05 g/m*3 22.34 C 0 km/h
959 09-09-2009 22:00:00 21.98 C 11.86 g/m*3 21.98 C 0 km/h
960 09-09-2009 23:00:00 20.66 C 12.46 g/m*3 20.66 C 0 km/h
961 10-09-2009 00:00:00 20.16 C 12.18 g/m*3 20.16 C 0 km/h
962 10-09-2009 01:00:00 20.08 C 11.84 g/m*3 20.08 C 0 km/h
963 10-09-2009 02:00:00 19.72 C 11.59 g/m*3 19.72 C 0 km/h
964 10-09-2009 03:00:00 19.32 C 11.52 g/m*3 19.32 C 0 km/h
965 10-09-2009 04:00:00 18.8 C 11.6 g/m*3 18.8 C 0 km/h
966 10-09-2009 05:00:00 18.44 C 11.54 g/m*3 18.44 C 0 km/h
967 10-09-2009 06:00:00 18.14 C 11.21 g/m*3 18.14 C 0 km/h
968 10-09-2009 07:00:00 18.08 C 10.96 g/m*3 18.08 C 0 km/h
969 10-09-2009 08:00:00 18.06 C 10.51 g/m*3 18.06 C 0 km/h
970 10-09-2009 09:00:00 18.18 C 10.25 g/m*3 18.18 C 0 km/h
971 10-09-2009 10:00:00 18.16 C 10.17 g/m*3 18.16 C 0 km/h
972 10-09-2009 11:00:00 18.5 C 10.25 g/m*3 18.5 C 0 km/h
973 10-09-2009 12:00:00 18.88 C 10.32 g/m*3 18.88 C 0 km/h
974 10-09-2009 13:00:00 19 C 10.27 g/m*3 19 C 0 km/h
975 10-09-2009 14:00:00 18.74 C 10.4 g/m*3 18.74 C 0 km/h
Sensor: Nr:Datum:Temp:Abs-Feuchte:Windchill:Wind:
Aussen-T/F 976 10-09-2009 15:00:00 18.78 C 10.46 g/m*3 18.78 C 0 km/h
977 10-09-2009 16:00:00 18.6 C 10.5 g/m*3 18.6 C 0 km/h
978 10-09-2009 17:00:00 18.6 C 10.35 g/m*3 18.6 C 0 km/h
979 10-09-2009 18:00:00 18.14 C 10.07 g/m*3 18.14 C 0 km/h
980 10-09-2009 19:00:00 17.86 C 9.87 g/m*3 17.86 C 0 km/h
981 10-09-2009 20:00:00 17.42 C 9.17 g/m*3 17.42 C 0 km/h
982 10-09-2009 21:00:00 17.22 C 8.27 g/m*3 17.22 C 0 km/h
983 10-09-2009 22:00:00 16.94 C 7.9 g/m*3 16.94 C 0 km/h
984 10-09-2009 23:00:00 16.72 C 7.65 g/m*3 16.72 C 0 km/h
985 11-09-2009 00:00:00 16.4 C 7.87 g/m*3 16.4 C 0 km/h
986 11-09-2009 01:00:00 16.16 C 7.81 g/m*3 16.16 C 0 km/h
987 11-09-2009 02:00:00 15.98 C 7.81 g/m*3 15.98 C 0 km/h
988 11-09-2009 03:00:00 15.82 C 7.98 g/m*3 15.82 C 0 km/h
989 11-09-2009 04:00:00 15.34 C 8.09 g/m*3 15.34 C 0 km/h
990 11-09-2009 05:00:00 14.9 C 8.18 g/m*3 14.9 C 0 km/h
991 11-09-2009 06:00:00 14.3 C 8.16 g/m*3 14.3 C 0 km/h
992 11-09-2009 07:00:00 13.1 C 8.24 g/m*3 13.1 C 0 km/h
993 11-09-2009 08:00:00 13.28 C 8.35 g/m*3 13.28 C 0 km/h
994 11-09-2009 09:00:00 14.38 C 8.25 g/m*3 14.38 C 0 km/h
995 11-09-2009 10:00:00 16.64 C 7.79 g/m*3 16.64 C 0 km/h
996 11-09-2009 11:00:00 18.42 C 7.05 g/m*3 18.42 C 0 km/h
997 11-09-2009 12:00:00 18.78 C 6.66 g/m*3 18.78 C 0 km/h
998 11-09-2009 13:00:00 20.56 C 6.43 g/m*3 20.56 C 0 km/h
999 11-09-2009 14:00:00 22.5 C 5.83 g/m*3 22.5 C 0 km/h
1000 11-09-2009 15:00:00 23.84 C 5.61 g/m*3 23.84 C 0 km/h
Sensor: Nr:Datum:Temp:Abs-Feuchte:Windchill:Wind:
Aussen-T/F 1001 11-09-2009 16:00:00 24.22 C 5.64 g/m*3 24.22 C 0 km/h
1002 11-09-2009 17:00:00 23.1 C 5.75 g/m*3 23.1 C 0 km/h
1003 11-09-2009 18:00:00 23.1 C 5.62 g/m*3 23.1 C 0 km/h
1004 11-09-2009 19:00:00 20.26 C 5.9 g/m*3 20.26 C 0 km/h
1005 11-09-2009 20:00:00 17.6 C 6.24 g/m*3 17.6 C 0 km/h
1006 11-09-2009 21:00:00 15.96 C 6.39 g/m*3 15.96 C 0 km/h
1007 11-09-2009 22:00:00 14.92 C 6.56 g/m*3 14.92 C 0 km/h
1008 11-09-2009 23:00:00 14.58 C 6.75 g/m*3 14.58 C 0 km/h
1009 12-09-2009 00:00:00 14.18 C 6.78 g/m*3 14.18 C 0 km/h
1010 12-09-2009 01:00:00 13.76 C 6.96 g/m*3 13.76 C 0 km/h
1011 12-09-2009 02:00:00 13.44 C 7.09 g/m*3 13.44 C 0 km/h
1012 12-09-2009 03:00:00 13.4 C 7.35 g/m*3 13.4 C 0 km/h
1013 12-09-2009 04:00:00 13.36 C 7.61 g/m*3 13.36 C 0 km/h
1014 12-09-2009 05:00:00 13.1 C 7.71 g/m*3 13.1 C 0 km/h
1015 12-09-2009 06:00:00 12.58 C 7.98 g/m*3 12.58 C 0 km/h
1016 12-09-2009 07:00:00 12.22 C 8.19 g/m*3 12.22 C 0 km/h
1017 12-09-2009 08:00:00 12.24 C 8.33 g/m*3 12.24 C 0 km/h
1018 12-09-2009 09:00:00 13.8 C 8.41 g/m*3 13.8 C 0 km/h
1019 12-09-2009 10:00:00 16.1 C 7.84 g/m*3 16.1 C 0 km/h
1020 12-09-2009 11:00:00 17.68 C 7.38 g/m*3 17.68 C 0 km/h
1021 12-09-2009 12:00:00 19.18 C 7.08 g/m*3 19.18 C 0 km/h
1022 12-09-2009 13:00:00 20.4 C 6.65 g/m*3 20.4 C 0 km/h
1023 12-09-2009 14:00:00 21.22 C 6.2 g/m*3 21.22 C 0 km/h
1024 12-09-2009 15:00:00 22.82 C 5.82 g/m*3 22.82 C 0 km/h
1025 12-09-2009 16:00:00 23.22 C 5.62 g/m*3 23.22 C 0 km/h
Sensor: Nr:Datum:Temp:Abs-Feuchte:Windchill:Wind:
Aussen-T/F 1026 12-09-2009 17:00:00 24.38 C 5.02 g/m*3 24.38 C 0 km/h
1027 12-09-2009 18:00:00 23.1 C 5.33 g/m*3 23.1 C 0 km/h
1028 12-09-2009 19:00:00 19.84 C 6.06 g/m*3 19.84 C 0 km/h
1029 12-09-2009 20:00:00 18.32 C 6.23 g/m*3 18.32 C 0 km/h
1030 12-09-2009 21:00:00 17.16 C 6.57 g/m*3 17.16 C 0 km/h
1031 12-09-2009 22:00:00 16.58 C 6.77 g/m*3 16.58 C 0 km/h
1032 12-09-2009 23:00:00 15.7 C 7.01 g/m*3 15.7 C 0 km/h
1033 13-09-2009 00:00:00 14.36 C 7.45 g/m*3 14.36 C 0 km/h
1034 13-09-2009 01:00:00 13.42 C 7.75 g/m*3 13.42 C 0 km/h
1035 13-09-2009 02:00:00 13.04 C 8 g/m*3 13.04 C 0 km/h
1036 13-09-2009 03:00:00 12.48 C 8.15 g/m*3 12.48 C 0 km/h
1037 13-09-2009 04:00:00 12.92 C 8.51 g/m*3 12.92 C 0 km/h
1038 13-09-2009 05:00:00 13.4 C 8.77 g/m*3 13.4 C 0 km/h
1039 13-09-2009 06:00:00 13.68 C 8.85 g/m*3 13.68 C 0 km/h
1040 13-09-2009 07:00:00 12.98 C 8.61 g/m*3 12.98 C 0 km/h
1041 13-09-2009 08:00:00 13.06 C 8.47 g/m*3 13.06 C 0 km/h
1042 13-09-2009 09:00:00 14.26 C 8.16 g/m*3 14.26 C 0 km/h
1043 13-09-2009 10:00:00 14.92 C 7.89 g/m*3 14.92 C 0 km/h
1044 13-09-2009 11:00:00 14.1 C 8.57 g/m*3 14.1 C 0 km/h
1045 13-09-2009 12:00:00 15.28 C 8.69 g/m*3 15.28 C 0 km/h
1046 13-09-2009 13:00:00 15.32 C 8.63 g/m*3 15.32 C 0 km/h
1047 13-09-2009 14:00:00 17.3 C 7.75 g/m*3 17.3 C 0 km/h
1048 13-09-2009 15:00:00 16.44 C 7.64 g/m*3 16.44 C 0 km/h
1049 13-09-2009 16:00:00 16.86 C 7.46 g/m*3 16.86 C 0 km/h
1050 13-09-2009 17:00:00 17.48 C 7.24 g/m*3 17.48 C 0 km/h
Sensor: Nr:Datum:Temp:Abs-Feuchte:Windchill:Wind:
Aussen-T/F 1051 13-09-2009 18:00:00 15.58 C 8.02 g/m*3 15.58 C 0 km/h
1052 13-09-2009 19:00:00 13.5 C 9.83 g/m*3 13.5 C 0 km/h
1053 13-09-2009 20:00:00 12.96 C 10 g/m*3 12.96 C 0 km/h
1054 13-09-2009 21:00:00 12.78 C 10.07 g/m*3 12.78 C 0 km/h
1055 13-09-2009 22:00:00 13.28 C 10.32 g/m*3 13.28 C 0 km/h
1056 13-09-2009 23:00:00 12.12 C 9.77 g/m*3 12.12 C 0 km/h
1057 14-09-2009 00:00:00 11.94 C 9.85 g/m*3 11.94 C 0 km/h
1058 14-09-2009 01:00:00 11.28 C 9.56 g/m*3 11.28 C 0 km/h
1059 14-09-2009 02:00:00 11.02 C 9.5 g/m*3 11.02 C 0 km/h
1060 14-09-2009 03:00:00 10.74 C 9.35 g/m*3 10.74 C 0 km/h
1061 14-09-2009 04:00:00 11.04 C 9.53 g/m*3 11.04 C 0 km/h
1062 14-09-2009 05:00:00 10.82 C 9.4 g/m*3 10.82 C 0 km/h
1063 14-09-2009 06:00:00 10.94 C 9.47 g/m*3 10.94 C 0 km/h
1064 14-09-2009 07:00:00 11.06 C 9.55 g/m*3 11.06 C 0 km/h
1065 14-09-2009 08:00:00 11.7 C 9.94 g/m*3 11.7 C 0 km/h
1066 14-09-2009 09:00:00 12.32 C 10.33 g/m*3 12.32 C 0 km/h
1067 14-09-2009 10:00:00 12.2 C 10.08 g/m*3 12.2 C 0 km/h
1068 14-09-2009 11:00:00 12.5 C 10.25 g/m*3 12.5 C 0 km/h
1069 14-09-2009 12:00:00 13.72 C 11.07 g/m*3 13.72 C 0 km/h
1070 14-09-2009 13:00:00 13.52 C 10.7 g/m*3 13.52 C 0 km/h
1071 14-09-2009 14:00:00 13.34 C 10.84 g/m*3 13.34 C 0 km/h
1072 14-09-2009 15:00:00 14.7 C 11.68 g/m*3 14.7 C 0 km/h
1073 14-09-2009 16:00:00 14.1 C 10.95 g/m*3 14.1 C 0 km/h
1074 14-09-2009 17:00:00 13.66 C 10.63 g/m*3 13.66 C 0 km/h
1075 14-09-2009 18:00:00 12.92 C 10.31 g/m*3 12.92 C 0 km/h
Sensor: Nr:Datum:Temp:Abs-Feuchte:Windchill:Wind:
Aussen-T/F 1076 14-09-2009 19:00:00 11.9 C 9.91 g/m*3 11.9 C 0 km/h
1077 14-09-2009 20:00:00 11.72 C 9.95 g/m*3 11.72 C 0 km/h
1078 14-09-2009 21:00:00 11.88 C 10.05 g/m*3 11.88 C 0 km/h
1079 14-09-2009 22:00:00 11.7 C 9.94 g/m*3 11.7 C 0 km/h
1080 14-09-2009 23:00:00 11.46 C 9.79 g/m*3 11.46 C 0 km/h
1081 15-09-2009 00:00:00 11.4 C 9.75 g/m*3 11.4 C 0 km/h
1082 15-09-2009 01:00:00 11.12 C 9.58 g/m*3 11.12 C 0 km/h
1083 15-09-2009 02:00:00 11.16 C 9.61 g/m*3 11.16 C 0 km/h
1084 15-09-2009 03:00:00 11.12 C 9.58 g/m*3 11.12 C 0 km/h
1085 15-09-2009 04:00:00 11.18 C 9.62 g/m*3 11.18 C 0 km/h
1086 15-09-2009 05:00:00 11.36 C 9.73 g/m*3 11.36 C 0 km/h
1087 15-09-2009 06:00:00 11.4 C 9.75 g/m*3 11.4 C 0 km/h
1088 15-09-2009 07:00:00 11.58 C 9.86 g/m*3 11.58 C 0 km/h
1089 15-09-2009 08:00:00 12.14 C 10.21 g/m*3 12.14 C 0 km/h
1090 15-09-2009 09:00:00 13.28 C 10.96 g/m*3 13.28 C 0 km/h
1091 15-09-2009 10:00:00 14.14 C 11.29 g/m*3 14.14 C 0 km/h
1092 15-09-2009 11:00:00 15.46 C 10.63 g/m*3 15.46 C 0 km/h
1093 15-09-2009 12:00:00 16.38 C 10.23 g/m*3 16.38 C 0 km/h
1094 15-09-2009 13:00:00 16.1 C 10.77 g/m*3 16.1 C 0 km/h
1095 15-09-2009 14:00:00 16.04 C 10.76 g/m*3 16.04 C 0 km/h
1096 15-09-2009 15:00:00 15.28 C 11.24 g/m*3 15.28 C 0 km/h
1097 15-09-2009 16:00:00 15.02 C 11.45 g/m*3 15.02 C 0 km/h
1098 15-09-2009 17:00:00 15.26 C 11.8 g/m*3 15.26 C 0 km/h
1099 15-09-2009 18:00:00 15.82 C 12.26 g/m*3 15.82 C 0 km/h
1100 15-09-2009 19:00:00 15.44 C 11.99 g/m*3 15.44 C 0 km/h
Sensor: Nr:Datum:Temp:Abs-Feuchte:Windchill:Wind:
Aussen-T/F 1101 15-09-2009 20:00:00 15.16 C 11.89 g/m*3 15.16 C 0 km/h
1102 15-09-2009 21:00:00 15.04 C 11.83 g/m*3 15.04 C 0 km/h
1103 15-09-2009 22:00:00 14.8 C 11.78 g/m*3 14.8 C 0 km/h
1104 15-09-2009 23:00:00 14.65 C 11.67 g/m*3 14.65 C 0 km/h
1105 16-09-2009 00:00:00 14.6 C 11.64 g/m*3 14.6 C 0 km/h
1106 16-09-2009 01:00:00 14.6 C 11.61 g/m*3 14.6 C 0 km/h
1107 16-09-2009 02:00:00 14.4 C 11.37 g/m*3 14.4 C 0 km/h
1108 16-09-2009 03:00:00 14.4 C 11.37 g/m*3 14.4 C 0 km/h
1109 16-09-2009 04:00:00 14.3 C 11.2 g/m*3 14.3 C 0 km/h
1110 16-09-2009 05:00:00 14.28 C 11.04 g/m*3 14.28 C 0 km/h
1111 16-09-2009 06:00:00 14.3 C 10.98 g/m*3 14.3 C 0 km/h
1112 16-09-2009 07:00:00 14.42 C 11.02 g/m*3 14.42 C 0 km/h
1113 16-09-2009 08:00:00 14.64 C 11.04 g/m*3 14.64 C 0 km/h
1114 16-09-2009 09:00:00 15.1 C 11.22 g/m*3 15.1 C 0 km/h
1115 16-09-2009 10:00:00 15.88 C 11.47 g/m*3 15.88 C 0 km/h
1116 16-09-2009 11:00:00 16.76 C 11.81 g/m*3 16.76 C 0 km/h
1117 16-09-2009 12:00:00 17.78 C 11.89 g/m*3 17.78 C 0 km/h
1118 16-09-2009 13:00:00 19.44 C 11.37 g/m*3 19.44 C 0 km/h
1119 16-09-2009 14:00:00 20 C 10.65 g/m*3 20 C 0 km/h
1120 16-09-2009 15:00:00 20.12 C 10.76 g/m*3 20.12 C 0 km/h
1121 16-09-2009 16:00:00 19.7 C 11.41 g/m*3 19.7 C 0 km/h
1122 16-09-2009 17:00:00 19.62 C 11.29 g/m*3 19.62 C 0 km/h
1123 16-09-2009 18:00:00 19.34 C 11.37 g/m*3 19.34 C 0 km/h
1124 16-09-2009 19:00:00 18.4 C 11.61 g/m*3 18.4 C 0 km/h
1125 16-09-2009 20:00:00 17.6 C 11.82 g/m*3 17.6 C 0 km/h
Sensor: Nr:Datum:Temp:Abs-Feuchte:Windchill:Wind:
Aussen-T/F 1126 16-09-2009 21:00:00 17.24 C 12.1 g/m*3 17.24 C 0 km/h
1127 16-09-2009 22:00:00 17.32 C 11.8 g/m*3 17.32 C 0 km/h
1128 16-09-2009 23:00:00 17.16 C 11.48 g/m*3 17.16 C 0 km/h
1129 17-09-2009 00:00:00 16.64 C 11.44 g/m*3 16.64 C 0 km/h
1130 17-09-2009 01:00:00 16.62 C 11.34 g/m*3 16.62 C 0 km/h
1131 17-09-2009 02:00:00 16.58 C 11.12 g/m*3 16.58 C 0 km/h
1132 17-09-2009 03:00:00 16.52 C 11.02 g/m*3 16.52 C 0 km/h
1133 17-09-2009 04:00:00 16.36 C 10.75 g/m*3 16.36 C 0 km/h
1134 17-09-2009 05:00:00 15.98 C 10.15 g/m*3 15.98 C 0 km/h
1135 17-09-2009 06:00:00 15.52 C 9.9 g/m*3 15.52 C 0 km/h
1136 17-09-2009 07:00:00 15.26 C 9.67 g/m*3 15.26 C 0 km/h
1137 17-09-2009 08:00:00 15.2 C 9.32 g/m*3 15.2 C 0 km/h
1138 17-09-2009 09:00:00 15.72 C 9 g/m*3 15.72 C 0 km/h
1139 17-09-2009 10:00:00 16.7 C 8.73 g/m*3 16.7 C 0 km/h
1140 17-09-2009 11:00:00 17.5 C 8.68 g/m*3 17.5 C 0 km/h
1141 17-09-2009 12:00:00 19.08 C 8.84 g/m*3 19.08 C 0 km/h
1142 17-09-2009 13:00:00 21.26 C 8.74 g/m*3 21.26 C 0 km/h
1143 17-09-2009 14:00:00 23.26 C 8.39 g/m*3 23.26 C 0 km/h
1144 17-09-2009 15:00:00 23.16 C 9.09 g/m*3 23.16 C 0 km/h
1145 17-09-2009 16:00:00 25.58 C 8.75 g/m*3 25.58 C 0 km/h
1146 17-09-2009 17:00:00 25.14 C 9.05 g/m*3 25.14 C 0 km/h
1147 17-09-2009 18:00:00 23.14 C 9.74 g/m*3 23.14 C 0 km/h
1148 17-09-2009 19:00:00 19.44 C 10.07 g/m*3 19.44 C 0 km/h
1149 17-09-2009 20:00:00 17.62 C 10 g/m*3 17.62 C 0 km/h
1150 17-09-2009 21:00:00 16.92 C 10.11 g/m*3 16.92 C 0 km/h
Sensor: Nr:Datum:Temp:Abs-Feuchte:Windchill:Wind:
Aussen-T/F 1151 17-09-2009 22:00:00 17.2 C 10.02 g/m*3 17.2 C 0 km/h
1152 17-09-2009 23:00:00 17.02 C 9.07 g/m*3 17.02 C 0 km/h
1153 18-09-2009 00:00:00 16.38 C 9.03 g/m*3 16.38 C 0 km/h
1154 18-09-2009 01:00:00 16.12 C 8.92 g/m*3 16.12 C 0 km/h
1155 18-09-2009 02:00:00 15.02 C 8.81 g/m*3 15.02 C 0 km/h
1156 18-09-2009 03:00:00 13.66 C 8.81 g/m*3 13.66 C 0 km/h
1157 18-09-2009 04:00:00 13.12 C 8.87 g/m*3 13.12 C 0 km/h
1158 18-09-2009 05:00:00 13.2 C 9.14 g/m*3 13.2 C 0 km/h
1159 18-09-2009 06:00:00 12.62 C 9.13 g/m*3 12.62 C 0 km/h
1160 18-09-2009 07:00:00 12.94 C 9.33 g/m*3 12.94 C 0 km/h
1161 18-09-2009 08:00:00 13.46 C 9.45 g/m*3 13.46 C 0 km/h
1162 18-09-2009 09:00:00 13.88 C 9.39 g/m*3 13.88 C 0 km/h
1163 18-09-2009 10:00:00 15.26 C 9.35 g/m*3 15.26 C 0 km/h
1164 18-09-2009 11:00:00 17.98 C 9.45 g/m*3 17.98 C 0 km/h
1165 18-09-2009 12:00:00 20.02 C 8.89 g/m*3 20.02 C 0 km/h
1166 18-09-2009 13:00:00 22.02 C 9.17 g/m*3 22.02 C 0 km/h
1167 18-09-2009 14:00:00 24.1 C 8.84 g/m*3 24.1 C 0 km/h
1168 18-09-2009 15:00:00 24.74 C 9.12 g/m*3 24.74 C 0 km/h
1169 18-09-2009 16:00:00 23.76 C 10.3 g/m*3 23.76 C 0 km/h
1170 18-09-2009 17:00:00 24.6 C 10.8 g/m*3 24.6 C 0 km/h
1171 18-09-2009 18:00:00 25.24 C 9.75 g/m*3 25.24 C 0 km/h
1172 18-09-2009 19:00:00 21.28 C 10.72 g/m*3 21.28 C 0 km/h
1173 18-09-2009 20:00:00 20.02 C 10.83 g/m*3 20.02 C 0 km/h
1174 18-09-2009 21:00:00 19.76 C 11.11 g/m*3 19.76 C 0 km/h
1175 18-09-2009 22:00:00 19.54 C 10.63 g/m*3 19.54 C 0 km/h
Sensor: Nr:Datum:Temp:Abs-Feuchte:Windchill:Wind:
Aussen-T/F 1176 18-09-2009 23:00:00 19.54 C 10.36 g/m*3 19.54 C 0 km/h
1177 19-09-2009 00:00:00 19.26 C 10.36 g/m*3 19.26 C 0 km/h
1178 19-09-2009 01:00:00 18.58 C 10.81 g/m*3 18.58 C 0 km/h
1179 19-09-2009 02:00:00 18.14 C 10.84 g/m*3 18.14 C 0 km/h
1180 19-09-2009 03:00:00 17.9 C 10.78 g/m*3 17.9 C 0 km/h
1181 19-09-2009 04:00:00 17.94 C 10.5 g/m*3 17.94 C 0 km/h
1182 19-09-2009 05:00:00 17.92 C 10.61 g/m*3 17.92 C 0 km/h
1183 19-09-2009 06:00:00 17.4 C 10.61 g/m*3 17.4 C 0 km/h
1184 19-09-2009 07:00:00 16.66 C 10.46 g/m*3 16.66 C 0 km/h
1185 19-09-2009 08:00:00 17.26 C 10.7 g/m*3 17.26 C 0 km/h
1186 19-09-2009 09:00:00 18.22 C 10.27 g/m*3 18.22 C 0 km/h
1187 19-09-2009 10:00:00 19.52 C 9.61 g/m*3 19.52 C 0 km/h
1188 19-09-2009 11:00:00 21.56 C 9.5 g/m*3 21.56 C 0 km/h
1189 19-09-2009 12:00:00 22.9 C 9.65 g/m*3 22.9 C 0 km/h
1190 19-09-2009 13:00:00 24.36 C 9.9 g/m*3 24.36 C 0 km/h
1191 19-09-2009 14:00:00 26.14 C 9.62 g/m*3 26.14 C 0 km/h
1192 19-09-2009 15:00:00 27.82 C 9.37 g/m*3 27.82 C 0 km/h
1193 19-09-2009 16:00:00 26.62 C 10.74 g/m*3 26.62 C 0 km/h
1194 19-09-2009 17:00:00 26.84 C 10.25 g/m*3 26.84 C 0 km/h
1195 19-09-2009 18:00:00 23.82 C 11.5 g/m*3 23.82 C 0 km/h
1196 19-09-2009 19:00:00 22.12 C 11.53 g/m*3 22.12 C 0 km/h
1197 19-09-2009 20:00:00 21.14 C 12.26 g/m*3 21.14 C 0 km/h
1198 19-09-2009 21:00:00 19.18 C 13.7 g/m*3 19.18 C 0 km/h
1199 19-09-2009 22:00:00 19.3 C 12.9 g/m*3 19.3 C 0 km/h
1200 19-09-2009 23:00:00 18.26 C 12.6 g/m*3 18.26 C 0 km/h
Sensor: Nr:Datum:Temp:Abs-Feuchte:Windchill:Wind:
Aussen-T/F 1201 20-09-2009 00:00:00 17.5 C 12.43 g/m*3 17.5 C 0 km/h
1202 20-09-2009 01:00:00 17.16 C 12.36 g/m*3 17.16 C 0 km/h
1203 20-09-2009 02:00:00 17.24 C 12.36 g/m*3 17.24 C 0 km/h
1204 20-09-2009 03:00:00 16.68 C 12.26 g/m*3 16.68 C 0 km/h
1205 20-09-2009 04:00:00 16.4 C 12.06 g/m*3 16.4 C 0 km/h
1206 20-09-2009 05:00:00 15.62 C 11.72 g/m*3 15.62 C 0 km/h
1207 20-09-2009 06:00:00 15.3 C 11.83 g/m*3 15.3 C 0 km/h
1208 20-09-2009 07:00:00 15.3 C 11.88 g/m*3 15.3 C 0 km/h
1209 20-09-2009 08:00:00 15.8 C 12.14 g/m*3 15.8 C 0 km/h
1210 20-09-2009 09:00:00 16.48 C 12.17 g/m*3 16.48 C 0 km/h
1211 20-09-2009 10:00:00 18.14 C 12.27 g/m*3 18.14 C 0 km/h
1212 20-09-2009 11:00:00 20.12 C 12.01 g/m*3 20.12 C 0 km/h
1213 20-09-2009 12:00:00 22.76 C 12 g/m*3 22.76 C 0 km/h
1214 20-09-2009 13:00:00 24.94 C 11.15 g/m*3 24.94 C 0 km/h
1215 20-09-2009 14:00:00 26.04 C 10.1 g/m*3 26.04 C 0 km/h
1216 20-09-2009 15:00:00 26.5 C 9.86 g/m*3 26.5 C 0 km/h
1217 20-09-2009 16:00:00 27.04 C 8.87 g/m*3 27.04 C 0 km/h
1218 20-09-2009 17:00:00 26.34 C 8.93 g/m*3 26.34 C 0 km/h
1219 20-09-2009 18:00:00 23.88 C 9.98 g/m*3 23.88 C 0 km/h
1220 20-09-2009 19:00:00 21.72 C 10.92 g/m*3 21.72 C 0 km/h
1221 20-09-2009 20:00:00 20.2 C 11.12 g/m*3 20.2 C 0 km/h
1222 20-09-2009 21:00:00 19.64 C 11.37 g/m*3 19.64 C 0 km/h
1223 20-09-2009 22:00:00 18.54 C 11.58 g/m*3 18.54 C 0 km/h
1224 20-09-2009 23:00:00 18.94 C 11.82 g/m*3 18.94 C 0 km/h
1225 21-09-2009 00:00:00 18.32 C 12.02 g/m*3 18.32 C 0 km/h
Sensor: Nr:Datum:Temp:Abs-Feuchte:Windchill:Wind:
Aussen-T/F 1226 21-09-2009 01:00:00 17.68 C 12.24 g/m*3 17.68 C 0 km/h
1227 21-09-2009 02:00:00 17.48 C 12.24 g/m*3 17.48 C 0 km/h
1228 21-09-2009 03:00:00 17.7 C 12.34 g/m*3 17.7 C 0 km/h
1229 21-09-2009 04:00:00 17.86 C 12.22 g/m*3 17.86 C 0 km/h
1230 21-09-2009 05:00:00 17.58 C 11.98 g/m*3 17.58 C 0 km/h
1231 21-09-2009 06:00:00 17.42 C 11.84 g/m*3 17.42 C 0 km/h
1232 21-09-2009 07:00:00 17.34 C 11.75 g/m*3 17.34 C 0 km/h
1233 21-09-2009 08:00:00 17.06 C 11.62 g/m*3 17.06 C 0 km/h
1234 21-09-2009 09:00:00 17.12 C 11.4 g/m*3 17.12 C 0 km/h
1235 21-09-2009 10:00:00 19.16 C 11.12 g/m*3 19.16 C 0 km/h
1236 21-09-2009 11:00:00 19.64 C 10.39 g/m*3 19.64 C 0 km/h
1237 21-09-2009 12:00:00 20.58 C 10.44 g/m*3 20.58 C 0 km/h
1238 21-09-2009 13:00:00 20.7 C 9.9 g/m*3 20.7 C 0 km/h
1239 21-09-2009 14:00:00 21.02 C 9.39 g/m*3 21.02 C 0 km/h
1240 21-09-2009 15:00:00 23.52 C 9.06 g/m*3 23.52 C 0 km/h
1241 21-09-2009 16:00:00 23.9 C 8.74 g/m*3 23.9 C 0 km/h
1242 21-09-2009 17:00:00 22.6 C 8.76 g/m*3 22.6 C 0 km/h
1243 21-09-2009 18:00:00 21.46 C 8.58 g/m*3 21.46 C 0 km/h
1244 21-09-2009 19:00:00 19.48 C 9.12 g/m*3 19.48 C 0 km/h
1245 21-09-2009 20:00:00 17.76 C 9.24 g/m*3 17.76 C 0 km/h
1246 21-09-2009 21:00:00 16.64 C 9.49 g/m*3 16.64 C 0 km/h
1247 21-09-2009 22:00:00 15.72 C 9.7 g/m*3 15.72 C 0 km/h
1248 21-09-2009 23:00:00 14.86 C 9.66 g/m*3 14.86 C 0 km/h
1249 22-09-2009 00:00:00 14.12 C 9.53 g/m*3 14.12 C 0 km/h
1250 22-09-2009 01:00:00 13.54 C 9.59 g/m*3 13.54 C 0 km/h
Sensor: Nr:Datum:Temp:Abs-Feuchte:Windchill:Wind:
Aussen-T/F 1251 22-09-2009 02:00:00 12.94 C 9.45 g/m*3 12.94 C 0 km/h
1252 22-09-2009 03:00:00 12.38 C 9.32 g/m*3 12.38 C 0 km/h
1253 22-09-2009 04:00:00 11.86 C 9.13 g/m*3 11.86 C 0 km/h
1254 22-09-2009 05:00:00 11.62 C 9.2 g/m*3 11.62 C 0 km/h
1255 22-09-2009 06:00:00 11.26 C 8.95 g/m*3 11.26 C 0 km/h
1256 22-09-2009 07:00:00 11.32 C 8.99 g/m*3 11.32 C 0 km/h
1257 22-09-2009 08:00:00 11.12 C 8.83 g/m*3 11.12 C 0 km/h
1258 22-09-2009 09:00:00 11.78 C 9.06 g/m*3 11.78 C 0 km/h
1259 22-09-2009 10:00:00 13.1 C 9.2 g/m*3 13.1 C 0 km/h
1260 22-09-2009 11:00:00 15.06 C 9.7 g/m*3 15.06 C 0 km/h
1261 22-09-2009 12:00:00 18.4 C 9.94 g/m*3 18.4 C 0 km/h
1262 22-09-2009 13:00:00 21.08 C 9.05 g/m*3 21.08 C 0 km/h
1263 22-09-2009 14:00:00 24.1 C 8.1 g/m*3 24.1 C 0 km/h
1264 22-09-2009 15:00:00 26.56 C 7.79 g/m*3 26.56 C 0 km/h
1265 22-09-2009 16:00:00 28.1 C 7.82 g/m*3 28.1 C 0 km/h
1266 22-09-2009 17:00:00 27.46 C 8.45 g/m*3 27.46 C 0 km/h
1267 22-09-2009 18:00:00 25.56 C 8.5 g/m*3 25.56 C 0 km/h
1268 22-09-2009 19:00:00 21.64 C 8.29 g/m*3 21.64 C 0 km/h
1269 22-09-2009 20:00:00 19.16 C 8.23 g/m*3 19.16 C 0 km/h
1270 22-09-2009 21:00:00 18.34 C 7.99 g/m*3 18.34 C 0 km/h
1271 22-09-2009 22:00:00 16.86 C 8.7 g/m*3 16.86 C 0 km/h
1272 22-09-2009 23:00:00 15.8 C 9.05 g/m*3 15.8 C 0 km/h
1273 23-09-2009 00:00:00 14.72 C 9.25 g/m*3 14.72 C 0 km/h
1274 23-09-2009 01:00:00 14.22 C 9.19 g/m*3 14.22 C 0 km/h
1275 23-09-2009 02:00:00 13.48 C 9.04 g/m*3 13.48 C 0 km/h
Sensor: Nr:Datum:Temp:Abs-Feuchte:Windchill:Wind:
Aussen-T/F 1276 23-09-2009 03:00:00 12.88 C 9.12 g/m*3 12.88 C 0 km/h
1277 23-09-2009 04:00:00 12.42 C 9.12 g/m*3 12.42 C 0 km/h
1278 23-09-2009 05:00:00 11.94 C 8.92 g/m*3 11.94 C 0 km/h
1279 23-09-2009 06:00:00 11.34 C 8.73 g/m*3 11.34 C 0 km/h
1280 23-09-2009 07:00:00 10.96 C 8.69 g/m*3 10.96 C 0 km/h
1281 23-09-2009 08:00:00 11.06 C 8.86 g/m*3 11.06 C 0 km/h
1282 23-09-2009 09:00:00 11.96 C 9.44 g/m*3 11.96 C 0 km/h
1283 23-09-2009 10:00:00 14.68 C 9.73 g/m*3 14.68 C 0 km/h
1284 23-09-2009 11:00:00 17.16 C 9.32 g/m*3 17.16 C 0 km/h
1285 23-09-2009 12:00:00 19.42 C 9.15 g/m*3 19.42 C 0 km/h
1286 23-09-2009 13:00:00 21.52 C 9.1 g/m*3 21.52 C 0 km/h
1287 23-09-2009 14:00:00 23.86 C 8.68 g/m*3 23.86 C 0 km/h
1288 23-09-2009 15:00:00 26.2 C 8.42 g/m*3 26.2 C 0 km/h
1289 23-09-2009 16:00:00 26.78 C 8.34 g/m*3 26.78 C 0 km/h
1290 23-09-2009 17:00:00 25.46 C 9.07 g/m*3 25.46 C 0 km/h
1291 23-09-2009 18:00:00 23.7 C 9.63 g/m*3 23.7 C 0 km/h
1292 23-09-2009 19:00:00 20.76 C 9.68 g/m*3 20.76 C 0 km/h
1293 23-09-2009 20:00:00 19.06 C 10.01 g/m*3 19.06 C 0 km/h
1294 23-09-2009 21:00:00 18.36 C 10.17 g/m*3 18.36 C 0 km/h
1295 23-09-2009 22:00:00 18.16 C 10.23 g/m*3 18.16 C 0 km/h
1296 23-09-2009 23:00:00 18.04 C 10.35 g/m*3 18.04 C 0 km/h
1297 24-09-2009 00:00:00 17.36 C 10.47 g/m*3 17.36 C 0 km/h
1298 24-09-2009 01:00:00 16.74 C 10.54 g/m*3 16.74 C 0 km/h
1299 24-09-2009 02:00:00 16.56 C 10.63 g/m*3 16.56 C 0 km/h
1300 24-09-2009 03:00:00 16.36 C 10.58 g/m*3 16.36 C 0 km/h
Sensor: Nr:Datum:Temp:Abs-Feuchte:Windchill:Wind:
Aussen-T/F 1301 24-09-2009 04:00:00 16.38 C 10.68 g/m*3 16.38 C 0 km/h
1302 24-09-2009 05:00:00 16.26 C 10.68 g/m*3 16.26 C 0 km/h
1303 24-09-2009 06:00:00 16.14 C 10.64 g/m*3 16.14 C 0 km/h
1304 24-09-2009 07:00:00 16.06 C 10.72 g/m*3 16.06 C 0 km/h
1305 24-09-2009 08:00:00 16.26 C 10.66 g/m*3 16.26 C 0 km/h
1306 24-09-2009 09:00:00 16.68 C 10.67 g/m*3 16.68 C 0 km/h
1307 24-09-2009 10:00:00 17.44 C 10.76 g/m*3 17.44 C 0 km/h
1308 24-09-2009 11:00:00 19.22 C 10.6 g/m*3 19.22 C 0 km/h
1309 24-09-2009 12:00:00 20 C 10.44 g/m*3 20 C 0 km/h
1310 24-09-2009 13:00:00 18.62 C 10.99 g/m*3 18.62 C 0 km/h
1311 24-09-2009 14:00:00 18.9 C 10.5 g/m*3 18.9 C 0 km/h
1312 24-09-2009 15:00:00 19.86 C 9.98 g/m*3 19.86 C 0 km/h
1313 24-09-2009 16:00:00 19.46 C 9.74 g/m*3 19.46 C 0 km/h
1314 24-09-2009 17:00:00 18.66 C 9.87 g/m*3 18.66 C 0 km/h
1315 24-09-2009 18:00:00 18.42 C 10.11 g/m*3 18.42 C 0 km/h
1316 24-09-2009 19:00:00 17.56 C 9.67 g/m*3 17.56 C 0 km/h
1317 24-09-2009 20:00:00 16.34 C 10.01 g/m*3 16.34 C 0 km/h
1318 24-09-2009 21:00:00 15.22 C 10.16 g/m*3 15.22 C 0 km/h
1319 24-09-2009 22:00:00 14.38 C 10.2 g/m*3 14.38 C 0 km/h
1320 24-09-2009 23:00:00 13.68 C 10.01 g/m*3 13.68 C 0 km/h
1321 25-09-2009 00:00:00 12.68 C 9.58 g/m*3 12.68 C 0 km/h
1322 25-09-2009 01:00:00 12.54 C 9.68 g/m*3 12.54 C 0 km/h
1323 25-09-2009 02:00:00 12.72 C 9.65 g/m*3 12.72 C 0 km/h
1324 25-09-2009 03:00:00 12.32 C 9.52 g/m*3 12.32 C 0 km/h
1325 25-09-2009 04:00:00 11.8 C 9.3 g/m*3 11.8 C 0 km/h
Sensor: Nr:Datum:Temp:Abs-Feuchte:Windchill:Wind:
Aussen-T/F 1326 25-09-2009 05:00:00 11.04 C 8.99 g/m*3 11.04 C 0 km/h
1327 25-09-2009 06:00:00 10.9 C 8.99 g/m*3 10.9 C 0 km/h
1328 25-09-2009 07:00:00 11.04 C 8.97 g/m*3 11.04 C 0 km/h
1329 25-09-2009 08:00:00 11.6 C 9.23 g/m*3 11.6 C 0 km/h
1330 25-09-2009 09:00:00 12.72 C 9.32 g/m*3 12.72 C 0 km/h
1331 25-09-2009 10:00:00 14.28 C 8.86 g/m*3 14.28 C 0 km/h
1332 25-09-2009 11:00:00 15.04 C 8.77 g/m*3 15.04 C 0 km/h
1333 25-09-2009 12:00:00 16.64 C 8.78 g/m*3 16.64 C 0 km/h
1334 25-09-2009 13:00:00 19.46 C 7.74 g/m*3 19.46 C 0 km/h
1335 25-09-2009 14:00:00 21.72 C 6.19 g/m*3 21.72 C 0 km/h
1336 25-09-2009 15:00:00 21.44 C 6.28 g/m*3 21.44 C 0 km/h
1337 25-09-2009 16:00:00 20.96 C 6.21 g/m*3 20.96 C 0 km/h
1338 25-09-2009 17:00:00 20.92 C 6.45 g/m*3 20.92 C 0 km/h
1339 25-09-2009 18:00:00 19.1 C 7.48 g/m*3 19.1 C 0 km/h
1340 25-09-2009 19:00:00 16.86 C 7.38 g/m*3 16.86 C 0 km/h
1341 25-09-2009 20:00:00 15.44 C 7.56 g/m*3 15.44 C 0 km/h
1342 25-09-2009 21:00:00 15.42 C 8.02 g/m*3 15.42 C 0 km/h
1343 25-09-2009 22:00:00 14.28 C 7.95 g/m*3 14.28 C 0 km/h
1344 25-09-2009 23:00:00 12.94 C 8.04 g/m*3 12.94 C 0 km/h
1345 26-09-2009 00:00:00 12.04 C 8.06 g/m*3 12.04 C 0 km/h
1346 26-09-2009 01:00:00 11.54 C 8.06 g/m*3 11.54 C 0 km/h
1347 26-09-2009 02:00:00 10.74 C 7.84 g/m*3 10.74 C 0 km/h
1348 26-09-2009 03:00:00 9.82 C 7.62 g/m*3 9.82 C 0 km/h
1349 26-09-2009 04:00:00 9.08 C 7.53 g/m*3 9.08 C 0 km/h
1350 26-09-2009 05:00:00 8.48 C 7.4 g/m*3 8.48 C 0 km/h
Sensor: Nr:Datum:Temp:Abs-Feuchte:Windchill:Wind:
Aussen-T/F 1351 26-09-2009 06:00:00 7.84 C 7.27 g/m*3 7.84 C 0 km/h
1352 26-09-2009 07:00:00 7.94 C 7.4 g/m*3 7.94 C 0 km/h
1353 26-09-2009 08:00:00 8.06 C 7.52 g/m*3 8.06 C 0 km/h
1354 26-09-2009 09:00:00 9.28 C 8.01 g/m*3 9.28 C 0 km/h
1355 26-09-2009 10:00:00 11.02 C 8.52 g/m*3 11.02 C 0 km/h
1356 26-09-2009 11:00:00 13.44 C 8.83 g/m*3 13.44 C 0 km/h
1357 26-09-2009 12:00:00 16.08 C 8.68 g/m*3 16.08 C 0 km/h
1358 26-09-2009 13:00:00 18.96 C 8.29 g/m*3 18.96 C 0 km/h
1359 26-09-2009 14:00:00 21.92 C 6.92 g/m*3 21.92 C 0 km/h
1360 26-09-2009 15:00:00 23.84 C 6.3 g/m*3 23.84 C 0 km/h
1361 26-09-2009 16:00:00 24.74 C 6.22 g/m*3 24.74 C 0 km/h
1362 26-09-2009 17:00:00 25.56 C 6.7 g/m*3 25.56 C 0 km/h
1363 26-09-2009 18:00:00 22.8 C 7.11 g/m*3 22.8 C 0 km/h
1364 26-09-2009 19:00:00 18.48 C 7.4 g/m*3 18.48 C 0 km/h
1365 26-09-2009 20:00:00 16.36 C 7.57 g/m*3 16.36 C 0 km/h
1366 26-09-2009 21:00:00 14.98 C 7.68 g/m*3 14.98 C 0 km/h
1367 26-09-2009 22:00:00 13.82 C 7.8 g/m*3 13.82 C 0 km/h
1368 26-09-2009 23:00:00 12.7 C 8.04 g/m*3 12.7 C 0 km/h
1369 27-09-2009 00:00:00 11.74 C 8.09 g/m*3 11.74 C 0 km/h
1370 27-09-2009 01:00:00 11.06 C 8 g/m*3 11.06 C 0 km/h
1371 27-09-2009 02:00:00 10.36 C 7.88 g/m*3 10.36 C 0 km/h
1372 27-09-2009 03:00:00 9.7 C 7.69 g/m*3 9.7 C 0 km/h
1373 27-09-2009 04:00:00 9.14 C 7.49 g/m*3 9.14 C 0 km/h
1374 27-09-2009 05:00:00 8.6 C 7.39 g/m*3 8.6 C 0 km/h
1375 27-09-2009 06:00:00 8.72 C 7.65 g/m*3 8.72 C 0 km/h
Sensor: Nr:Datum:Temp:Abs-Feuchte:Windchill:Wind:
Aussen-T/F 1376 27-09-2009 07:00:00 8.72 C 7.59 g/m*3 8.72 C 0 km/h
1377 27-09-2009 08:00:00 8.5 C 7.55 g/m*3 8.5 C 0 km/h
1378 27-09-2009 09:00:00 9.22 C 7.71 g/m*3 9.22 C 0 km/h
1379 27-09-2009 10:00:00 11.44 C 8.07 g/m*3 11.44 C 0 km/h
1380 27-09-2009 11:00:00 13 C 8.19 g/m*3 13 C 0 km/h
1381 27-09-2009 12:00:00 15.08 C 8.76 g/m*3 15.08 C 0 km/h
1382 27-09-2009 13:00:00 18.76 C 8.58 g/m*3 18.76 C 0 km/h
1383 27-09-2009 14:00:00 22.3 C 8.1 g/m*3 22.3 C 0 km/h
1384 27-09-2009 15:00:00 24.54 C 7.18 g/m*3 24.54 C 0 km/h
1385 27-09-2009 16:00:00 25.98 C 6.95 g/m*3 25.98 C 0 km/h
1386 27-09-2009 17:00:00 25.7 C 6.66 g/m*3 25.7 C 0 km/h
1387 27-09-2009 18:00:00 22.24 C 6.61 g/m*3 22.24 C 0 km/h
1388 27-09-2009 19:00:00 18.3 C 7.1 g/m*3 18.3 C 0 km/h
1389 27-09-2009 20:00:00 16.42 C 7.41 g/m*3 16.42 C 0 km/h
1390 27-09-2009 21:00:00 15.22 C 7.67 g/m*3 15.22 C 0 km/h
1391 27-09-2009 22:00:00 13.86 C 7.87 g/m*3 13.86 C 0 km/h
1392 27-09-2009 23:00:00 12.76 C 8.04 g/m*3 12.76 C 0 km/h
1393 28-09-2009 00:00:00 12.06 C 8.04 g/m*3 12.06 C 0 km/h
1394 28-09-2009 01:00:00 11.3 C 7.96 g/m*3 11.3 C 0 km/h
1395 28-09-2009 02:00:00 10.74 C 7.92 g/m*3 10.74 C 0 km/h
1396 28-09-2009 03:00:00 10.06 C 7.89 g/m*3 10.06 C 0 km/h
1397 28-09-2009 04:00:00 9.52 C 7.84 g/m*3 9.52 C 0 km/h
1398 28-09-2009 05:00:00 8.94 C 7.64 g/m*3 8.94 C 0 km/h
1399 28-09-2009 06:00:00 8.56 C 7.54 g/m*3 8.56 C 0 km/h
1400 28-09-2009 07:00:00 8.08 C 7.38 g/m*3 8.08 C 0 km/h
Sensor: Nr:Datum:Temp:Abs-Feuchte:Windchill:Wind:
Aussen-T/F 1401 28-09-2009 08:00:00 8.16 C 7.43 g/m*3 8.16 C 0 km/h
1402 28-09-2009 09:00:00 9.18 C 7.88 g/m*3 9.18 C 0 km/h
1403 28-09-2009 10:00:00 10.82 C 8.1 g/m*3 10.82 C 0 km/h
1404 28-09-2009 11:00:00 14.18 C 8.42 g/m*3 14.18 C 0 km/h
1405 28-09-2009 12:00:00 17 C 8.19 g/m*3 17 C 0 km/h
1406 28-09-2009 13:00:00 19.44 C 8.19 g/m*3 19.44 C 0 km/h
1407 28-09-2009 14:00:00 20.96 C 7.86 g/m*3 20.96 C 0 km/h
1408 28-09-2009 15:00:00 22.14 C 7.79 g/m*3 22.14 C 0 km/h
1409 28-09-2009 16:00:00 22.96 C 7.67 g/m*3 22.96 C 0 km/h
1410 28-09-2009 17:00:00 21.84 C 8.08 g/m*3 21.84 C 0 km/h
1411 28-09-2009 18:00:00 18.82 C 8.61 g/m*3 18.82 C 0 km/h
1412 28-09-2009 19:00:00 17 C 8.88 g/m*3 17 C 0 km/h
1413 28-09-2009 20:00:00 15.7 C 9.1 g/m*3 15.7 C 0 km/h
1414 28-09-2009 21:00:00 15.16 C 8.99 g/m*3 15.16 C 0 km/h
1415 28-09-2009 22:00:00 14.3 C 8.94 g/m*3 14.3 C 0 km/h
1416 28-09-2009 23:00:00 14.26 C 9.31 g/m*3 14.26 C 0 km/h
1417 29-09-2009 00:00:00 14.64 C 9.26 g/m*3 14.64 C 0 km/h
1418 29-09-2009 01:00:00 14.62 C 9.17 g/m*3 14.62 C 0 km/h
1419 29-09-2009 02:00:00 14.86 C 9.08 g/m*3 14.86 C 0 km/h
1420 29-09-2009 03:00:00 15.2 C 8.41 g/m*3 15.2 C 0 km/h
1421 29-09-2009 04:00:00 15.04 C 8 g/m*3 15.04 C 0 km/h
1422 29-09-2009 05:00:00 14.28 C 7.76 g/m*3 14.28 C 0 km/h
1423 29-09-2009 06:00:00 13.18 C 7.87 g/m*3 13.18 C 0 km/h
1424 29-09-2009 07:00:00 13.46 C 7.93 g/m*3 13.46 C 0 km/h
1425 29-09-2009 08:00:00 13.8 C 7.91 g/m*3 13.8 C 0 km/h
Sensor: Nr:Datum:Temp:Abs-Feuchte:Windchill:Wind:
Aussen-T/F 1426 29-09-2009 09:00:00 14.64 C 8.08 g/m*3 14.64 C 0 km/h
1427 29-09-2009 10:00:00 15.12 C 8.14 g/m*3 15.12 C 0 km/h
1428 29-09-2009 11:00:00 15.46 C 8.49 g/m*3 15.46 C 0 km/h
1429 29-09-2009 12:00:00 16.68 C 8.43 g/m*3 16.68 C 0 km/h
1430 29-09-2009 13:00:00 18.14 C 8.46 g/m*3 18.14 C 0 km/h
1431 29-09-2009 14:00:00 18.38 C 8.42 g/m*3 18.38 C 0 km/h
1432 29-09-2009 15:00:00 17.94 C 8.54 g/m*3 17.94 C 0 km/h
1433 29-09-2009 16:00:00 17.64 C 8.87 g/m*3 17.64 C 0 km/h
1434 29-09-2009 17:00:00 17.7 C 9.02 g/m*3 17.7 C 0 km/h
1435 29-09-2009 18:00:00 17.26 C 8.99 g/m*3 17.26 C 0 km/h
1436 29-09-2009 19:00:00 17.14 C 8.87 g/m*3 17.14 C 0 km/h
1437 29-09-2009 20:00:00 17.04 C 9.17 g/m*3 17.04 C 0 km/h
1438 29-09-2009 21:00:00 16.68 C 9.57 g/m*3 16.68 C 0 km/h
1439 29-09-2009 22:00:00 16.325 C 9.73 g/m*3 16.33 C 0 km/h
1440 29-09-2009 23:00:00 16.06 C 9.93 g/m*3 16.06 C 0 km/h
1441 30-09-2009 00:00:00 15.68 C 10.1 g/m*3 15.68 C 0 km/h
1442 30-09-2009 01:00:00 15.6 C 10.11 g/m*3 15.6 C 0 km/h
1443 30-09-2009 02:00:00 15.54 C 9.88 g/m*3 15.54 C 0 km/h
1444 30-09-2009 03:00:00 15.52 C 9.79 g/m*3 15.52 C 0 km/h
1445 30-09-2009 04:00:00 15.3 C 9.82 g/m*3 15.3 C 0 km/h
1446 30-09-2009 05:00:00 15.24 C 10.04 g/m*3 15.24 C 0 km/h
1447 30-09-2009 06:00:00 15.26 C 9.93 g/m*3 15.26 C 0 km/h
1448 30-09-2009 07:00:00 15.12 C 9.95 g/m*3 15.12 C 0 km/h
1449 30-09-2009 08:00:00 15.44 C 10.14 g/m*3 15.44 C 0 km/h
1450 30-09-2009 09:00:00 16.16 C 10.1 g/m*3 16.16 C 0 km/h
Sensor: Nr:Datum:Temp:Abs-Feuchte:Windchill:Wind:
Aussen-T/F 1451 30-09-2009 10:00:00 16.2 C 10.04 g/m*3 16.2 C 0 km/h
1452 30-09-2009 11:00:00 17.86 C 10.08 g/m*3 17.86 C 0 km/h
1453 30-09-2009 12:00:00 19.4 C 9.48 g/m*3 19.4 C 0 km/h
1454 30-09-2009 13:00:00 20.06 C 9.64 g/m*3 20.06 C 0 km/h
1455 30-09-2009 14:00:00 19.56 C 9.57 g/m*3 19.56 C 0 km/h
1456 30-09-2009 15:00:00 19.12 C 9.75 g/m*3 19.12 C 0 km/h
1457 30-09-2009 16:00:00 19.14 C 9.76 g/m*3 19.14 C 0 km/h
1458 30-09-2009 17:00:00 19.06 C 10.01 g/m*3 19.06 C 0 km/h
1459 30-09-2009 18:00:00 18.26 C 10.48 g/m*3 18.26 C 0 km/h
1460 30-09-2009 19:00:00 16.64 C 9.71 g/m*3 16.64 C 0 km/h
1461 30-09-2009 20:00:00 15.18 C 9.65 g/m*3 15.18 C 0 km/h
1462 30-09-2009 21:00:00 14.22 C 9.78 g/m*3 14.22 C 0 km/h
1463 30-09-2009 22:00:00 13.62 C 9.83 g/m*3 13.62 C 0 km/h
1464 30-09-2009 23:00:00 13.66 C 10.02 g/m*3 13.66 C 0 km/h
1465 01-10-2009 00:00:00 13.42 C 9.85 g/m*3 13.42 C 0 km/h
1466 01-10-2009 01:00:00 13.54 C 10.01 g/m*3 13.54 C 0 km/h
1467 01-10-2009 02:00:00 13.72 C 9.86 g/m*3 13.72 C 0 km/h
1468 01-10-2009 03:00:00 13.5 C 9.8 g/m*3 13.5 C 0 km/h
1469 01-10-2009 04:00:00 13.34 C 9.8 g/m*3 13.34 C 0 km/h
1470 01-10-2009 05:00:00 13.18 C 9.77 g/m*3 13.18 C 0 km/h
1471 01-10-2009 06:00:00 13 C 9.89 g/m*3 13 C 0 km/h
1472 01-10-2009 07:00:00 13.2 C 9.81 g/m*3 13.2 C 0 km/h
1473 01-10-2009 08:00:00 13.44 C 9.79 g/m*3 13.44 C 0 km/h
1474 01-10-2009 09:00:00 14.08 C 9.67 g/m*3 14.08 C 0 km/h
1475 01-10-2009 10:00:00 15.08 C 9.28 g/m*3 15.08 C 0 km/h
Sensor: Nr:Datum:Temp:Abs-Feuchte:Windchill:Wind:
Aussen-T/F 1476 01-10-2009 11:00:00 16.88 C 8.91 g/m*3 16.88 C 0 km/h
1477 01-10-2009 12:00:00 18.18 C 7.82 g/m*3 18.18 C 0 km/h
1478 01-10-2009 13:00:00 17.64 C 8.48 g/m*3 17.64 C 0 km/h
1479 01-10-2009 14:00:00 18.32 C 7.95 g/m*3 18.32 C 0 km/h
1480 01-10-2009 15:00:00 18.8 C 7.86 g/m*3 18.8 C 0 km/h
1481 01-10-2009 16:00:00 16.78 C 7.71 g/m*3 16.78 C 0 km/h
1482 01-10-2009 17:00:00 15.56 C 7.88 g/m*3 15.56 C 0 km/h
1483 01-10-2009 18:00:00 14.94 C 8.13 g/m*3 14.94 C 0 km/h
1484 01-10-2009 19:00:00 14.68 C 8.07 g/m*3 14.68 C 0 km/h
1485 01-10-2009 20:00:00 13.76 C 8.25 g/m*3 13.76 C 0 km/h
1486 01-10-2009 21:00:00 13.36 C 7.38 g/m*3 13.36 C 0 km/h
1487 01-10-2009 22:00:00 12.76 C 7.26 g/m*3 12.76 C 0 km/h
1488 01-10-2009 23:00:00 12.02 C 7.32 g/m*3 12.02 C 0 km/h
1489 02-10-2009 00:00:00 11.76 C 7.31 g/m*3 11.76 C 0 km/h
1490 02-10-2009 01:00:00 11.02 C 6.84 g/m*3 11.02 C 0 km/h
1491 02-10-2009 02:00:00 10.08 C 7.03 g/m*3 10.08 C 0 km/h
1492 02-10-2009 03:00:00 9.28 C 6.98 g/m*3 9.28 C 0 km/h
1493 02-10-2009 04:00:00 8.4 C 7.04 g/m*3 8.4 C 0 km/h
1494 02-10-2009 05:00:00 7.74 C 7.01 g/m*3 7.74 C 0 km/h
1495 02-10-2009 06:00:00 7.38 C 6.99 g/m*3 7.38 C 0 km/h
1496 02-10-2009 07:00:00 7.16 C 6.95 g/m*3 7.16 C 0 km/h
1497 02-10-2009 08:00:00 7.46 C 6.99 g/m*3 7.46 C 0 km/h
1498 02-10-2009 09:00:00 8.14 C 7.04 g/m*3 8.14 C 0 km/h
1499 02-10-2009 10:00:00 9.74 C 6.91 g/m*3 9.74 C 0 km/h
1500 02-10-2009 11:00:00 11.88 C 6.33 g/m*3 11.88 C 0 km/h
Sensor: Nr:Datum:Temp:Abs-Feuchte:Windchill:Wind:
Aussen-T/F 1501 02-10-2009 12:00:00 14 C 5.5 g/m*3 14 C 0 km/h
1502 02-10-2009 13:00:00 14.5 C 4.95 g/m*3 14.5 C 0 km/h
1503 02-10-2009 14:00:00 13.92 C 5.21 g/m*3 13.92 C 0 km/h
1504 02-10-2009 15:00:00 14.92 C 5.46 g/m*3 14.92 C 0 km/h
1505 02-10-2009 16:00:00 14.92 C 5.56 g/m*3 14.92 C 0 km/h
1506 02-10-2009 17:00:00 14.78 C 5.59 g/m*3 14.78 C 0 km/h
1507 02-10-2009 18:00:00 14.4 C 5.66 g/m*3 14.4 C 0 km/h
1508 02-10-2009 19:00:00 13.72 C 5.98 g/m*3 13.72 C 0 km/h
1509 02-10-2009 20:00:00 12.94 C 6.26 g/m*3 12.94 C 0 km/h
1510 02-10-2009 21:00:00 12.2 C 6.47 g/m*3 12.2 C 0 km/h
1511 02-10-2009 22:00:00 11.14 C 6.52 g/m*3 11.14 C 0 km/h
1512 02-10-2009 23:00:00 10.24 C 6.62 g/m*3 10.24 C 0 km/h
1513 03-10-2009 00:00:00 9.28 C 6.73 g/m*3 9.28 C 0 km/h
1514 03-10-2009 01:00:00 8.6 C 6.84 g/m*3 8.6 C 0 km/h
1515 03-10-2009 02:00:00 7.88 C 6.76 g/m*3 7.88 C 0 km/h
1516 03-10-2009 03:00:00 7.3 C 6.79 g/m*3 7.3 C 0 km/h
1517 03-10-2009 04:00:00 6.82 C 6.75 g/m*3 6.82 C 0 km/h
1518 03-10-2009 05:00:00 6.48 C 6.71 g/m*3 6.48 C 0 km/h
1519 03-10-2009 06:00:00 7.26 C 7.03 g/m*3 7.26 C 0 km/h
1520 03-10-2009 07:00:00 7.48 C 6.94 g/m*3 7.48 C 0 km/h
1521 03-10-2009 08:00:00 8.98 C 6.89 g/m*3 8.98 C 0 km/h
1522 03-10-2009 09:00:00 10.2 C 6.55 g/m*3 10.2 C 0 km/h
1523 03-10-2009 10:00:00 11.42 C 6.52 g/m*3 11.42 C 0 km/h
1524 03-10-2009 11:00:00 13.28 C 6.25 g/m*3 13.28 C 0 km/h
1525 03-10-2009 12:00:00 14.74 C 6.11 g/m*3 14.74 C 0 km/h
Sensor: Nr:Datum:Temp:Abs-Feuchte:Windchill:Wind:
Aussen-T/F 1526 03-10-2009 13:00:00 15.12 C 6.1 g/m*3 15.12 C 0 km/h
1527 03-10-2009 14:00:00 15.66 C 6.06 g/m*3 15.66 C 0 km/h
1528 03-10-2009 15:00:00 15.96 C 6.06 g/m*3 15.96 C 0 km/h
1529 03-10-2009 16:00:00 15.44 C 6.08 g/m*3 15.44 C 0 km/h
1530 03-10-2009 17:00:00 15.44 C 6.08 g/m*3 15.44 C 0 km/h
1531 03-10-2009 18:00:00 15.5 C 6.11 g/m*3 15.5 C 0 km/h
1532 03-10-2009 19:00:00 14.7 C 6.45 g/m*3 14.7 C 0 km/h
1533 03-10-2009 20:00:00 13.48 C 6.78 g/m*3 13.48 C 0 km/h
1534 03-10-2009 21:00:00 13.02 C 6.97 g/m*3 13.02 C 0 km/h
1535 03-10-2009 22:00:00 13.34 C 6.93 g/m*3 13.34 C 0 km/h
1536 03-10-2009 23:00:00 13.98 C 6.41 g/m*3 13.98 C 0 km/h
1537 04-10-2009 00:00:00 13.74 C 6.48 g/m*3 13.74 C 0 km/h
1538 04-10-2009 01:00:00 13.1 C 6.32 g/m*3 13.1 C 0 km/h
1539 04-10-2009 02:00:00 13.22 C 6.3 g/m*3 13.22 C 0 km/h
1540 04-10-2009 03:00:00 12.76 C 6.39 g/m*3 12.76 C 0 km/h
1541 04-10-2009 04:00:00 12.7 C 6.5 g/m*3 12.7 C 0 km/h
1542 04-10-2009 05:00:00 12.96 C 6.56 g/m*3 12.96 C 0 km/h
1543 04-10-2009 06:00:00 13.02 C 6.52 g/m*3 13.02 C 0 km/h
1544 04-10-2009 07:00:00 12.92 C 6.59 g/m*3 12.92 C 0 km/h
1545 04-10-2009 08:00:00 13.04 C 6.71 g/m*3 13.04 C 0 km/h
1546 04-10-2009 09:00:00 13.74 C 6.91 g/m*3 13.74 C 0 km/h
1547 04-10-2009 10:00:00 14.5 C 7.06 g/m*3 14.5 C 0 km/h
1548 04-10-2009 11:00:00 14.94 C 7.28 g/m*3 14.94 C 0 km/h
1549 04-10-2009 12:00:00 14.88 C 7.61 g/m*3 14.88 C 0 km/h
1550 04-10-2009 13:00:00 15.58 C 7.6 g/m*3 15.58 C 0 km/h
Sensor: Nr:Datum:Temp:Abs-Feuchte:Windchill:Wind:
Aussen-T/F 1551 04-10-2009 14:00:00 15.8 C 7.7 g/m*3 15.8 C 0 km/h
1552 04-10-2009 15:00:00 15.92 C 7.73 g/m*3 15.92 C 0 km/h
1553 04-10-2009 16:00:00 14.06 C 9.27 g/m*3 14.06 C 0 km/h
1554 04-10-2009 17:00:00 13.24 C 10.2 g/m*3 13.24 C 0 km/h
1555 04-10-2009 18:00:00 12.96 C 10.18 g/m*3 12.96 C 0 km/h
1556 04-10-2009 19:00:00 12.96 C 10.16 g/m*3 12.96 C 0 km/h
1557 04-10-2009 20:00:00 12.52 C 9.84 g/m*3 12.52 C 0 km/h
1558 04-10-2009 21:00:00 12.2 C 9.8 g/m*3 12.2 C 0 km/h
1559 04-10-2009 22:00:00 12.14 C 9.87 g/m*3 12.14 C 0 km/h
1560 04-10-2009 23:00:00 12.1 C 9.82 g/m*3 12.1 C 0 km/h
1561 05-10-2009 00:00:00 11.88 C 9.73 g/m*3 11.88 C 0 km/h
1562 05-10-2009 01:00:00 11.62 C 9.6 g/m*3 11.62 C 0 km/h
1563 05-10-2009 02:00:00 11.14 C 9.39 g/m*3 11.14 C 0 km/h
1564 05-10-2009 03:00:00 11.1 C 9.45 g/m*3 11.1 C 0 km/h
1565 05-10-2009 04:00:00 11.18 C 9.52 g/m*3 11.18 C 0 km/h
1566 05-10-2009 05:00:00 11 C 9.43 g/m*3 11 C 0 km/h
1567 05-10-2009 06:00:00 11.08 C 9.54 g/m*3 11.08 C 0 km/h
1568 05-10-2009 07:00:00 11.14 C 9.59 g/m*3 11.14 C 0 km/h
1569 05-10-2009 08:00:00 11.5 C 9.81 g/m*3 11.5 C 0 km/h
1570 05-10-2009 09:00:00 12.18 C 10.24 g/m*3 12.18 C 0 km/h
1571 05-10-2009 10:00:00 13.12 C 10.69 g/m*3 13.12 C 0 km/h
1572 05-10-2009 11:00:00 13.76 C 10.17 g/m*3 13.76 C 0 km/h
1573 05-10-2009 12:00:00 15.22 C 10.08 g/m*3 15.22 C 0 km/h
1574 05-10-2009 13:00:00 14.88 C 10.21 g/m*3 14.88 C 0 km/h
1575 05-10-2009 14:00:00 14.42 C 10.32 g/m*3 14.42 C 0 km/h
Sensor: Nr:Datum:Temp:Abs-Feuchte:Windchill:Wind:
Aussen-T/F 1576 05-10-2009 15:00:00 13.66 C 10.23 g/m*3 13.66 C 0 km/h
1577 05-10-2009 16:00:00 13.4 C 10.46 g/m*3 13.4 C 0 km/h
1578 05-10-2009 17:00:00 12.5 C 10.09 g/m*3 12.5 C 0 km/h
1579 05-10-2009 18:00:00 12.04 C 9.83 g/m*3 12.04 C 0 km/h
1580 05-10-2009 19:00:00 12 C 9.95 g/m*3 12 C 0 km/h
1581 05-10-2009 20:00:00 12.06 C 10.08 g/m*3 12.06 C 0 km/h
1582 05-10-2009 21:00:00 12.16 C 10.23 g/m*3 12.16 C 0 km/h
1583 05-10-2009 22:00:00 12.3 C 10.32 g/m*3 12.3 C 0 km/h
1584 05-10-2009 23:00:00 12.44 C 10.41 g/m*3 12.44 C 0 km/h
1585 06-10-2009 00:00:00 12.62 C 10.52 g/m*3 12.62 C 0 km/h
1586 06-10-2009 01:00:00 12.76 C 10.61 g/m*3 12.76 C 0 km/h
1587 06-10-2009 02:00:00 12.92 C 10.72 g/m*3 12.92 C 0 km/h
1588 06-10-2009 03:00:00 13.14 C 10.87 g/m*3 13.14 C 0 km/h
1589 06-10-2009 04:00:00 14.3 C 11.67 g/m*3 14.3 C 0 km/h
1590 06-10-2009 05:00:00 14.98 C 12.17 g/m*3 14.98 C 0 km/h
1591 06-10-2009 06:00:00 15.2 C 12.33 g/m*3 15.2 C 0 km/h
1592 06-10-2009 07:00:00 15.32 C 12.19 g/m*3 15.32 C 0 km/h
1593 06-10-2009 08:00:00 15.14 C 11.92 g/m*3 15.14 C 0 km/h
1594 06-10-2009 09:00:00 15.34 C 12.04 g/m*3 15.34 C 0 km/h
1595 06-10-2009 10:00:00 16.46 C 12.19 g/m*3 16.46 C 0 km/h
1596 06-10-2009 11:00:00 17.82 C 10.36 g/m*3 17.82 C 0 km/h
1597 06-10-2009 12:00:00 17.96 C 10.45 g/m*3 17.96 C 0 km/h
1598 06-10-2009 13:00:00 17.34 C 11.37 g/m*3 17.34 C 0 km/h
1599 06-10-2009 14:00:00 17.14 C 12.02 g/m*3 17.14 C 0 km/h
1600 06-10-2009 15:00:00 17.02 C 12.6 g/m*3 17.02 C 0 km/h
Sensor: Nr:Datum:Temp:Abs-Feuchte:Windchill:Wind:
Aussen-T/F 1601 06-10-2009 16:00:00 17.28 C 13.01 g/m*3 17.28 C 0 km/h
1602 06-10-2009 17:00:00 17.08 C 13 g/m*3 17.08 C 0 km/h
1603 06-10-2009 18:00:00 16.74 C 13.05 g/m*3 16.74 C 0 km/h
1604 06-10-2009 19:00:00 17.54 C 13.69 g/m*3 17.54 C 0 km/h
1605 06-10-2009 20:00:00 18.4 C 13.31 g/m*3 18.4 C 0 km/h
1606 06-10-2009 21:00:00 18.42 C 13.07 g/m*3 18.42 C 0 km/h
1607 06-10-2009 22:00:00 18.32 C 13.12 g/m*3 18.32 C 0 km/h
1608 06-10-2009 23:00:00 17.98 C 13.16 g/m*3 17.98 C 0 km/h
1609 07-10-2009 00:00:00 17.84 C 13.27 g/m*3 17.84 C 0 km/h
1610 07-10-2009 01:00:00 17.86 C 13.1 g/m*3 17.86 C 0 km/h
1611 07-10-2009 02:00:00 17.08 C 12.94 g/m*3 17.08 C 0 km/h
1612 07-10-2009 03:00:00 16.58 C 12.92 g/m*3 16.58 C 0 km/h
1613 07-10-2009 04:00:00 16.28 C 12.83 g/m*3 16.28 C 0 km/h
1614 07-10-2009 05:00:00 16.22 C 12.95 g/m*3 16.22 C 0 km/h
1615 07-10-2009 06:00:00 15.46 C 12.4 g/m*3 15.46 C 0 km/h
1616 07-10-2009 07:00:00 15.84 C 12.79 g/m*3 15.84 C 0 km/h
1617 07-10-2009 08:00:00 17.1 C 13.83 g/m*3 17.1 C 0 km/h
1618 07-10-2009 09:00:00 17.94 C 14.39 g/m*3 17.94 C 0 km/h
1619 07-10-2009 10:00:00 19.58 C 13.62 g/m*3 19.58 C 0 km/h
1620 07-10-2009 11:00:00 20.76 C 12.57 g/m*3 20.76 C 0 km/h
1621 07-10-2009 12:00:00 21.82 C 12.68 g/m*3 21.82 C 0 km/h
1622 07-10-2009 13:00:00 23.54 C 12.12 g/m*3 23.54 C 0 km/h
1623 07-10-2009 14:00:00 24.62 C 10.68 g/m*3 24.62 C 0 km/h
1624 07-10-2009 15:00:00 24.48 C 11.31 g/m*3 24.48 C 0 km/h
1625 07-10-2009 16:00:00 23.96 C 11.33 g/m*3 23.96 C 0 km/h
Sensor: Nr:Datum:Temp:Abs-Feuchte:Windchill:Wind:
Aussen-T/F 1626 07-10-2009 17:00:00 22.72 C 13.03 g/m*3 22.72 C 0 km/h
1627 07-10-2009 18:00:00 21.06 C 13.31 g/m*3 21.06 C 0 km/h
1628 07-10-2009 19:00:00 20.08 C 13.02 g/m*3 20.08 C 0 km/h
1629 07-10-2009 20:00:00 19.64 C 13.13 g/m*3 19.64 C 0 km/h
1630 07-10-2009 21:00:00 19.6 C 12.29 g/m*3 19.6 C 0 km/h
1631 07-10-2009 22:00:00 19.96 C 11.24 g/m*3 19.96 C 0 km/h
1632 07-10-2009 23:00:00 19.68 C 11.6 g/m*3 19.68 C 0 km/h
1633 08-10-2009 00:00:00 18.62 C 12.43 g/m*3 18.62 C 0 km/h
1634 08-10-2009 01:00:00 17.7 C 13.19 g/m*3 17.7 C 0 km/h
1635 08-10-2009 02:00:00 17.26 C 13.2 g/m*3 17.26 C 0 km/h
1636 08-10-2009 03:00:00 18.32 C 12.4 g/m*3 18.32 C 0 km/h
1637 08-10-2009 04:00:00 18.7 C 11.85 g/m*3 18.7 C 0 km/h
1638 08-10-2009 05:00:00 18.96 C 11.64 g/m*3 18.96 C 0 km/h
1639 08-10-2009 06:00:00 18.78 C 11.68 g/m*3 18.78 C 0 km/h
1640 08-10-2009 07:00:00 18.72 C 11.48 g/m*3 18.72 C 0 km/h
1641 08-10-2009 08:00:00 18.46 C 11.46 g/m*3 18.46 C 0 km/h
1642 08-10-2009 09:00:00 16.94 C 11.22 g/m*3 16.94 C 0 km/h
1643 08-10-2009 10:00:00 15.42 C 9.92 g/m*3 15.42 C 0 km/h
1644 08-10-2009 11:00:00 14.78 C 9.39 g/m*3 14.78 C 0 km/h
1645 08-10-2009 12:00:00 15.46 C 8.7 g/m*3 15.46 C 0 km/h
1646 08-10-2009 13:00:00 17.06 C 8.68 g/m*3 17.06 C 0 km/h
1647 08-10-2009 14:00:00 17.54 C 8.34 g/m*3 17.54 C 0 km/h
1648 08-10-2009 15:00:00 17.94 C 8.2 g/m*3 17.94 C 0 km/h
1649 08-10-2009 16:00:00 17.38 C 8.35 g/m*3 17.38 C 0 km/h
1650 08-10-2009 17:00:00 16 C 8.23 g/m*3 16 C 0 km/h
Sensor: Nr:Datum:Temp:Abs-Feuchte:Windchill:Wind:
Aussen-T/F 1651 08-10-2009 18:00:00 15.22 C 8.27 g/m*3 15.22 C 0 km/h
1652 08-10-2009 19:00:00 14.8 C 8.34 g/m*3 14.8 C 0 km/h
1653 08-10-2009 20:00:00 13.56 C 8.45 g/m*3 13.56 C 0 km/h
1654 08-10-2009 21:00:00 12.98 C 8.54 g/m*3 12.98 C 0 km/h
1655 08-10-2009 22:00:00 11.96 C 8.5 g/m*3 11.96 C 0 km/h
1656 08-10-2009 23:00:00 11.32 C 8.5 g/m*3 11.32 C 0 km/h
1657 09-10-2009 00:00:00 11 C 8.41 g/m*3 11 C 0 km/h
1658 09-10-2009 01:00:00 10.72 C 8.2 g/m*3 10.72 C 0 km/h
1659 09-10-2009 02:00:00 9.48 C 7.78 g/m*3 9.48 C 0 km/h
1660 09-10-2009 03:00:00 8.9 C 7.73 g/m*3 8.9 C 0 km/h
1661 09-10-2009 04:00:00 8.32 C 7.51 g/m*3 8.32 C 0 km/h
1662 09-10-2009 05:00:00 7.86 C 7.39 g/m*3 7.86 C 0 km/h
1663 09-10-2009 06:00:00 7.36 C 7.15 g/m*3 7.36 C 0 km/h
1664 09-10-2009 07:00:00 6.74 C 6.96 g/m*3 6.74 C 0 km/h
1665 09-10-2009 08:00:00 7.16 C 7.22 g/m*3 7.16 C 0 km/h
1666 09-10-2009 09:00:00 7.5 C 7.36 g/m*3 7.5 C 0 km/h
1667 09-10-2009 10:00:00 8.48 C 7.81 g/m*3 8.48 C 0 km/h
1668 09-10-2009 11:00:00 10.8 C 8.34 g/m*3 10.8 C 0 km/h
1669 09-10-2009 12:00:00 13.28 C 6.62 g/m*3 13.28 C 0 km/h
1670 09-10-2009 13:00:00 15.82 C 6.33 g/m*3 15.82 C 0 km/h
1671 09-10-2009 14:00:00 18.22 C 6.29 g/m*3 18.22 C 0 km/h
1672 09-10-2009 15:00:00 18.24 C 6.08 g/m*3 18.24 C 0 km/h
1673 09-10-2009 16:00:00 17.7 C 6.19 g/m*3 17.7 C 0 km/h
1674 09-10-2009 17:00:00 17.72 C 6.16 g/m*3 17.72 C 0 km/h
1675 09-10-2009 18:00:00 15.72 C 6.81 g/m*3 15.72 C 0 km/h
Sensor: Nr:Datum:Temp:Abs-Feuchte:Windchill:Wind:
Aussen-T/F 1676 09-10-2009 19:00:00 13.26 C 7.17 g/m*3 13.26 C 0 km/h
1677 09-10-2009 20:00:00 13.16 C 7.33 g/m*3 13.16 C 0 km/h
1678 09-10-2009 21:00:00 13.12 C 7.31 g/m*3 13.12 C 0 km/h
1679 09-10-2009 22:00:00 12.72 C 7.53 g/m*3 12.72 C 0 km/h
1680 09-10-2009 23:00:00 11.94 C 8.35 g/m*3 11.94 C 0 km/h
1681 10-10-2009 00:00:00 11.78 C 8.24 g/m*3 11.78 C 0 km/h
1682 10-10-2009 01:00:00 11.76 C 8.1 g/m*3 11.76 C 0 km/h
1683 10-10-2009 02:00:00 11.8 C 8.1 g/m*3 11.8 C 0 km/h
1684 10-10-2009 03:00:00 11.66 C 8.12 g/m*3 11.66 C 0 km/h
1685 10-10-2009 04:00:00 11.44 C 8.6 g/m*3 11.44 C 0 km/h
1686 10-10-2009 05:00:00 11.24 C 9.25 g/m*3 11.24 C 0 km/h
1687 10-10-2009 06:00:00 11.26 C 9.44 g/m*3 11.26 C 0 km/h
1688 10-10-2009 07:00:00 11.48 C 9.68 g/m*3 11.48 C 0 km/h
1689 10-10-2009 08:00:00 11.82 C 9.95 g/m*3 11.82 C 0 km/h
1690 10-10-2009 09:00:00 12.2 C 10.23 g/m*3 12.2 C 0 km/h
1691 10-10-2009 10:00:00 13.12 C 10.85 g/m*3 13.12 C 0 km/h
1692 10-10-2009 11:00:00 14.56 C 11.43 g/m*3 14.56 C 0 km/h
1693 10-10-2009 12:00:00 15.7 C 11.35 g/m*3 15.7 C 0 km/h
1694 10-10-2009 13:00:00 16.02 C 11.4 g/m*3 16.02 C 0 km/h
1695 10-10-2009 14:00:00 16.8 C 10.72 g/m*3 16.8 C 0 km/h
1696 10-10-2009 15:00:00 18.82 C 9.16 g/m*3 18.82 C 0 km/h
1697 10-10-2009 16:00:00 17.86 C 8.65 g/m*3 17.86 C 0 km/h
1698 10-10-2009 17:00:00 17.1 C 9 g/m*3 17.1 C 0 km/h
1699 10-10-2009 18:00:00 15.04 C 9.64 g/m*3 15.04 C 0 km/h
1700 10-10-2009 19:00:00 13.04 C 10.14 g/m*3 13.04 C 0 km/h
Sensor: Nr:Datum:Temp:Abs-Feuchte:Windchill:Wind:
Aussen-T/F 1701 10-10-2009 20:00:00 12.32 C 9.96 g/m*3 12.32 C 0 km/h
1702 10-10-2009 21:00:00 11.54 C 9.63 g/m*3 11.54 C 0 km/h
1703 10-10-2009 22:00:00 11.02 C 9.32 g/m*3 11.02 C 0 km/h
1704 10-10-2009 23:00:00 10.94 C 9.25 g/m*3 10.94 C 0 km/h
1705 11-10-2009 00:00:00 11.52 C 9.29 g/m*3 11.52 C 0 km/h
1706 11-10-2009 01:00:00 11.84 C 8.95 g/m*3 11.84 C 0 km/h
1707 11-10-2009 02:00:00 12.12 C 8.63 g/m*3 12.12 C 0 km/h
1708 11-10-2009 03:00:00 12.26 C 8.32 g/m*3 12.26 C 0 km/h
1709 11-10-2009 04:00:00 11.84 C 8.21 g/m*3 11.84 C 0 km/h
1710 11-10-2009 05:00:00 11.14 C 8.14 g/m*3 11.14 C 0 km/h
1711 11-10-2009 06:00:00 10.62 C 8.29 g/m*3 10.62 C 0 km/h
1712 11-10-2009 07:00:00 10.44 C 8.44 g/m*3 10.44 C 0 km/h
1713 11-10-2009 08:00:00 10.98 C 8.62 g/m*3 10.98 C 0 km/h
1714 11-10-2009 09:00:00 11.78 C 8.64 g/m*3 11.78 C 0 km/h
1715 11-10-2009 10:00:00 12.62 C 8.73 g/m*3 12.62 C 0 km/h
1716 11-10-2009 11:00:00 13.26 C 8.83 g/m*3 13.26 C 0 km/h
1717 11-10-2009 12:00:00 13.88 C 8.72 g/m*3 13.88 C 0 km/h
1718 11-10-2009 13:00:00 14.54 C 8.53 g/m*3 14.54 C 0 km/h
1719 11-10-2009 14:00:00 13.6 C 9.27 g/m*3 13.6 C 0 km/h
1720 11-10-2009 15:00:00 14.64 C 9.26 g/m*3 14.64 C 0 km/h
1721 11-10-2009 16:00:00 13.4 C 9.28 g/m*3 13.4 C 0 km/h
1722 11-10-2009 17:00:00 12.64 C 9.56 g/m*3 12.64 C 0 km/h
1723 11-10-2009 18:00:00 12.64 C 9.45 g/m*3 12.64 C 0 km/h
1724 11-10-2009 19:00:00 12.42 C 9.15 g/m*3 12.42 C 0 km/h
1725 11-10-2009 20:00:00 12.58 C 8.46 g/m*3 12.58 C 0 km/h
Sensor: Nr:Datum:Temp:Abs-Feuchte:Windchill:Wind:
Aussen-T/F 1726 11-10-2009 21:00:00 12.45 C 8.55 g/m*3 12.45 C 0 km/h
1727 11-10-2009 22:00:00 11.78 C 9 g/m*3 11.78 C 0 km/h
1728 11-10-2009 23:00:00 11.44 C 9.2 g/m*3 11.44 C 0 km/h
1729 12-10-2009 00:00:00 11 C 8.41 g/m*3 11 C 0 km/h
1730 12-10-2009 01:00:00 9.8 C 7.64 g/m*3 9.8 C 0 km/h
1731 12-10-2009 02:00:00 10.02 C 7.77 g/m*3 10.02 C 0 km/h
1732 12-10-2009 03:00:00 10.48 C 7.61 g/m*3 10.48 C 0 km/h
1733 12-10-2009 04:00:00 10.42 C 7.03 g/m*3 10.42 C 0 km/h
1734 12-10-2009 05:00:00 10.08 C 6.93 g/m*3 10.08 C 0 km/h
1735 12-10-2009 06:00:00 10.44 C 6.76 g/m*3 10.44 C 0 km/h
1736 12-10-2009 07:00:00 10.46 C 6.68 g/m*3 10.46 C 0 km/h
1737 12-10-2009 08:00:00 10.38 C 6.83 g/m*3 10.38 C 0 km/h
1738 12-10-2009 09:00:00 9.7 C 7.56 g/m*3 9.7 C 0 km/h
1739 12-10-2009 10:00:00 9.98 C 7.23 g/m*3 9.98 C 0 km/h
1740 12-10-2009 11:00:00 10.9 C 6.15 g/m*3 10.9 C 0 km/h
1741 12-10-2009 12:00:00 11.04 C 5.48 g/m*3 11.04 C 0 km/h
1742 12-10-2009 13:00:00 11.84 C 5.38 g/m*3 11.84 C 0 km/h
1743 12-10-2009 14:00:00 13.04 C 4.5 g/m*3 13.04 C 0 km/h
1744 12-10-2009 15:00:00 13.34 C 4.26 g/m*3 13.34 C 0 km/h
1745 12-10-2009 16:00:00 14.52 C 4.31 g/m*3 14.52 C 0 km/h
1746 12-10-2009 17:00:00 13.96 C 4.24 g/m*3 13.96 C 0 km/h
1747 12-10-2009 18:00:00 12.44 C 4.75 g/m*3 12.44 C 0 km/h
1748 12-10-2009 19:00:00 10.96 C 5.25 g/m*3 10.96 C 0 km/h
1749 12-10-2009 20:00:00 10.34 C 5.51 g/m*3 10.34 C 0 km/h
1750 12-10-2009 21:00:00 10 C 6.39 g/m*3 10 C 0 km/h
Sensor: Nr:Datum:Temp:Abs-Feuchte:Windchill:Wind:
Aussen-T/F 1751 12-10-2009 22:00:00 8.92 C 7.32 g/m*3 8.92 C 0 km/h
1752 12-10-2009 23:00:00 8.2 C 7.39 g/m*3 8.2 C 0 km/h
1753 13-10-2009 00:00:00 7.82 C 7.42 g/m*3 7.82 C 0 km/h
1754 13-10-2009 01:00:00 7.64 C 7.46 g/m*3 7.64 C 0 km/h
1755 13-10-2009 02:00:00 7.36 C 7.34 g/m*3 7.36 C 0 km/h
1756 13-10-2009 03:00:00 7.72 C 7.55 g/m*3 7.72 C 0 km/h
1757 13-10-2009 04:00:00 7.84 C 7.53 g/m*3 7.84 C 0 km/h
1758 13-10-2009 05:00:00 7.76 C 7.49 g/m*3 7.76 C 0 km/h
1759 13-10-2009 06:00:00 7.4 C 7.25 g/m*3 7.4 C 0 km/h
1760 13-10-2009 07:00:00 6.78 C 7.04 g/m*3 6.78 C 0 km/h
1761 13-10-2009 08:00:00 6.42 C 6.94 g/m*3 6.42 C 0 km/h
1762 13-10-2009 09:00:00 7.02 C 7.18 g/m*3 7.02 C 0 km/h
1763 13-10-2009 10:00:00 7.92 C 7.25 g/m*3 7.92 C 0 km/h
1764 13-10-2009 11:00:00 9.16 C 6.66 g/m*3 9.16 C 0 km/h
1765 13-10-2009 12:00:00 10.66 C 6.35 g/m*3 10.66 C 0 km/h
1766 13-10-2009 13:00:00 11.8 C 5.3 g/m*3 11.8 C 0 km/h
1767 13-10-2009 14:00:00 12.78 C 4.7 g/m*3 12.78 C 0 km/h
1768 13-10-2009 15:00:00 13.5 C 4.42 g/m*3 13.5 C 0 km/h
1769 13-10-2009 16:00:00 13.04 C 4.32 g/m*3 13.04 C 0 km/h
1770 13-10-2009 17:00:00 12.56 C 4.41 g/m*3 12.56 C 0 km/h
1771 13-10-2009 18:00:00 11.78 C 4.65 g/m*3 11.78 C 0 km/h
1772 13-10-2009 19:00:00 10.9 C 4.97 g/m*3 10.9 C 0 km/h
1773 13-10-2009 20:00:00 10.14 C 5.1 g/m*3 10.14 C 0 km/h
1774 13-10-2009 21:00:00 9.12 C 5.37 g/m*3 9.12 C 0 km/h
1775 13-10-2009 22:00:00 8.26 C 5.45 g/m*3 8.26 C 0 km/h
Sensor: Nr:Datum:Temp:Abs-Feuchte:Windchill:Wind:
Aussen-T/F 1776 13-10-2009 23:00:00 6.46 C 5.25 g/m*3 6.46 C 0 km/h
1777 14-10-2009 00:00:00 4.9 C 5.1 g/m*3 4.9 C 0 km/h
1778 14-10-2009 01:00:00 3.98 C 5 g/m*3 3.98 C 0 km/h
1779 14-10-2009 02:00:00 3.3 C 4.96 g/m*3 3.3 C 0 km/h
1780 14-10-2009 03:00:00 2.6 C 4.87 g/m*3 2.6 C 0 km/h
1781 14-10-2009 04:00:00 2.06 C 4.83 g/m*3 2.06 C 0 km/h
1782 14-10-2009 05:00:00 1.48 C 4.73 g/m*3 1.48 C 0 km/h
1783 14-10-2009 06:00:00 0.82 C 4.58 g/m*3 0.82 C 0 km/h
1784 14-10-2009 07:00:00 0.68 C 4.6 g/m*3 0.68 C 0 km/h
1785 14-10-2009 08:00:00 1.52 C 4.96 g/m*3 1.52 C 0 km/h
1786 14-10-2009 09:00:00 2.74 C 5.3 g/m*3 2.74 C 0 km/h
1787 14-10-2009 10:00:00 3.82 C 5.25 g/m*3 3.82 C 0 km/h
1788 14-10-2009 11:00:00 5.14 C 5.16 g/m*3 5.14 C 0 km/h
1789 14-10-2009 12:00:00 6.96 C 3.8 g/m*3 6.96 C 0 km/h
1790 14-10-2009 13:00:00 8.06 C 3.14 g/m*3 8.06 C 0 km/h
1791 14-10-2009 14:00:00 7.72 C 3.3 g/m*3 7.72 C 0 km/h
1792 14-10-2009 15:00:00 8.12 C 3.15 g/m*3 8.12 C 0 km/h
1793 14-10-2009 16:00:00 9.02 C 2.9 g/m*3 9.02 C 0 km/h
1794 14-10-2009 17:00:00 8.08 C 2.96 g/m*3 8.08 C 0 km/h
1795 14-10-2009 18:00:00 7.56 C 3.21 g/m*3 7.56 C 0 km/h
1796 14-10-2009 19:00:00 5.24 C 3.59 g/m*3 5.24 C 0 km/h
1797 14-10-2009 20:00:00 3.9 C 3.73 g/m*3 3.9 C 0 km/h
1798 14-10-2009 21:00:00 2.36 C 3.88 g/m*3 2.36 C 0 km/h
1799 14-10-2009 22:00:00 1.6 C 4.01 g/m*3 1.6 C 0 km/h
1800 14-10-2009 23:00:00 0.9 C 4.05 g/m*3 0.9 C 0 km/h
Sensor: Nr:Datum:Temp:Abs-Feuchte:Windchill:Wind:
Aussen-T/F 1801 15-10-2009 00:00:00 0.32 C 4.03 g/m*3 0.32 C 0 km/h
1802 15-10-2009 01:00:00 -0.18 C 4.04 g/m*3 -0.18 C 0 km/h
1803 15-10-2009 02:00:00 -0.64 C 4.02 g/m*3 -0.64 C 0 km/h
1804 15-10-2009 03:00:00 -1.1 C 3.95 g/m*3 -1.1 C 0 km/h
1805 15-10-2009 04:00:00 -1.36 C 3.91 g/m*3 -1.36 C 0 km/h
1806 15-10-2009 05:00:00 -1.7 C 3.87 g/m*3 -1.7 C 0 km/h
1807 15-10-2009 06:00:00 -1.9 C 3.85 g/m*3 -1.9 C 0 km/h
1808 15-10-2009 07:00:00 -1.74 C 3.96 g/m*3 -1.74 C 0 km/h
1809 15-10-2009 08:00:00 -0.14 C 4.52 g/m*3 -0.14 C 0 km/h
1810 15-10-2009 09:00:00 0.86 C 4.8 g/m*3 0.86 C 0 km/h
1811 15-10-2009 10:00:00 2.02 C 4.86 g/m*3 2.02 C 0 km/h
1812 15-10-2009 11:00:00 3.5 C 4.73 g/m*3 3.5 C 0 km/h
1813 15-10-2009 12:00:00 4.92 C 4.41 g/m*3 4.92 C 0 km/h
1814 15-10-2009 13:00:00 6.48 C 3.6 g/m*3 6.48 C 0 km/h
1815 15-10-2009 14:00:00 7.92 C 3.36 g/m*3 7.92 C 0 km/h
1816 15-10-2009 15:00:00 9.22 C 3.27 g/m*3 9.22 C 0 km/h
1817 15-10-2009 16:00:00 10.22 C 3.03 g/m*3 10.22 C 0 km/h
1818 15-10-2009 17:00:00 10.44 C 2.92 g/m*3 10.44 C 0 km/h
1819 15-10-2009 18:00:00 8.84 C 2.98 g/m*3 8.84 C 0 km/h
1820 15-10-2009 19:00:00 6.32 C 3.32 g/m*3 6.32 C 0 km/h
1821 15-10-2009 20:00:00 5.2 C 3.66 g/m*3 5.2 C 0 km/h
1822 15-10-2009 21:00:00 4.88 C 4.25 g/m*3 4.88 C 0 km/h
1823 15-10-2009 22:00:00 5.08 C 4.56 g/m*3 5.08 C 0 km/h
1824 15-10-2009 23:00:00 5.48 C 4.71 g/m*3 5.48 C 0 km/h
1825 16-10-2009 00:00:00 4.48 C 4.53 g/m*3 4.48 C 0 km/h
Sensor: Nr:Datum:Temp:Abs-Feuchte:Windchill:Wind:
Aussen-T/F 1826 16-10-2009 01:00:00 3.44 C 4.63 g/m*3 3.44 C 0 km/h
1827 16-10-2009 02:00:00 2.66 C 4.73 g/m*3 2.66 C 0 km/h
1828 16-10-2009 03:00:00 1.98 C 4.81 g/m*3 1.98 C 0 km/h
1829 16-10-2009 04:00:00 2.48 C 5.04 g/m*3 2.48 C 0 km/h
1830 16-10-2009 05:00:00 2.62 C 4.97 g/m*3 2.62 C 0 km/h
1831 16-10-2009 06:00:00 2.82 C 4.9 g/m*3 2.82 C 0 km/h
1832 16-10-2009 07:00:00 3.04 C 4.98 g/m*3 3.04 C 0 km/h
1833 16-10-2009 08:00:00 3.74 C 5.31 g/m*3 3.74 C 0 km/h
1834 16-10-2009 09:00:00 4.62 C 5.7 g/m*3 4.62 C 0 km/h
1835 16-10-2009 10:00:00 5.38 C 6.3 g/m*3 5.38 C 0 km/h
1836 16-10-2009 11:00:00 5.9 C 6.73 g/m*3 5.9 C 0 km/h
1837 16-10-2009 12:00:00 7.02 C 7.37 g/m*3 7.02 C 0 km/h
1838 16-10-2009 13:00:00 10 C 8.34 g/m*3 10 C 0 km/h
1839 16-10-2009 14:00:00 11.24 C 6.54 g/m*3 11.24 C 0 km/h
1840 16-10-2009 15:00:00 11.1 C 5.72 g/m*3 11.1 C 0 km/h
1841 16-10-2009 16:00:00 11.64 C 5.21 g/m*3 11.64 C 0 km/h
1842 16-10-2009 17:00:00 10.5 C 5.72 g/m*3 10.5 C 0 km/h
1843 16-10-2009 18:00:00 8.18 C 6.59 g/m*3 8.18 C 0 km/h
1844 16-10-2009 19:00:00 8.02 C 6.51 g/m*3 8.02 C 0 km/h
1845 16-10-2009 20:00:00 8.62 C 5.85 g/m*3 8.62 C 0 km/h
1846 16-10-2009 21:00:00 8.24 C 5.99 g/m*3 8.24 C 0 km/h
1847 16-10-2009 22:00:00 8.06 C 6.22 g/m*3 8.06 C 0 km/h
1848 16-10-2009 23:00:00 8.08 C 6.18 g/m*3 8.08 C 0 km/h
1849 17-10-2009 00:00:00 7.98 C 6.49 g/m*3 7.98 C 0 km/h
1850 17-10-2009 01:00:00 8.08 C 6.43 g/m*3 8.08 C 0 km/h
Sensor: Nr:Datum:Temp:Abs-Feuchte:Windchill:Wind:
Aussen-T/F 1851 17-10-2009 02:00:00 8.14 C 6.39 g/m*3 8.14 C 0 km/h
1852 17-10-2009 03:00:00 8.2 C 6.21 g/m*3 8.2 C 0 km/h
1853 17-10-2009 04:00:00 8.1 C 6.07 g/m*3 8.1 C 0 km/h
1854 17-10-2009 05:00:00 8.14 C 5.87 g/m*3 8.14 C 0 km/h
1855 17-10-2009 06:00:00 7.42 C 5.83 g/m*3 7.42 C 0 km/h
1856 17-10-2009 07:00:00 6.68 C 6.03 g/m*3 6.68 C 0 km/h
1857 17-10-2009 08:00:00 6.46 C 6.16 g/m*3 6.46 C 0 km/h
1858 17-10-2009 09:00:00 6.76 C 6.29 g/m*3 6.76 C 0 km/h
1859 17-10-2009 10:00:00 7.9 C 6.21 g/m*3 7.9 C 0 km/h
1860 17-10-2009 11:00:00 9.22 C 5.79 g/m*3 9.22 C 0 km/h
1861 17-10-2009 12:00:00 9.96 C 5.02 g/m*3 9.96 C 0 km/h
1862 17-10-2009 13:00:00 10.4 C 4.51 g/m*3 10.4 C 0 km/h
1863 17-10-2009 14:00:00 10.48 C 4.48 g/m*3 10.48 C 0 km/h
1864 17-10-2009 15:00:00 10.32 C 4.89 g/m*3 10.32 C 0 km/h
1865 17-10-2009 16:00:00 10.5 C 4.71 g/m*3 10.5 C 0 km/h
1866 17-10-2009 17:00:00 10.04 C 4.86 g/m*3 10.04 C 0 km/h
1867 17-10-2009 18:00:00 9.4 C 4.92 g/m*3 9.4 C 0 km/h
1868 17-10-2009 19:00:00 8.66 C 4.99 g/m*3 8.66 C 0 km/h
1869 17-10-2009 20:00:00 8.16 C 5.16 g/m*3 8.16 C 0 km/h
1870 17-10-2009 21:00:00 8.04 C 5.35 g/m*3 8.04 C 0 km/h
1871 17-10-2009 22:00:00 7.94 C 5.5 g/m*3 7.94 C 0 km/h
1872 17-10-2009 23:00:00 7.52 C 5.53 g/m*3 7.52 C 0 km/h
1873 18-10-2009 00:00:00 6.48 C 5.54 g/m*3 6.48 C 0 km/h
1874 18-10-2009 01:00:00 5.24 C 5.58 g/m*3 5.24 C 0 km/h
1875 18-10-2009 02:00:00 5.82 C 5.84 g/m*3 5.82 C 0 km/h
Sensor: Nr:Datum:Temp:Abs-Feuchte:Windchill:Wind:
Aussen-T/F 1876 18-10-2009 03:00:00 5.72 C 5.71 g/m*3 5.72 C 0 km/h
1877 18-10-2009 04:00:00 5.52 C 5.75 g/m*3 5.52 C 0 km/h
1878 18-10-2009 05:00:00 5.6 C 5.8 g/m*3 5.6 C 0 km/h
1879 18-10-2009 06:00:00 5.32 C 5.77 g/m*3 5.32 C 0 km/h
1880 18-10-2009 07:00:00 4.4 C 5.82 g/m*3 4.4 C 0 km/h
1881 18-10-2009 08:00:00 5.08 C 6.2 g/m*3 5.08 C 0 km/h
1882 18-10-2009 09:00:00 5.86 C 6.4 g/m*3 5.86 C 0 km/h
1883 18-10-2009 10:00:00 7.12 C 6.33 g/m*3 7.12 C 0 km/h
1884 18-10-2009 11:00:00 7.58 C 5.68 g/m*3 7.58 C 0 km/h
1885 18-10-2009 12:00:00 8.98 C 5.49 g/m*3 8.98 C 0 km/h
1886 18-10-2009 13:00:00 10.28 C 4.5 g/m*3 10.28 C 0 km/h
1887 18-10-2009 14:00:00 11.62 C 4.08 g/m*3 11.62 C 0 km/h
1888 18-10-2009 15:00:00 12.12 C 3.93 g/m*3 12.12 C 0 km/h
1889 18-10-2009 16:00:00 13.52 C 3.7 g/m*3 13.52 C 0 km/h
1890 18-10-2009 17:00:00 13.54 C 3.92 g/m*3 13.54 C 0 km/h
1891 18-10-2009 18:00:00 10.1 C 4.41 g/m*3 10.1 C 0 km/h
1892 18-10-2009 19:00:00 7.52 C 4.58 g/m*3 7.52 C 0 km/h
1893 18-10-2009 20:00:00 6.26 C 4.74 g/m*3 6.26 C 0 km/h
1894 18-10-2009 21:00:00 5.14 C 4.87 g/m*3 5.14 C 0 km/h
1895 18-10-2009 22:00:00 4.56 C 4.95 g/m*3 4.56 C 0 km/h
1896 18-10-2009 23:00:00 3.68 C 4.92 g/m*3 3.68 C 0 km/h
1897 19-10-2009 00:00:00 2.9 C 4.87 g/m*3 2.9 C 0 km/h
1898 19-10-2009 01:00:00 2.36 C 4.77 g/m*3 2.36 C 0 km/h
1899 19-10-2009 02:00:00 1.68 C 4.68 g/m*3 1.68 C 0 km/h
1900 19-10-2009 03:00:00 1.12 C 4.56 g/m*3 1.12 C 0 km/h
Sensor: Nr:Datum:Temp:Abs-Feuchte:Windchill:Wind:
Aussen-T/F 1901 19-10-2009 04:00:00 0.58 C 4.46 g/m*3 0.58 C 0 km/h
1902 19-10-2009 05:00:00 0.16 C 4.38 g/m*3 0.16 C 0 km/h
1903 19-10-2009 06:00:00 0.08 C 4.4 g/m*3 0.08 C 0 km/h
1904 19-10-2009 07:00:00 0.28 C 4.49 g/m*3 0.28 C 0 km/h
1905 19-10-2009 08:00:00 0.36 C 4.45 g/m*3 0.36 C 0 km/h
1906 19-10-2009 09:00:00 0.58 C 4.47 g/m*3 0.58 C 0 km/h
1907 19-10-2009 10:00:00 1.18 C 4.55 g/m*3 1.18 C 0 km/h
1908 19-10-2009 11:00:00 3.24 C 4.85 g/m*3 3.24 C 0 km/h
1909 19-10-2009 12:00:00 5 C 5.16 g/m*3 5 C 0 km/h
1910 19-10-2009 13:00:00 8.86 C 5.35 g/m*3 8.86 C 0 km/h
1911 19-10-2009 14:00:00 12.96 C 4.77 g/m*3 12.96 C 0 km/h
1912 19-10-2009 15:00:00 13.76 C 3.68 g/m*3 13.76 C 0 km/h
1913 19-10-2009 16:00:00 14.8 C 3.14 g/m*3 14.8 C 0 km/h
1914 19-10-2009 17:00:00 12.6 C 3.56 g/m*3 12.6 C 0 km/h
1915 19-10-2009 18:00:00 7.44 C 3.94 g/m*3 7.44 C 0 km/h
1916 19-10-2009 19:00:00 5.44 C 4.07 g/m*3 5.44 C 0 km/h
1917 19-10-2009 20:00:00 4.64 C 4.3 g/m*3 4.64 C 0 km/h
1918 19-10-2009 21:00:00 3.96 C 4.45 g/m*3 3.96 C 0 km/h
1919 19-10-2009 22:00:00 3.38 C 4.57 g/m*3 3.38 C 0 km/h
1920 19-10-2009 23:00:00 2.8 C 4.67 g/m*3 2.8 C 0 km/h
1921 20-10-2009 00:00:00 2.36 C 4.69 g/m*3 2.36 C 0 km/h
1922 20-10-2009 01:00:00 1.86 C 4.65 g/m*3 1.86 C 0 km/h
1923 20-10-2009 02:00:00 1.4 C 4.59 g/m*3 1.4 C 0 km/h
1924 20-10-2009 03:00:00 0.86 C 4.48 g/m*3 0.86 C 0 km/h
1925 20-10-2009 04:00:00 0.4 C 4.38 g/m*3 0.4 C 0 km/h
Sensor: Nr:Datum:Temp:Abs-Feuchte:Windchill:Wind:
Aussen-T/F 1926 20-10-2009 05:00:00 0.08 C 4.33 g/m*3 0.08 C 0 km/h
1927 20-10-2009 06:00:00 -0.26 C 4.29 g/m*3 -0.26 C 0 km/h
1928 20-10-2009 07:00:00 -0.42 C 4.31 g/m*3 -0.42 C 0 km/h
1929 20-10-2009 08:00:00 -0.14 C 4.45 g/m*3 -0.14 C 0 km/h
1930 20-10-2009 09:00:00 0.54 C 4.71 g/m*3 0.54 C 0 km/h
1931 20-10-2009 10:00:00 2.56 C 4.95 g/m*3 2.56 C 0 km/h
1932 20-10-2009 11:00:00 5.82 C 4.43 g/m*3 5.82 C 0 km/h
1933 20-10-2009 12:00:00 7.94 C 4.4 g/m*3 7.94 C 0 km/h
1934 20-10-2009 13:00:00 10.24 C 4.29 g/m*3 10.24 C 0 km/h
1935 20-10-2009 14:00:00 12.22 C 4.26 g/m*3 12.22 C 0 km/h
1936 20-10-2009 15:00:00 13.34 C 4.08 g/m*3 13.34 C 0 km/h
1937 20-10-2009 16:00:00 13.44 C 4.06 g/m*3 13.44 C 0 km/h
1938 20-10-2009 17:00:00 10.94 C 4.39 g/m*3 10.94 C 0 km/h
1939 20-10-2009 18:00:00 9.42 C 4.69 g/m*3 9.42 C 0 km/h
1940 20-10-2009 19:00:00 8.32 C 4.93 g/m*3 8.32 C 0 km/h
1941 20-10-2009 20:00:00 7.26 C 5.03 g/m*3 7.26 C 0 km/h
1942 20-10-2009 21:00:00 6.06 C 5.17 g/m*3 6.06 C 0 km/h
1943 20-10-2009 22:00:00 5.3 C 5.23 g/m*3 5.3 C 0 km/h
1944 20-10-2009 23:00:00 4.56 C 5.16 g/m*3 4.56 C 0 km/h
1945 21-10-2009 00:00:00 4.08 C 5.14 g/m*3 4.08 C 0 km/h
1946 21-10-2009 01:00:00 3.86 C 5.16 g/m*3 3.86 C 0 km/h
1947 21-10-2009 02:00:00 3.98 C 5.14 g/m*3 3.98 C 0 km/h
1948 21-10-2009 03:00:00 4.32 C 5.07 g/m*3 4.32 C 0 km/h
1949 21-10-2009 04:00:00 4.34 C 5.02 g/m*3 4.34 C 0 km/h
1950 21-10-2009 05:00:00 4.58 C 4.94 g/m*3 4.58 C 0 km/h
Sensor: Nr:Datum:Temp:Abs-Feuchte:Windchill:Wind:
Aussen-T/F 1951 21-10-2009 06:00:00 4.58 C 4.94 g/m*3 4.58 C 0 km/h
1952 21-10-2009 07:00:00 4.72 C 4.94 g/m*3 4.72 C 0 km/h
1953 21-10-2009 08:00:00 5.14 C 4.95 g/m*3 5.14 C 0 km/h
1954 21-10-2009 09:00:00 5.92 C 4.81 g/m*3 5.92 C 0 km/h
1955 21-10-2009 10:00:00 7.18 C 4.7 g/m*3 7.18 C 0 km/h
1956 21-10-2009 11:00:00 8.84 C 4.71 g/m*3 8.84 C 0 km/h
1957 21-10-2009 12:00:00 9.98 C 4.75 g/m*3 9.98 C 0 km/h
1958 21-10-2009 13:00:00 11.68 C 4.74 g/m*3 11.68 C 0 km/h
1959 21-10-2009 14:00:00 13.5 C 4.73 g/m*3 13.5 C 0 km/h
1960 21-10-2009 15:00:00 13.62 C 4.71 g/m*3 13.62 C 0 km/h
1961 21-10-2009 16:00:00 14.72 C 4.87 g/m*3 14.72 C 0 km/h
1962 21-10-2009 17:00:00 13.82 C 4.68 g/m*3 13.82 C 0 km/h
1963 21-10-2009 18:00:00 11 C 4.58 g/m*3 11 C 0 km/h
1964 21-10-2009 19:00:00 9.46 C 4.7 g/m*3 9.46 C 0 km/h
1965 21-10-2009 20:00:00 8.5 C 4.99 g/m*3 8.5 C 0 km/h
1966 21-10-2009 21:00:00 8.2 C 5.01 g/m*3 8.2 C 0 km/h
1967 21-10-2009 22:00:00 8.66 C 4.87 g/m*3 8.66 C 0 km/h
1968 21-10-2009 23:00:00 9.08 C 4.41 g/m*3 9.08 C 0 km/h
1969 22-10-2009 00:00:00 8.94 C 4.51 g/m*3 8.94 C 0 km/h
1970 22-10-2009 01:00:00 8.56 C 4.71 g/m*3 8.56 C 0 km/h
1971 22-10-2009 02:00:00 8.06 C 4.91 g/m*3 8.06 C 0 km/h
1972 22-10-2009 03:00:00 7.88 C 5.07 g/m*3 7.88 C 0 km/h
1973 22-10-2009 04:00:00 7.48 C 5.15 g/m*3 7.48 C 0 km/h
1974 22-10-2009 05:00:00 6.98 C 5.59 g/m*3 6.98 C 0 km/h
1975 22-10-2009 06:00:00 6.86 C 5.87 g/m*3 6.86 C 0 km/h
Sensor: Nr:Datum:Temp:Abs-Feuchte:Windchill:Wind:
Aussen-T/F 1976 22-10-2009 07:00:00 6.96 C 5.66 g/m*3 6.96 C 0 km/h
1977 22-10-2009 08:00:00 7.14 C 5.58 g/m*3 7.14 C 0 km/h
1978 22-10-2009 09:00:00 8.38 C 5.73 g/m*3 8.38 C 0 km/h
1979 22-10-2009 10:00:00 9.56 C 5.43 g/m*3 9.56 C 0 km/h
1980 22-10-2009 11:00:00 10.24 C 5.51 g/m*3 10.24 C 0 km/h
1981 22-10-2009 12:00:00 10.88 C 5.66 g/m*3 10.88 C 0 km/h
1982 22-10-2009 13:00:00 11.82 C 5.73 g/m*3 11.82 C 0 km/h
1983 22-10-2009 14:00:00 12.34 C 5.79 g/m*3 12.34 C 0 km/h
1984 22-10-2009 15:00:00 12.78 C 6.11 g/m*3 12.78 C 0 km/h
1985 22-10-2009 16:00:00 12.42 C 6.63 g/m*3 12.42 C 0 km/h
1986 22-10-2009 17:00:00 11.92 C 6.98 g/m*3 11.92 C 0 km/h
1987 22-10-2009 18:00:00 11.54 C 6.92 g/m*3 11.54 C 0 km/h
1988 22-10-2009 19:00:00 11.04 C 6.84 g/m*3 11.04 C 0 km/h
1989 22-10-2009 20:00:00 10.58 C 7 g/m*3 10.58 C 0 km/h
1990 22-10-2009 21:00:00 8.82 C 6.78 g/m*3 8.82 C 0 km/h
1991 22-10-2009 22:00:00 7.58 C 6.71 g/m*3 7.58 C 0 km/h
1992 22-10-2009 23:00:00 6.84 C 6.58 g/m*3 6.84 C 0 km/h
1993 23-10-2009 00:00:00 5.98 C 6.34 g/m*3 5.98 C 0 km/h
1994 23-10-2009 01:00:00 5.3 C 6.17 g/m*3 5.3 C 0 km/h
1995 23-10-2009 02:00:00 4.6 C 5.96 g/m*3 4.6 C 0 km/h
1996 23-10-2009 03:00:00 4.32 C 5.91 g/m*3 4.32 C 0 km/h
1997 23-10-2009 04:00:00 4.68 C 6.2 g/m*3 4.68 C 0 km/h
1998 23-10-2009 05:00:00 4.64 C 6.24 g/m*3 4.64 C 0 km/h
1999 23-10-2009 06:00:00 4.78 C 6.25 g/m*3 4.78 C 0 km/h
2000 23-10-2009 07:00:00 4.8 C 6.17 g/m*3 4.8 C 0 km/h
Sensor: Nr:Datum:Temp:Abs-Feuchte:Windchill:Wind:
Aussen-T/F 2001 23-10-2009 08:00:00 5.2 C 6.25 g/m*3 5.2 C 0 km/h
2002 23-10-2009 09:00:00 5.98 C 6.44 g/m*3 5.98 C 0 km/h
2003 23-10-2009 10:00:00 6.86 C 6.51 g/m*3 6.86 C 0 km/h
2004 23-10-2009 11:00:00 7.66 C 6.41 g/m*3 7.66 C 0 km/h
2005 23-10-2009 12:00:00 8.98 C 6.73 g/m*3 8.98 C 0 km/h
2006 23-10-2009 13:00:00 10.62 C 6.7 g/m*3 10.62 C 0 km/h
2007 23-10-2009 14:00:00 12.5 C 6.97 g/m*3 12.5 C 0 km/h
2008 23-10-2009 15:00:00 13.72 C 7.16 g/m*3 13.72 C 0 km/h
2009 23-10-2009 16:00:00 14.42 C 7.4 g/m*3 14.42 C 0 km/h
2010 23-10-2009 17:00:00 12.5 C 7.92 g/m*3 12.5 C 0 km/h
2011 23-10-2009 18:00:00 11 C 8.45 g/m*3 11 C 0 km/h
2012 23-10-2009 19:00:00 10.56 C 8.55 g/m*3 10.56 C 0 km/h
2013 23-10-2009 20:00:00 10.38 C 8.47 g/m*3 10.38 C 0 km/h
2014 23-10-2009 21:00:00 10.36 C 8.4 g/m*3 10.36 C 0 km/h
2015 23-10-2009 22:00:00 10.36 C 8.34 g/m*3 10.36 C 0 km/h
2016 23-10-2009 23:00:00 9.96 C 8.06 g/m*3 9.96 C 0 km/h
2017 24-10-2009 00:00:00 8.92 C 7.86 g/m*3 8.92 C 0 km/h
2018 24-10-2009 01:00:00 10.06 C 8.45 g/m*3 10.06 C 0 km/h
2019 24-10-2009 02:00:00 8.84 C 7.68 g/m*3 8.84 C 0 km/h
2020 24-10-2009 03:00:00 7.58 C 7.32 g/m*3 7.58 C 0 km/h
2021 24-10-2009 04:00:00 7.12 C 7.23 g/m*3 7.12 C 0 km/h
2022 24-10-2009 05:00:00 6.34 C 6.92 g/m*3 6.34 C 0 km/h
2023 24-10-2009 06:00:00 6.16 C 6.91 g/m*3 6.16 C 0 km/h
2024 24-10-2009 07:00:00 5.8 C 6.81 g/m*3 5.8 C 0 km/h
2025 24-10-2009 08:00:00 6.64 C 7.19 g/m*3 6.64 C 0 km/h
Sensor: Nr:Datum:Temp:Abs-Feuchte:Windchill:Wind:
Aussen-T/F 2026 24-10-2009 09:00:00 7.22 C 7.47 g/m*3 7.22 C 0 km/h
2027 24-10-2009 10:00:00 9.1 C 8.43 g/m*3 9.1 C 0 km/h
2028 24-10-2009 11:00:00 11.28 C 9.37 g/m*3 11.28 C 0 km/h
2029 24-10-2009 12:00:00 13.58 C 7.99 g/m*3 13.58 C 0 km/h
2030 24-10-2009 13:00:00 14.62 C 7.17 g/m*3 14.62 C 0 km/h
2031 24-10-2009 14:00:00 14.42 C 7.23 g/m*3 14.42 C 0 km/h
2032 24-10-2009 15:00:00 14.16 C 7.5 g/m*3 14.16 C 0 km/h
2033 24-10-2009 16:00:00 14.26 C 7.48 g/m*3 14.26 C 0 km/h
2034 24-10-2009 17:00:00 13.34 C 7.57 g/m*3 13.34 C 0 km/h
2035 24-10-2009 18:00:00 12.74 C 7.63 g/m*3 12.74 C 0 km/h
2036 24-10-2009 19:00:00 12.46 C 7.76 g/m*3 12.46 C 0 km/h
2037 24-10-2009 20:00:00 12.38 C 7.79 g/m*3 12.38 C 0 km/h
2038 24-10-2009 21:00:00 12.16 C 7.88 g/m*3 12.16 C 0 km/h
2039 24-10-2009 22:00:00 11.6 C 8.44 g/m*3 11.6 C 0 km/h
2040 24-10-2009 23:00:00 11.65 C 8.99 g/m*3 11.65 C 0 km/h
2041 25-10-2009 00:00:00 11.8 C 9.16 g/m*3 11.8 C 0 km/h
2042 25-10-2009 01:00:00 12 C 9.23 g/m*3 12 C 0 km/h
2043 25-10-2009 02:00:00 11.78 C 9.36 g/m*3 11.78 C 0 km/h
2044 25-10-2009 03:00:00 11.8 C 9.51 g/m*3 11.8 C 0 km/h
2045 25-10-2009 04:00:00 11.84 C 9.77 g/m*3 11.84 C 0 km/h
2046 25-10-2009 05:00:00 12.62 C 10.41 g/m*3 12.62 C 0 km/h
2047 25-10-2009 06:00:00 12.34 C 10.12 g/m*3 12.34 C 0 km/h
2048 25-10-2009 07:00:00 11.48 C 9.49 g/m*3 11.48 C 0 km/h
2049 25-10-2009 08:00:00 10.62 C 8.89 g/m*3 10.62 C 0 km/h
2050 25-10-2009 09:00:00 11.12 C 8.77 g/m*3 11.12 C 0 km/h
Sensor: Nr:Datum:Temp:Abs-Feuchte:Windchill:Wind:
Aussen-T/F 2051 25-10-2009 10:00:00 12.66 C 8.31 g/m*3 12.66 C 0 km/h
2052 25-10-2009 11:00:00 13.92 C 7.95 g/m*3 13.92 C 0 km/h
2053 25-10-2009 12:00:00 15.6 C 7.39 g/m*3 15.6 C 0 km/h
2054 25-10-2009 13:00:00 16.24 C 6.77 g/m*3 16.24 C 0 km/h
2055 25-10-2009 14:00:00 17.24 C 6.61 g/m*3 17.24 C 0 km/h
2056 25-10-2009 15:00:00 17.32 C 6.52 g/m*3 17.32 C 0 km/h
2057 25-10-2009 16:00:00 15.68 C 6.74 g/m*3 15.68 C 0 km/h
2058 25-10-2009 17:00:00 13.82 C 7.11 g/m*3 13.82 C 0 km/h
2059 25-10-2009 18:00:00 12.64 C 7.25 g/m*3 12.64 C 0 km/h
2060 25-10-2009 19:00:00 11.5 C 7.35 g/m*3 11.5 C 0 km/h
2061 25-10-2009 20:00:00 10.68 C 7.38 g/m*3 10.68 C 0 km/h
2062 25-10-2009 21:00:00 9.94 C 7.38 g/m*3 9.94 C 0 km/h
2063 25-10-2009 22:00:00 9.12 C 7.32 g/m*3 9.12 C 0 km/h
2064 25-10-2009 23:00:00 9.64 C 7.62 g/m*3 9.64 C 0 km/h
2065 26-10-2009 00:00:00 9.72 C 7.75 g/m*3 9.72 C 0 km/h
2066 26-10-2009 01:00:00 9.36 C 7.7 g/m*3 9.36 C 0 km/h
2067 26-10-2009 02:00:00 9.3 C 7.67 g/m*3 9.3 C 0 km/h
2068 26-10-2009 03:00:00 10.02 C 7.68 g/m*3 10.02 C 0 km/h
2069 26-10-2009 04:00:00 10.3 C 7.58 g/m*3 10.3 C 0 km/h
2070 26-10-2009 05:00:00 10.68 C 7.4 g/m*3 10.68 C 0 km/h
2071 26-10-2009 06:00:00 10.2 C 7.46 g/m*3 10.2 C 0 km/h
2072 26-10-2009 07:00:00 10.34 C 7.41 g/m*3 10.34 C 0 km/h
2073 26-10-2009 08:00:00 10.84 C 7.41 g/m*3 10.84 C 0 km/h
2074 26-10-2009 09:00:00 11.24 C 7.46 g/m*3 11.24 C 0 km/h
2075 26-10-2009 10:00:00 11.8 C 7.49 g/m*3 11.8 C 0 km/h
Sensor: Nr:Datum:Temp:Abs-Feuchte:Windchill:Wind:
Aussen-T/F 2076 26-10-2009 11:00:00 13.46 C 7.21 g/m*3 13.46 C 0 km/h
2077 26-10-2009 12:00:00 14.34 C 7 g/m*3 14.34 C 0 km/h
2078 26-10-2009 13:00:00 14.08 C 7.01 g/m*3 14.08 C 0 km/h
2079 26-10-2009 14:00:00 14.02 C 6.93 g/m*3 14.02 C 0 km/h
2080 26-10-2009 15:00:00 13.74 C 7.1 g/m*3 13.74 C 0 km/h
2081 26-10-2009 16:00:00 13.5 C 7.16 g/m*3 13.5 C 0 km/h
2082 26-10-2009 17:00:00 13.18 C 7.25 g/m*3 13.18 C 0 km/h
2083 26-10-2009 18:00:00 13.02 C 7.52 g/m*3 13.02 C 0 km/h
2084 26-10-2009 19:00:00 12.74 C 7.77 g/m*3 12.74 C 0 km/h
2085 26-10-2009 20:00:00 12.5 C 7.96 g/m*3 12.5 C 0 km/h
2086 26-10-2009 21:00:00 12.4 C 8 g/m*3 12.4 C 0 km/h
2087 26-10-2009 22:00:00 12.3 C 8.04 g/m*3 12.3 C 0 km/h
2088 26-10-2009 23:00:00 12.22 C 8.02 g/m*3 12.22 C 0 km/h
2089 27-10-2009 00:00:00 12.2 C 7.99 g/m*3 12.2 C 0 km/h
2090 27-10-2009 01:00:00 11.72 C 8.36 g/m*3 11.72 C 0 km/h
2091 27-10-2009 02:00:00 11.7 C 8.22 g/m*3 11.7 C 0 km/h
2092 27-10-2009 03:00:00 11.4 C 8.27 g/m*3 11.4 C 0 km/h
2093 27-10-2009 04:00:00 11.34 C 8.39 g/m*3 11.34 C 0 km/h
2094 27-10-2009 05:00:00 11.2 C 8.27 g/m*3 11.2 C 0 km/h
2095 27-10-2009 06:00:00 11.2 C 8.13 g/m*3 11.2 C 0 km/h
2096 27-10-2009 07:00:00 11.06 C 8.12 g/m*3 11.06 C 0 km/h
2097 27-10-2009 08:00:00 11.22 C 8.22 g/m*3 11.22 C 0 km/h
2098 27-10-2009 09:00:00 11.94 C 8.28 g/m*3 11.94 C 0 km/h
2099 27-10-2009 10:00:00 12.88 C 8.1 g/m*3 12.88 C 0 km/h
2100 27-10-2009 11:00:00 13.92 C 7.68 g/m*3 13.92 C 0 km/h
Sensor: Nr:Datum:Temp:Abs-Feuchte:Windchill:Wind:
Aussen-T/F 2101 27-10-2009 12:00:00 14.94 C 7.28 g/m*3 14.94 C 0 km/h
2102 27-10-2009 13:00:00 15.58 C 7.33 g/m*3 15.58 C 0 km/h
2103 27-10-2009 14:00:00 15.74 C 7.11 g/m*3 15.74 C 0 km/h
2104 27-10-2009 15:00:00 15.48 C 6.94 g/m*3 15.48 C 0 km/h
2105 27-10-2009 16:00:00 14.58 C 7.22 g/m*3 14.58 C 0 km/h
2106 27-10-2009 17:00:00 12.54 C 6.72 g/m*3 12.54 C 0 km/h
2107 27-10-2009 18:00:00 10.76 C 6.66 g/m*3 10.76 C 0 km/h
2108 27-10-2009 19:00:00 9.86 C 6.82 g/m*3 9.86 C 0 km/h
2109 27-10-2009 20:00:00 9.08 C 6.84 g/m*3 9.08 C 0 km/h
2110 27-10-2009 21:00:00 8.46 C 6.88 g/m*3 8.46 C 0 km/h
2111 27-10-2009 22:00:00 7.8 C 6.79 g/m*3 7.8 C 0 km/h
2112 27-10-2009 23:00:00 7.18 C 6.73 g/m*3 7.18 C 0 km/h
2113 28-10-2009 00:00:00 6.48 C 6.56 g/m*3 6.48 C 0 km/h
2114 28-10-2009 01:00:00 5.92 C 6.41 g/m*3 5.92 C 0 km/h
2115 28-10-2009 02:00:00 5.52 C 6.33 g/m*3 5.52 C 0 km/h
2116 28-10-2009 03:00:00 5.66 C 6.47 g/m*3 5.66 C 0 km/h
2117 28-10-2009 04:00:00 5.82 C 6.6 g/m*3 5.82 C 0 km/h
2118 28-10-2009 05:00:00 5.44 C 6.44 g/m*3 5.44 C 0 km/h
2119 28-10-2009 06:00:00 5.3 C 6.39 g/m*3 5.3 C 0 km/h
2120 28-10-2009 07:00:00 5.06 C 6.34 g/m*3 5.06 C 0 km/h
2121 28-10-2009 08:00:00 5.34 C 6.49 g/m*3 5.34 C 0 km/h
2122 28-10-2009 09:00:00 6.34 C 6.83 g/m*3 6.34 C 0 km/h
2123 28-10-2009 10:00:00 7.2 C 6.92 g/m*3 7.2 C 0 km/h
2124 28-10-2009 11:00:00 9.02 C 7.24 g/m*3 9.02 C 0 km/h
2125 28-10-2009 12:00:00 11.04 C 7.25 g/m*3 11.04 C 0 km/h
Sensor: Nr:Datum:Temp:Abs-Feuchte:Windchill:Wind:
Aussen-T/F 2126 28-10-2009 13:00:00 13.46 C 7.72 g/m*3 13.46 C 0 km/h
2127 28-10-2009 14:00:00 16 C 7.49 g/m*3 16 C 0 km/h
2128 28-10-2009 15:00:00 14.7 C 7.58 g/m*3 14.7 C 0 km/h
2129 28-10-2009 16:00:00 13.02 C 7.95 g/m*3 13.02 C 0 km/h
2130 28-10-2009 17:00:00 11.46 C 7.75 g/m*3 11.46 C 0 km/h
2131 28-10-2009 18:00:00 10.22 C 7.51 g/m*3 10.22 C 0 km/h
2132 28-10-2009 19:00:00 9.2 C 7.48 g/m*3 9.2 C 0 km/h
2133 28-10-2009 20:00:00 8.26 C 7.25 g/m*3 8.26 C 0 km/h
2134 28-10-2009 21:00:00 7.46 C 7.04 g/m*3 7.46 C 0 km/h
2135 28-10-2009 22:00:00 6.9 C 6.91 g/m*3 6.9 C 0 km/h
2136 28-10-2009 23:00:00 6.28 C 6.74 g/m*3 6.28 C 0 km/h
2137 29-10-2009 00:00:00 5.78 C 6.6 g/m*3 5.78 C 0 km/h
2138 29-10-2009 01:00:00 5.64 C 6.62 g/m*3 5.64 C 0 km/h
2139 29-10-2009 02:00:00 5.8 C 6.79 g/m*3 5.8 C 0 km/h
2140 29-10-2009 03:00:00 5.74 C 6.78 g/m*3 5.74 C 0 km/h
2141 29-10-2009 04:00:00 5.48 C 6.66 g/m*3 5.48 C 0 km/h
2142 29-10-2009 05:00:00 5.56 C 6.7 g/m*3 5.56 C 0 km/h
2143 29-10-2009 06:00:00 5.58 C 6.71 g/m*3 5.58 C 0 km/h
2144 29-10-2009 07:00:00 5.78 C 6.74 g/m*3 5.78 C 0 km/h
2145 29-10-2009 08:00:00 6.3 C 6.84 g/m*3 6.3 C 0 km/h
2146 29-10-2009 09:00:00 7.42 C 7.1 g/m*3 7.42 C 0 km/h
2147 29-10-2009 10:00:00 8.64 C 7.17 g/m*3 8.64 C 0 km/h
2148 29-10-2009 11:00:00 10.24 C 7.25 g/m*3 10.24 C 0 km/h
2149 29-10-2009 12:00:00 10.98 C 7.42 g/m*3 10.98 C 0 km/h
2150 29-10-2009 13:00:00 11.72 C 7.88 g/m*3 11.72 C 0 km/h
Sensor: Nr:Datum:Temp:Abs-Feuchte:Windchill:Wind:
Aussen-T/F 2151 29-10-2009 14:00:00 11.94 C 7.96 g/m*3 11.94 C 0 km/h
2152 29-10-2009 15:00:00 11.9 C 8.11 g/m*3 11.9 C 0 km/h
2153 29-10-2009 16:00:00 11.52 C 8.13 g/m*3 11.52 C 0 km/h
2154 29-10-2009 17:00:00 10.98 C 8.14 g/m*3 10.98 C 0 km/h
2155 29-10-2009 18:00:00 10.7 C 8.27 g/m*3 10.7 C 0 km/h
2156 29-10-2009 19:00:00 10.4 C 8.23 g/m*3 10.4 C 0 km/h
2157 29-10-2009 20:00:00 10.4 C 8.38 g/m*3 10.4 C 0 km/h
2158 29-10-2009 21:00:00 10.12 C 8.28 g/m*3 10.12 C 0 km/h
2159 29-10-2009 22:00:00 10.08 C 8.31 g/m*3 10.08 C 0 km/h
2160 29-10-2009 23:00:00 9.94 C 8.27 g/m*3 9.94 C 0 km/h
2161 30-10-2009 00:00:00 9.62 C 8.2 g/m*3 9.62 C 0 km/h
2162 30-10-2009 01:00:00 9.68 C 8.36 g/m*3 9.68 C 0 km/h
2163 30-10-2009 02:00:00 9.7 C 8.39 g/m*3 9.7 C 0 km/h
2164 30-10-2009 03:00:00 9.86 C 8.48 g/m*3 9.86 C 0 km/h
2165 30-10-2009 04:00:00 9.78 C 8.43 g/m*3 9.78 C 0 km/h
2166 30-10-2009 05:00:00 9.6 C 8.35 g/m*3 9.6 C 0 km/h
2167 30-10-2009 06:00:00 8.66 C 7.99 g/m*3 8.66 C 0 km/h
2168 30-10-2009 07:00:00 8.1 C 7.79 g/m*3 8.1 C 0 km/h
2169 30-10-2009 08:00:00 8.4 C 8.03 g/m*3 8.4 C 0 km/h
2170 30-10-2009 09:00:00 8.88 C 8.21 g/m*3 8.88 C 0 km/h
2171 30-10-2009 10:00:00 10.14 C 8.21 g/m*3 10.14 C 0 km/h
2172 30-10-2009 11:00:00 11.76 C 7.52 g/m*3 11.76 C 0 km/h
2173 30-10-2009 12:00:00 13.42 C 7.24 g/m*3 13.42 C 0 km/h
2174 30-10-2009 13:00:00 14.88 C 7.28 g/m*3 14.88 C 0 km/h
2175 30-10-2009 14:00:00 17.04 C 6.64 g/m*3 17.04 C 0 km/h
Sensor: Nr:Datum:Temp:Abs-Feuchte:Windchill:Wind:
Aussen-T/F 2176 30-10-2009 15:00:00 17.18 C 5.73 g/m*3 17.18 C 0 km/h
2177 30-10-2009 16:00:00 15.58 C 6.19 g/m*3 15.58 C 0 km/h
2178 30-10-2009 17:00:00 11.84 C 6.63 g/m*3 11.84 C 0 km/h
2179 30-10-2009 18:00:00 10.24 C 6.85 g/m*3 10.24 C 0 km/h
2180 30-10-2009 19:00:00 9.44 C 6.96 g/m*3 9.44 C 0 km/h
2181 30-10-2009 20:00:00 8.44 C 6.82 g/m*3 8.44 C 0 km/h
2182 30-10-2009 21:00:00 7.52 C 6.7 g/m*3 7.52 C 0 km/h
2183 30-10-2009 22:00:00 7 C 6.56 g/m*3 7 C 0 km/h
2184 30-10-2009 23:00:00 6.22 C 6.32 g/m*3 6.22 C 0 km/h
2185 31-10-2009 00:00:00 5.68 C 6.25 g/m*3 5.68 C 0 km/h
2186 31-10-2009 01:00:00 5.12 C 6.12 g/m*3 5.12 C 0 km/h
2187 31-10-2009 02:00:00 4.46 C 5.9 g/m*3 4.46 C 0 km/h
2188 31-10-2009 03:00:00 3.94 C 5.79 g/m*3 3.94 C 0 km/h
2189 31-10-2009 04:00:00 3.72 C 5.74 g/m*3 3.72 C 0 km/h
2190 31-10-2009 05:00:00 3.82 C 5.83 g/m*3 3.82 C 0 km/h
2191 31-10-2009 06:00:00 3.58 C 5.79 g/m*3 3.58 C 0 km/h
2192 31-10-2009 07:00:00 3.74 C 5.94 g/m*3 3.74 C 0 km/h
2193 31-10-2009 08:00:00 4.24 C 6.14 g/m*3 4.24 C 0 km/h
2194 31-10-2009 09:00:00 5.22 C 6.48 g/m*3 5.22 C 0 km/h
2195 31-10-2009 10:00:00 7.02 C 6.75 g/m*3 7.02 C 0 km/h
2196 31-10-2009 11:00:00 8.74 C 6.36 g/m*3 8.74 C 0 km/h
2197 31-10-2009 12:00:00 9.94 C 5.54 g/m*3 9.94 C 0 km/h
2198 31-10-2009 13:00:00 11.5 C 5.06 g/m*3 11.5 C 0 km/h
2199 31-10-2009 14:00:00 12.88 C 4.59 g/m*3 12.88 C 0 km/h
2200 31-10-2009 15:00:00 13.16 C 4.51 g/m*3 13.16 C 0 km/h
Sensor: Nr:Datum:Temp:Abs-Feuchte:Windchill:Wind:
Aussen-T/F 2201 31-10-2009 16:00:00 11.48 C 4.62 g/m*3 11.48 C 0 km/h
2202 31-10-2009 17:00:00 9.08 C 4.8 g/m*3 9.08 C 0 km/h
2203 31-10-2009 18:00:00 8.18 C 5.1 g/m*3 8.18 C 0 km/h
2204 31-10-2009 19:00:00 6.82 C 5.33 g/m*3 6.82 C 0 km/h
2205 31-10-2009 20:00:00 6.5 C 5.58 g/m*3 6.5 C 0 km/h
2206 31-10-2009 21:00:00 6.76 C 5.68 g/m*3 6.76 C 0 km/h
2207 31-10-2009 22:00:00 6.64 C 5.71 g/m*3 6.64 C 0 km/h
2208 31-10-2009 23:00:00 6.52 C 5.71 g/m*3 6.52 C 0 km/h
2209 01-11-2009 00:00:00 5.96 C 5.7 g/m*3 5.96 C 0 km/h
2210 01-11-2009 01:00:00 5.62 C 5.79 g/m*3 5.62 C 0 km/h
2211 01-11-2009 02:00:00 5.1 C 5.75 g/m*3 5.1 C 0 km/h
2212 01-11-2009 03:00:00 5.52 C 6.09 g/m*3 5.52 C 0 km/h
2213 01-11-2009 04:00:00 5.68 C 6.15 g/m*3 5.68 C 0 km/h
2214 01-11-2009 05:00:00 6.1 C 6.22 g/m*3 6.1 C 0 km/h
2215 01-11-2009 06:00:00 6.66 C 6.4 g/m*3 6.66 C 0 km/h
2216 01-11-2009 07:00:00 6.78 C 6.35 g/m*3 6.78 C 0 km/h
2217 01-11-2009 08:00:00 7.82 C 6.37 g/m*3 7.82 C 0 km/h
2218 01-11-2009 09:00:00 8.8 C 6.14 g/m*3 8.8 C 0 km/h
2219 01-11-2009 10:00:00 9.76 C 6.14 g/m*3 9.76 C 0 km/h
2220 01-11-2009 11:00:00 12.26 C 6.46 g/m*3 12.26 C 0 km/h
2221 01-11-2009 12:00:00 13.6 C 6.33 g/m*3 13.6 C 0 km/h
2222 01-11-2009 13:00:00 14.16 C 6.33 g/m*3 14.16 C 0 km/h
2223 01-11-2009 14:00:00 13.6 C 6.33 g/m*3 13.6 C 0 km/h
2224 01-11-2009 15:00:00 12.28 C 6.36 g/m*3 12.28 C 0 km/h
2225 01-11-2009 16:00:00 11.52 C 6.52 g/m*3 11.52 C 0 km/h
Sensor: Nr:Datum:Temp:Abs-Feuchte:Windchill:Wind:
Aussen-T/F 2226 01-11-2009 17:00:00 11.04 C 6.74 g/m*3 11.04 C 0 km/h
2227 01-11-2009 18:00:00 9.94 C 7.02 g/m*3 9.94 C 0 km/h
2228 01-11-2009 19:00:00 9.44 C 7.69 g/m*3 9.44 C 0 km/h
2229 01-11-2009 20:00:00 9.44 C 8.07 g/m*3 9.44 C 0 km/h
2230 01-11-2009 21:00:00 9.44 C 8.18 g/m*3 9.44 C 0 km/h
2231 01-11-2009 22:00:00 9.66 C 8.4 g/m*3 9.66 C 0 km/h
2232 01-11-2009 23:00:00 9.98 C 8.6 g/m*3 9.98 C 0 km/h
2233 02-11-2009 00:00:00 10.2 C 8.76 g/m*3 10.2 C 0 km/h
2234 02-11-2009 01:00:00 10.26 C 8.83 g/m*3 10.26 C 0 km/h
2235 02-11-2009 02:00:00 10.68 C 9.22 g/m*3 10.68 C 0 km/h
2236 02-11-2009 03:00:00 10.98 C 9.5 g/m*3 10.98 C 0 km/h
2237 02-11-2009 04:00:00 10.36 C 9.13 g/m*3 10.36 C 0 km/h
2238 02-11-2009 05:00:00 10.42 C 9.17 g/m*3 10.42 C 0 km/h
2239 02-11-2009 06:00:00 10 C 8.93 g/m*3 10 C 0 km/h
2240 02-11-2009 07:00:00 10 C 8.93 g/m*3 10 C 0 km/h
2241 02-11-2009 08:00:00 10.26 C 9.07 g/m*3 10.26 C 0 km/h
2242 02-11-2009 09:00:00 10.8 C 9.39 g/m*3 10.8 C 0 km/h
2243 02-11-2009 10:00:00 11.36 C 9.32 g/m*3 11.36 C 0 km/h
2244 02-11-2009 11:00:00 12.26 C 8.93 g/m*3 12.26 C 0 km/h
2245 02-11-2009 12:00:00 13 C 8.32 g/m*3 13 C 0 km/h
2246 02-11-2009 13:00:00 13.18 C 7.71 g/m*3 13.18 C 0 km/h
2247 02-11-2009 14:00:00 13.36 C 6.91 g/m*3 13.36 C 0 km/h
2248 02-11-2009 15:00:00 12.34 C 6.92 g/m*3 12.34 C 0 km/h
2249 02-11-2009 16:00:00 9.32 C 7.74 g/m*3 9.32 C 0 km/h
2250 02-11-2009 17:00:00 9.06 C 8.02 g/m*3 9.06 C 0 km/h
Sensor: Nr:Datum:Temp:Abs-Feuchte:Windchill:Wind:
Aussen-T/F 2251 02-11-2009 18:00:00 8.86 C 8.09 g/m*3 8.86 C 0 km/h
2252 02-11-2009 19:00:00 8.7 C 7.97 g/m*3 8.7 C 0 km/h
2253 02-11-2009 20:00:00 8.7 C 7.47 g/m*3 8.7 C 0 km/h
2254 02-11-2009 21:00:00 8.28 C 7 g/m*3 8.28 C 0 km/h
2255 02-11-2009 22:00:00 7.92 C 6.56 g/m*3 7.92 C 0 km/h
2256 02-11-2009 23:00:00 7.46 C 6.61 g/m*3 7.46 C 0 km/h
2257 03-11-2009 00:00:00 7.02 C 6.47 g/m*3 7.02 C 0 km/h
2258 03-11-2009 01:00:00 6.34 C 6.41 g/m*3 6.34 C 0 km/h
2259 03-11-2009 02:00:00 6.1 C 6.43 g/m*3 6.1 C 0 km/h
2260 03-11-2009 03:00:00 6.9 C 6.31 g/m*3 6.9 C 0 km/h
2261 03-11-2009 04:00:00 6.84 C 6.12 g/m*3 6.84 C 0 km/h
2262 03-11-2009 05:00:00 6.04 C 6 g/m*3 6.04 C 0 km/h
2263 03-11-2009 06:00:00 5.16 C 5.92 g/m*3 5.16 C 0 km/h
2264 03-11-2009 07:00:00 4.52 C 5.84 g/m*3 4.52 C 0 km/h
2265 03-11-2009 08:00:00 4.08 C 5.78 g/m*3 4.08 C 0 km/h
2266 03-11-2009 09:00:00 5.66 C 6.53 g/m*3 5.66 C 0 km/h
2267 03-11-2009 10:00:00 7.5 C 6.72 g/m*3 7.5 C 0 km/h
2268 03-11-2009 11:00:00 8.6 C 5.95 g/m*3 8.6 C 0 km/h
2269 03-11-2009 12:00:00 10 C 5.88 g/m*3 10 C 0 km/h
2270 03-11-2009 13:00:00 11.24 C 5.06 g/m*3 11.24 C 0 km/h
2271 03-11-2009 14:00:00 10.82 C 5.09 g/m*3 10.82 C 0 km/h
2272 03-11-2009 15:00:00 10.54 C 5.11 g/m*3 10.54 C 0 km/h
2273 03-11-2009 16:00:00 10 C 5.24 g/m*3 10 C 0 km/h
2274 03-11-2009 17:00:00 9.6 C 5.59 g/m*3 9.6 C 0 km/h
2275 03-11-2009 18:00:00 8.88 C 6.21 g/m*3 8.88 C 0 km/h
Sensor: Nr:Datum:Temp:Abs-Feuchte:Windchill:Wind:
Aussen-T/F 2276 03-11-2009 19:00:00 9.02 C 6.48 g/m*3 9.02 C 0 km/h
2277 03-11-2009 20:00:00 9.26 C 6.56 g/m*3 9.26 C 0 km/h
2278 03-11-2009 21:00:00 9.38 C 6.7 g/m*3 9.38 C 0 km/h
2279 03-11-2009 22:00:00 9.66 C 7.1 g/m*3 9.66 C 0 km/h
2280 03-11-2009 23:00:00 10.32 C 7.33 g/m*3 10.32 C 0 km/h
2281 04-11-2009 00:00:00 10.02 C 7.64 g/m*3 10.02 C 0 km/h
2282 04-11-2009 01:00:00 9.94 C 8.01 g/m*3 9.94 C 0 km/h
2283 04-11-2009 02:00:00 9.9 C 8.33 g/m*3 9.9 C 0 km/h
2284 04-11-2009 03:00:00 9.84 C 8.61 g/m*3 9.84 C 0 km/h
2285 04-11-2009 04:00:00 9.54 C 8.54 g/m*3 9.54 C 0 km/h
2286 04-11-2009 05:00:00 9.1 C 8.27 g/m*3 9.1 C 0 km/h
2287 04-11-2009 06:00:00 8 C 7.62 g/m*3 8 C 0 km/h
2288 04-11-2009 07:00:00 7.56 C 7.14 g/m*3 7.56 C 0 km/h
2289 04-11-2009 08:00:00 7.88 C 7.24 g/m*3 7.88 C 0 km/h
2290 04-11-2009 09:00:00 7.82 C 7.27 g/m*3 7.82 C 0 km/h
2291 04-11-2009 10:00:00 7.94 C 6.77 g/m*3 7.94 C 0 km/h
2292 04-11-2009 11:00:00 8.52 C 6.89 g/m*3 8.52 C 0 km/h
2293 04-11-2009 12:00:00 8.66 C 6.81 g/m*3 8.66 C 0 km/h
2294 04-11-2009 13:00:00 9.92 C 6.32 g/m*3 9.92 C 0 km/h
2295 04-11-2009 14:00:00 10.54 C 6.03 g/m*3 10.54 C 0 km/h
2296 04-11-2009 15:00:00 9.76 C 5.96 g/m*3 9.76 C 0 km/h
2297 04-11-2009 16:00:00 9.12 C 6.36 g/m*3 9.12 C 0 km/h
2298 04-11-2009 17:00:00 8.14 C 6.76 g/m*3 8.14 C 0 km/h
2299 04-11-2009 18:00:00 8.12 C 6.88 g/m*3 8.12 C 0 km/h
2300 04-11-2009 19:00:00 8.26 C 6.41 g/m*3 8.26 C 0 km/h
Sensor: Nr:Datum:Temp:Abs-Feuchte:Windchill:Wind:
Aussen-T/F 2301 04-11-2009 20:00:00 8.14 C 6.11 g/m*3 8.14 C 0 km/h
2302 04-11-2009 21:00:00 7.7 C 6.08 g/m*3 7.7 C 0 km/h
2303 04-11-2009 22:00:00 7.62 C 6.11 g/m*3 7.62 C 0 km/h
2304 04-11-2009 23:00:00 7.96 C 6.14 g/m*3 7.96 C 0 km/h
2305 05-11-2009 00:00:00 8.12 C 6.13 g/m*3 8.12 C 0 km/h
2306 05-11-2009 01:00:00 8.2 C 6.01 g/m*3 8.2 C 0 km/h
2307 05-11-2009 02:00:00 8.34 C 5.81 g/m*3 8.34 C 0 km/h
2308 05-11-2009 03:00:00 8.64 C 5.75 g/m*3 8.64 C 0 km/h
2309 05-11-2009 04:00:00 8.04 C 6.2 g/m*3 8.04 C 0 km/h
2310 05-11-2009 05:00:00 7.68 C 6.53 g/m*3 7.68 C 0 km/h
2311 05-11-2009 06:00:00 7.34 C 6.64 g/m*3 7.34 C 0 km/h
2312 05-11-2009 07:00:00 7.5 C 6.68 g/m*3 7.5 C 0 km/h
2313 05-11-2009 08:00:00 8.14 C 6.52 g/m*3 8.14 C 0 km/h
2314 05-11-2009 09:00:00 8.88 C 6.35 g/m*3 8.88 C 0 km/h
2315 05-11-2009 10:00:00 9.72 C 6.13 g/m*3 9.72 C 0 km/h
2316 05-11-2009 11:00:00 10.02 C 6.06 g/m*3 10.02 C 0 km/h
2317 05-11-2009 12:00:00 11.1 C 5.9 g/m*3 11.1 C 0 km/h
2318 05-11-2009 13:00:00 11.6 C 5.7 g/m*3 11.6 C 0 km/h
2319 05-11-2009 14:00:00 11.2 C 5.62 g/m*3 11.2 C 0 km/h
2320 05-11-2009 15:00:00 10.84 C 5.65 g/m*3 10.84 C 0 km/h
2321 05-11-2009 16:00:00 10.42 C 5.69 g/m*3 10.42 C 0 km/h
2322 05-11-2009 17:00:00 10.08 C 5.8 g/m*3 10.08 C 0 km/h
2323 05-11-2009 18:00:00 9.96 C 5.96 g/m*3 9.96 C 0 km/h
2324 05-11-2009 19:00:00 9.92 C 6.11 g/m*3 9.92 C 0 km/h
2325 05-11-2009 20:00:00 9.74 C 6.38 g/m*3 9.74 C 0 km/h
Sensor: Nr:Datum:Temp:Abs-Feuchte:Windchill:Wind:
Aussen-T/F 2326 05-11-2009 21:00:00 9.44 C 6.62 g/m*3 9.44 C 0 km/h
2327 05-11-2009 22:00:00 9.075 C 6.95 g/m*3 9.07 C 0 km/h
2328 05-11-2009 23:00:00 9.1 C 6.81 g/m*3 9.1 C 0 km/h
2329 06-11-2009 00:00:00 9.02 C 6.55 g/m*3 9.02 C 0 km/h
2330 06-11-2009 01:00:00 9.18 C 6.49 g/m*3 9.18 C 0 km/h
2331 06-11-2009 02:00:00 9 C 6.52 g/m*3 9 C 0 km/h
2332 06-11-2009 03:00:00 8.92 C 6.54 g/m*3 8.92 C 0 km/h
2333 06-11-2009 04:00:00 9 C 6.63 g/m*3 9 C 0 km/h
2334 06-11-2009 05:00:00 8.94 C 6.78 g/m*3 8.94 C 0 km/h
2335 06-11-2009 06:00:00 9.08 C 6.82 g/m*3 9.08 C 0 km/h
2336 06-11-2009 07:00:00 9.08 C 6.68 g/m*3 9.08 C 0 km/h
2337 06-11-2009 08:00:00 9 C 6.82 g/m*3 9 C 0 km/h
2338 06-11-2009 09:00:00 9.74 C 6.93 g/m*3 9.74 C 0 km/h
2339 06-11-2009 10:00:00 10.32 C 6.44 g/m*3 10.32 C 0 km/h
2340 06-11-2009 11:00:00 10.86 C 6.17 g/m*3 10.86 C 0 km/h
2341 06-11-2009 12:00:00 10.78 C 5.9 g/m*3 10.78 C 0 km/h
2342 06-11-2009 13:00:00 10.66 C 5.68 g/m*3 10.66 C 0 km/h
2343 06-11-2009 14:00:00 10.4 C 5.84 g/m*3 10.4 C 0 km/h
2344 06-11-2009 15:00:00 10.5 C 5.61 g/m*3 10.5 C 0 km/h
2345 06-11-2009 16:00:00 10.1 C 5.69 g/m*3 10.1 C 0 km/h
2346 06-11-2009 17:00:00 9.64 C 5.84 g/m*3 9.64 C 0 km/h
2347 06-11-2009 18:00:00 9.28 C 6.05 g/m*3 9.28 C 0 km/h
2348 06-11-2009 19:00:00 9.2 C 6.14 g/m*3 9.2 C 0 km/h
2349 06-11-2009 20:00:00 9.08 C 6.19 g/m*3 9.08 C 0 km/h
2350 06-11-2009 21:00:00 8.72 C 6.11 g/m*3 8.72 C 0 km/h
Sensor: Nr:Datum:Temp:Abs-Feuchte:Windchill:Wind:
Aussen-T/F 2351 06-11-2009 22:00:00 8.36 C 5.99 g/m*3 8.36 C 0 km/h
2352 06-11-2009 23:00:00 7.54 C 5.91 g/m*3 7.54 C 0 km/h
2353 07-11-2009 00:00:00 7.12 C 5.89 g/m*3 7.12 C 0 km/h
2354 07-11-2009 01:00:00 7.46 C 5.81 g/m*3 7.46 C 0 km/h
2355 07-11-2009 02:00:00 7.74 C 5.66 g/m*3 7.74 C 0 km/h
2356 07-11-2009 03:00:00 7.8 C 5.57 g/m*3 7.8 C 0 km/h
2357 07-11-2009 04:00:00 7.78 C 5.48 g/m*3 7.78 C 0 km/h
2358 07-11-2009 05:00:00 7.74 C 5.41 g/m*3 7.74 C 0 km/h
2359 07-11-2009 06:00:00 7.84 C 5.32 g/m*3 7.84 C 0 km/h
2360 07-11-2009 07:00:00 6.54 C 5.87 g/m*3 6.54 C 0 km/h
2361 07-11-2009 08:00:00 6.74 C 6.25 g/m*3 6.74 C 0 km/h
2362 07-11-2009 09:00:00 7.68 C 5.9 g/m*3 7.68 C 0 km/h
2363 07-11-2009 10:00:00 7.48 C 5.85 g/m*3 7.48 C 0 km/h
2364 07-11-2009 11:00:00 7.9 C 5.93 g/m*3 7.9 C 0 km/h
2365 07-11-2009 12:00:00 8.32 C 5.92 g/m*3 8.32 C 0 km/h
2366 07-11-2009 13:00:00 8.36 C 6.13 g/m*3 8.36 C 0 km/h
2367 07-11-2009 14:00:00 10 C 6.26 g/m*3 10 C 0 km/h
2368 07-11-2009 15:00:00 10.76 C 5.97 g/m*3 10.76 C 0 km/h
2369 07-11-2009 16:00:00 9.82 C 5.93 g/m*3 9.82 C 0 km/h
2370 07-11-2009 17:00:00 8.3 C 5.87 g/m*3 8.3 C 0 km/h
2371 07-11-2009 18:00:00 8.56 C 6.14 g/m*3 8.56 C 0 km/h
2372 07-11-2009 19:00:00 8.56 C 6.15 g/m*3 8.56 C 0 km/h
2373 07-11-2009 20:00:00 8.34 C 6.12 g/m*3 8.34 C 0 km/h
2374 07-11-2009 21:00:00 8.18 C 6.24 g/m*3 8.18 C 0 km/h
2375 07-11-2009 22:00:00 7.9 C 6.36 g/m*3 7.9 C 0 km/h
Sensor: Nr:Datum:Temp:Abs-Feuchte:Windchill:Wind:
Aussen-T/F 2376 07-11-2009 23:00:00 7.86 C 6.42 g/m*3 7.86 C 0 km/h
2377 08-11-2009 00:00:00 7.24 C 6.5 g/m*3 7.24 C 0 km/h
2378 08-11-2009 01:00:00 7.24 C 6.67 g/m*3 7.24 C 0 km/h
2379 08-11-2009 02:00:00 7.3 C 6.61 g/m*3 7.3 C 0 km/h
2380 08-11-2009 03:00:00 7.02 C 6.56 g/m*3 7.02 C 0 km/h
2381 08-11-2009 04:00:00 7.02 C 6.7 g/m*3 7.02 C 0 km/h
2382 08-11-2009 05:00:00 6.2 C 6.43 g/m*3 6.2 C 0 km/h
2383 08-11-2009 06:00:00 4.98 C 6.08 g/m*3 4.98 C 0 km/h
2384 08-11-2009 07:00:00 4.66 C 6.05 g/m*3 4.66 C 0 km/h
2385 08-11-2009 08:00:00 3.88 C 5.78 g/m*3 3.88 C 0 km/h
2386 08-11-2009 09:00:00 3.88 C 5.88 g/m*3 3.88 C 0 km/h
2387 08-11-2009 10:00:00 4.92 C 6.26 g/m*3 4.92 C 0 km/h
2388 08-11-2009 11:00:00 7.04 C 6.4 g/m*3 7.04 C 0 km/h
2389 08-11-2009 12:00:00 8 C 5.77 g/m*3 8 C 0 km/h
2390 08-11-2009 13:00:00 8.16 C 5.88 g/m*3 8.16 C 0 km/h
2391 08-11-2009 14:00:00 8.32 C 6.01 g/m*3 8.32 C 0 km/h
2392 08-11-2009 15:00:00 8.84 C 6.13 g/m*3 8.84 C 0 km/h
2393 08-11-2009 16:00:00 8.48 C 6.16 g/m*3 8.48 C 0 km/h
2394 08-11-2009 17:00:00 7.86 C 6.23 g/m*3 7.86 C 0 km/h
2395 08-11-2009 18:00:00 7.26 C 6.43 g/m*3 7.26 C 0 km/h
2396 08-11-2009 19:00:00 7.38 C 6.67 g/m*3 7.38 C 0 km/h
2397 08-11-2009 20:00:00 7.48 C 6.68 g/m*3 7.48 C 0 km/h
2398 08-11-2009 21:00:00 7.46 C 6.59 g/m*3 7.46 C 0 km/h
2399 08-11-2009 22:00:00 7.54 C 6.6 g/m*3 7.54 C 0 km/h
2400 08-11-2009 23:00:00 7.44 C 6.47 g/m*3 7.44 C 0 km/h
Sensor: Nr:Datum:Temp:Abs-Feuchte:Windchill:Wind:
Aussen-T/F 2401 09-11-2009 00:00:00 6.94 C 6.34 g/m*3 6.94 C 0 km/h
2402 09-11-2009 01:00:00 6.8 C 6.36 g/m*3 6.8 C 0 km/h
2403 09-11-2009 02:00:00 6.92 C 6.23 g/m*3 6.92 C 0 km/h
2404 09-11-2009 03:00:00 7.02 C 6.07 g/m*3 7.02 C 0 km/h
2405 09-11-2009 04:00:00 7.06 C 5.97 g/m*3 7.06 C 0 km/h
2406 09-11-2009 05:00:00 7.16 C 5.87 g/m*3 7.16 C 0 km/h
2407 09-11-2009 06:00:00 7.02 C 5.82 g/m*3 7.02 C 0 km/h
2408 09-11-2009 07:00:00 6.96 C 5.67 g/m*3 6.96 C 0 km/h
2409 09-11-2009 08:00:00 6.9 C 5.62 g/m*3 6.9 C 0 km/h
2410 09-11-2009 09:00:00 6.9 C 5.62 g/m*3 6.9 C 0 km/h
2411 09-11-2009 10:00:00 6.78 C 5.8 g/m*3 6.78 C 0 km/h
2412 09-11-2009 11:00:00 6.46 C 6.31 g/m*3 6.46 C 0 km/h
2413 09-11-2009 12:00:00 6.26 C 6.39 g/m*3 6.26 C 0 km/h
2414 09-11-2009 13:00:00 6.2 C 6.4 g/m*3 6.2 C 0 km/h
2415 09-11-2009 14:00:00 6.2 C 6.44 g/m*3 6.2 C 0 km/h
2416 09-11-2009 15:00:00 5.92 C 6.58 g/m*3 5.92 C 0 km/h
2417 09-11-2009 16:00:00 5.72 C 6.67 g/m*3 5.72 C 0 km/h
2418 09-11-2009 17:00:00 5.4 C 6.63 g/m*3 5.4 C 0 km/h
2419 09-11-2009 18:00:00 5.08 C 6.49 g/m*3 5.08 C 0 km/h
2420 09-11-2009 19:00:00 5.12 C 6.51 g/m*3 5.12 C 0 km/h
2421 09-11-2009 20:00:00 5.2 C 6.54 g/m*3 5.2 C 0 km/h
2422 09-11-2009 21:00:00 5.08 C 6.49 g/m*3 5.08 C 0 km/h
2423 09-11-2009 22:00:00 5 C 6.46 g/m*3 5 C 0 km/h
2424 09-11-2009 23:00:00 4.98 C 6.45 g/m*3 4.98 C 0 km/h
2425 10-11-2009 00:00:00 4.98 C 6.45 g/m*3 4.98 C 0 km/h
Sensor: Nr:Datum:Temp:Abs-Feuchte:Windchill:Wind:
Aussen-T/F 2426 10-11-2009 01:00:00 4.98 C 6.45 g/m*3 4.98 C 0 km/h
2427 10-11-2009 02:00:00 4.94 C 6.43 g/m*3 4.94 C 0 km/h
2428 10-11-2009 03:00:00 4.92 C 6.42 g/m*3 4.92 C 0 km/h
2429 10-11-2009 04:00:00 5.06 C 6.48 g/m*3 5.06 C 0 km/h
2430 10-11-2009 05:00:00 5.2 C 6.54 g/m*3 5.2 C 0 km/h
2431 10-11-2009 06:00:00 5.38 C 6.62 g/m*3 5.38 C 0 km/h
2432 10-11-2009 07:00:00 5.38 C 6.62 g/m*3 5.38 C 0 km/h
2433 10-11-2009 08:00:00 5.26 C 6.57 g/m*3 5.26 C 0 km/h
2434 10-11-2009 09:00:00 5.7 C 6.76 g/m*3 5.7 C 0 km/h
2435 10-11-2009 10:00:00 5.76 C 6.79 g/m*3 5.76 C 0 km/h
2436 10-11-2009 11:00:00 6.18 C 6.98 g/m*3 6.18 C 0 km/h
2437 10-11-2009 12:00:00 6.32 C 7.04 g/m*3 6.32 C 0 km/h
2438 10-11-2009 13:00:00 7.04 C 7.26 g/m*3 7.04 C 0 km/h
2439 10-11-2009 14:00:00 7.78 C 7.04 g/m*3 7.78 C 0 km/h
2440 10-11-2009 15:00:00 7.16 C 6.94 g/m*3 7.16 C 0 km/h
2441 10-11-2009 16:00:00 6.66 C 6.97 g/m*3 6.66 C 0 km/h
2442 10-11-2009 17:00:00 6.5 C 6.97 g/m*3 6.5 C 0 km/h
2443 10-11-2009 18:00:00 6.54 C 6.93 g/m*3 6.54 C 0 km/h
2444 10-11-2009 19:00:00 6.66 C 6.88 g/m*3 6.66 C 0 km/h
2445 10-11-2009 20:00:00 6.7 C 6.85 g/m*3 6.7 C 0 km/h
2446 10-11-2009 21:00:00 6.6 C 6.93 g/m*3 6.6 C 0 km/h
2447 10-11-2009 22:00:00 6.52 C 7.01 g/m*3 6.52 C 0 km/h
2448 10-11-2009 23:00:00 6.5 C 7.08 g/m*3 6.5 C 0 km/h
2449 11-11-2009 00:00:00 6.44 C 7.1 g/m*3 6.44 C 0 km/h
2450 11-11-2009 01:00:00 6.24 C 7 g/m*3 6.24 C 0 km/h
Sensor: Nr:Datum:Temp:Abs-Feuchte:Windchill:Wind:
Aussen-T/F 2451 11-11-2009 02:00:00 5.32 C 6.59 g/m*3 5.32 C 0 km/h
2452 11-11-2009 03:00:00 5.36 C 6.61 g/m*3 5.36 C 0 km/h
2453 11-11-2009 04:00:00 5.4 C 6.61 g/m*3 5.4 C 0 km/h
2454 11-11-2009 05:00:00 5.5 C 6.32 g/m*3 5.5 C 0 km/h
2455 11-11-2009 06:00:00 5.62 C 6.02 g/m*3 5.62 C 0 km/h
2456 11-11-2009 07:00:00 5.7 C 5.89 g/m*3 5.7 C 0 km/h
2457 11-11-2009 08:00:00 5.7 C 5.84 g/m*3 5.7 C 0 km/h
2458 11-11-2009 09:00:00 5.96 C 5.86 g/m*3 5.96 C 0 km/h
2459 11-11-2009 10:00:00 6.44 C 6.17 g/m*3 6.44 C 0 km/h
2460 11-11-2009 11:00:00 7.06 C 6.25 g/m*3 7.06 C 0 km/h
2461 11-11-2009 12:00:00 7.26 C 6.12 g/m*3 7.26 C 0 km/h
2462 11-11-2009 13:00:00 7.48 C 6.25 g/m*3 7.48 C 0 km/h
2463 11-11-2009 14:00:00 7.74 C 6.19 g/m*3 7.74 C 0 km/h
2464 11-11-2009 15:00:00 7.66 C 6.2 g/m*3 7.66 C 0 km/h
2465 11-11-2009 16:00:00 6.98 C 6.14 g/m*3 6.98 C 0 km/h
2466 11-11-2009 17:00:00 6.48 C 6.14 g/m*3 6.48 C 0 km/h
2467 11-11-2009 18:00:00 6.56 C 6.13 g/m*3 6.56 C 0 km/h
2468 11-11-2009 19:00:00 6.56 C 6.08 g/m*3 6.56 C 0 km/h
2469 11-11-2009 20:00:00 6.38 C 5.89 g/m*3 6.38 C 0 km/h
2470 11-11-2009 21:00:00 6.28 C 5.74 g/m*3 6.28 C 0 km/h
2471 11-11-2009 22:00:00 5.86 C 5.61 g/m*3 5.86 C 0 km/h
2472 11-11-2009 23:00:00 4.08 C 5.37 g/m*3 4.08 C 0 km/h
2473 12-11-2009 00:00:00 2.84 C 5.18 g/m*3 2.84 C 0 km/h
2474 12-11-2009 01:00:00 1.86 C 4.93 g/m*3 1.86 C 0 km/h
2475 12-11-2009 02:00:00 1.24 C 4.8 g/m*3 1.24 C 0 km/h
Sensor: Nr:Datum:Temp:Abs-Feuchte:Windchill:Wind:
Aussen-T/F 2476 12-11-2009 03:00:00 0.9 C 4.73 g/m*3 0.9 C 0 km/h
2477 12-11-2009 04:00:00 0.52 C 4.67 g/m*3 0.52 C 0 km/h
2478 12-11-2009 05:00:00 0.42 C 4.69 g/m*3 0.42 C 0 km/h
2479 12-11-2009 06:00:00 1.06 C 4.95 g/m*3 1.06 C 0 km/h
2480 12-11-2009 07:00:00 1.44 C 5.08 g/m*3 1.44 C 0 km/h
2481 12-11-2009 08:00:00 2.16 C 5.34 g/m*3 2.16 C 0 km/h
2482 12-11-2009 09:00:00 3.46 C 5.83 g/m*3 3.46 C 0 km/h
2483 12-11-2009 10:00:00 3.64 C 5.9 g/m*3 3.64 C 0 km/h
2484 12-11-2009 11:00:00 4.62 C 6.29 g/m*3 4.62 C 0 km/h
2485 12-11-2009 12:00:00 5.54 C 6.59 g/m*3 5.54 C 0 km/h
2486 12-11-2009 13:00:00 6.06 C 6.62 g/m*3 6.06 C 0 km/h
2487 12-11-2009 14:00:00 7.04 C 6.74 g/m*3 7.04 C 0 km/h
2488 12-11-2009 15:00:00 7.36 C 6.81 g/m*3 7.36 C 0 km/h
2489 12-11-2009 16:00:00 7.52 C 6.97 g/m*3 7.52 C 0 km/h
2490 12-11-2009 17:00:00 7.76 C 7.15 g/m*3 7.76 C 0 km/h
2491 12-11-2009 18:00:00 8.04 C 7.19 g/m*3 8.04 C 0 km/h
2492 12-11-2009 19:00:00 7.86 C 7.28 g/m*3 7.86 C 0 km/h
2493 12-11-2009 20:00:00 7.72 C 7.34 g/m*3 7.72 C 0 km/h
2494 12-11-2009 21:00:00 7.2 C 7.22 g/m*3 7.2 C 0 km/h
2495 12-11-2009 22:00:00 7.4 C 7.41 g/m*3 7.4 C 0 km/h
2496 12-11-2009 23:00:00 8.18 C 7.49 g/m*3 8.18 C 0 km/h
2497 13-11-2009 00:00:00 7.98 C 7.13 g/m*3 7.98 C 0 km/h
2498 13-11-2009 01:00:00 7.34 C 7.19 g/m*3 7.34 C 0 km/h
2499 13-11-2009 02:00:00 7.64 C 7.46 g/m*3 7.64 C 0 km/h
2500 13-11-2009 03:00:00 8.44 C 7.89 g/m*3 8.44 C 0 km/h
Sensor: Nr:Datum:Temp:Abs-Feuchte:Windchill:Wind:
Aussen-T/F 2501 13-11-2009 04:00:00 8.62 C 8.04 g/m*3 8.62 C 0 km/h
2502 13-11-2009 05:00:00 9.18 C 8.42 g/m*3 9.18 C 0 km/h
2503 13-11-2009 06:00:00 10.12 C 8.84 g/m*3 10.12 C 0 km/h
2504 13-11-2009 07:00:00 10.1 C 8.89 g/m*3 10.1 C 0 km/h
2505 13-11-2009 08:00:00 10.98 C 9.06 g/m*3 10.98 C 0 km/h
2506 13-11-2009 09:00:00 11.78 C 8.77 g/m*3 11.78 C 0 km/h
2507 13-11-2009 10:00:00 13.1 C 8.7 g/m*3 13.1 C 0 km/h
2508 13-11-2009 11:00:00 13.74 C 8.52 g/m*3 13.74 C 0 km/h
2509 13-11-2009 12:00:00 14.12 C 8.21 g/m*3 14.12 C 0 km/h
2510 13-11-2009 13:00:00 15.08 C 7.96 g/m*3 15.08 C 0 km/h
2511 13-11-2009 14:00:00 17.34 C 7.15 g/m*3 17.34 C 0 km/h
2512 13-11-2009 15:00:00 16.54 C 7.43 g/m*3 16.54 C 0 km/h
2513 13-11-2009 16:00:00 14.08 C 7.83 g/m*3 14.08 C 0 km/h
2514 13-11-2009 17:00:00 12.08 C 8.08 g/m*3 12.08 C 0 km/h
2515 13-11-2009 18:00:00 11.2 C 8.07 g/m*3 11.2 C 0 km/h
2516 13-11-2009 19:00:00 10.84 C 8.24 g/m*3 10.84 C 0 km/h
2517 13-11-2009 20:00:00 10.42 C 8.28 g/m*3 10.42 C 0 km/h
2518 13-11-2009 21:00:00 10.26 C 8.43 g/m*3 10.26 C 0 km/h
2519 13-11-2009 22:00:00 9.94 C 8.41 g/m*3 9.94 C 0 km/h
2520 13-11-2009 23:00:00 9.7 C 8.44 g/m*3 9.7 C 0 km/h
2521 14-11-2009 00:00:00 9.5 C 8.39 g/m*3 9.5 C 0 km/h
2522 14-11-2009 01:00:00 9.42 C 8.42 g/m*3 9.42 C 0 km/h
2523 14-11-2009 02:00:00 9.28 C 8.4 g/m*3 9.28 C 0 km/h
2524 14-11-2009 03:00:00 9.88 C 8.73 g/m*3 9.88 C 0 km/h
2525 14-11-2009 04:00:00 10.44 C 8.83 g/m*3 10.44 C 0 km/h
Sensor: Nr:Datum:Temp:Abs-Feuchte:Windchill:Wind:
Aussen-T/F 2526 14-11-2009 05:00:00 10.74 C 8.49 g/m*3 10.74 C 0 km/h
2527 14-11-2009 06:00:00 10.84 C 8.15 g/m*3 10.84 C 0 km/h
2528 14-11-2009 07:00:00 10.7 C 8 g/m*3 10.7 C 0 km/h
2529 14-11-2009 08:00:00 10.9 C 7.92 g/m*3 10.9 C 0 km/h
2530 14-11-2009 09:00:00 11.92 C 7.85 g/m*3 11.92 C 0 km/h
2531 14-11-2009 10:00:00 14.24 C 7.22 g/m*3 14.24 C 0 km/h
2532 14-11-2009 11:00:00 14.7 C 7.08 g/m*3 14.7 C 0 km/h
2533 14-11-2009 12:00:00 14.6 C 7.41 g/m*3 14.6 C 0 km/h
2534 14-11-2009 13:00:00 13.06 C 8.83 g/m*3 13.06 C 0 km/h
2535 14-11-2009 14:00:00 13.4 C 8.16 g/m*3 13.4 C 0 km/h
2536 14-11-2009 15:00:00 13.16 C 7.74 g/m*3 13.16 C 0 km/h
2537 14-11-2009 16:00:00 12.64 C 7.36 g/m*3 12.64 C 0 km/h
2538 14-11-2009 17:00:00 11.86 C 7.25 g/m*3 11.86 C 0 km/h
2539 14-11-2009 18:00:00 11.12 C 7.38 g/m*3 11.12 C 0 km/h
2540 14-11-2009 19:00:00 10.46 C 7.41 g/m*3 10.46 C 0 km/h
2541 14-11-2009 20:00:00 10.88 C 7.45 g/m*3 10.88 C 0 km/h
2542 14-11-2009 21:00:00 11.62 C 7.18 g/m*3 11.62 C 0 km/h
2543 14-11-2009 22:00:00 12.76 C 6.84 g/m*3 12.76 C 0 km/h
2544 14-11-2009 23:00:00 12.98 C 6.61 g/m*3 12.98 C 0 km/h
2545 15-11-2009 00:00:00 12.46 C 6.87 g/m*3 12.46 C 0 km/h
2546 15-11-2009 01:00:00 12.14 C 6.88 g/m*3 12.14 C 0 km/h
2547 15-11-2009 02:00:00 11.58 C 6.83 g/m*3 11.58 C 0 km/h
2548 15-11-2009 03:00:00 11.38 C 6.79 g/m*3 11.38 C 0 km/h
2549 15-11-2009 04:00:00 11.2 C 6.79 g/m*3 11.2 C 0 km/h
2550 15-11-2009 05:00:00 10 C 6.8 g/m*3 10 C 0 km/h
Sensor: Nr:Datum:Temp:Abs-Feuchte:Windchill:Wind:
Aussen-T/F 2551 15-11-2009 06:00:00 9.32 C 6.87 g/m*3 9.32 C 0 km/h
2552 15-11-2009 07:00:00 9.58 C 7.04 g/m*3 9.58 C 0 km/h
2553 15-11-2009 08:00:00 10.6 C 7.03 g/m*3 10.6 C 0 km/h
2554 15-11-2009 09:00:00 11.38 C 7.24 g/m*3 11.38 C 0 km/h
2555 15-11-2009 10:00:00 11.92 C 7.25 g/m*3 11.92 C 0 km/h
2556 15-11-2009 11:00:00 12.36 C 7.3 g/m*3 12.36 C 0 km/h
2557 15-11-2009 12:00:00 13.08 C 7.32 g/m*3 13.08 C 0 km/h
2558 15-11-2009 13:00:00 13.36 C 7.24 g/m*3 13.36 C 0 km/h
2559 15-11-2009 14:00:00 13.38 C 6.8 g/m*3 13.38 C 0 km/h
2560 15-11-2009 15:00:00 13.9 C 6.26 g/m*3 13.9 C 0 km/h
2561 15-11-2009 16:00:00 12.78 C 6.38 g/m*3 12.78 C 0 km/h
2562 15-11-2009 17:00:00 11.84 C 6.46 g/m*3 11.84 C 0 km/h
2563 15-11-2009 18:00:00 11.08 C 6.54 g/m*3 11.08 C 0 km/h
2564 15-11-2009 19:00:00 10.62 C 6.59 g/m*3 10.62 C 0 km/h
2565 15-11-2009 20:00:00 9.66 C 6.77 g/m*3 9.66 C 0 km/h
2566 15-11-2009 21:00:00 9.08 C 6.79 g/m*3 9.08 C 0 km/h
2567 15-11-2009 22:00:00 8.48 C 6.84 g/m*3 8.48 C 0 km/h
2568 15-11-2009 23:00:00 7.92 C 6.76 g/m*3 7.92 C 0 km/h
2569 16-11-2009 00:00:00 7.56 C 6.72 g/m*3 7.56 C 0 km/h
2570 16-11-2009 01:00:00 7.2 C 6.64 g/m*3 7.2 C 0 km/h
2571 16-11-2009 02:00:00 7.1 C 6.72 g/m*3 7.1 C 0 km/h
2572 16-11-2009 03:00:00 7.04 C 6.81 g/m*3 7.04 C 0 km/h
2573 16-11-2009 04:00:00 7.44 C 7 g/m*3 7.44 C 0 km/h
2574 16-11-2009 05:00:00 7.56 C 6.99 g/m*3 7.56 C 0 km/h
2575 16-11-2009 06:00:00 7.9 C 7.21 g/m*3 7.9 C 0 km/h
Sensor: Nr:Datum:Temp:Abs-Feuchte:Windchill:Wind:
Aussen-T/F 2576 16-11-2009 07:00:00 8 C 7.32 g/m*3 8 C 0 km/h
2577 16-11-2009 08:00:00 8.34 C 7.61 g/m*3 8.34 C 0 km/h
2578 16-11-2009 09:00:00 9 C 8.11 g/m*3 9 C 0 km/h
2579 16-11-2009 10:00:00 9.86 C 8.72 g/m*3 9.86 C 0 km/h
2580 16-11-2009 11:00:00 10.26 C 8.96 g/m*3 10.26 C 0 km/h
2581 16-11-2009 12:00:00 11.26 C 9.6 g/m*3 11.26 C 0 km/h
2582 16-11-2009 13:00:00 12.44 C 10.32 g/m*3 12.44 C 0 km/h
2583 16-11-2009 14:00:00 13.36 C 10.62 g/m*3 13.36 C 0 km/h
2584 16-11-2009 15:00:00 14 C 10.4 g/m*3 14 C 0 km/h
2585 16-11-2009 16:00:00 14.24 C 10.21 g/m*3 14.24 C 0 km/h
2586 16-11-2009 17:00:00 14.4 C 9.82 g/m*3 14.4 C 0 km/h
2587 16-11-2009 18:00:00 14.38 C 9.58 g/m*3 14.38 C 0 km/h
2588 16-11-2009 19:00:00 14.74 C 9.26 g/m*3 14.74 C 0 km/h
2589 16-11-2009 20:00:00 14.5 C 9.2 g/m*3 14.5 C 0 km/h
2590 16-11-2009 21:00:00 14.08 C 9.38 g/m*3 14.08 C 0 km/h
2591 16-11-2009 22:00:00 13.74 C 9.66 g/m*3 13.74 C 0 km/h
2592 16-11-2009 23:00:00 13.84 C 9.48 g/m*3 13.84 C 0 km/h
2593 17-11-2009 00:00:00 13.88 C 9.17 g/m*3 13.88 C 0 km/h
2594 17-11-2009 01:00:00 13.8 C 8.84 g/m*3 13.8 C 0 km/h
2595 17-11-2009 02:00:00 13.42 C 8.8 g/m*3 13.42 C 0 km/h
2596 17-11-2009 03:00:00 12.78 C 9.17 g/m*3 12.78 C 0 km/h
2597 17-11-2009 04:00:00 12.66 C 9.19 g/m*3 12.66 C 0 km/h
2598 17-11-2009 05:00:00 12.32 C 9.28 g/m*3 12.32 C 0 km/h
2599 17-11-2009 06:00:00 12.14 C 9.2 g/m*3 12.14 C 0 km/h
2600 17-11-2009 07:00:00 11.5 C 9.21 g/m*3 11.5 C 0 km/h
Sensor: Nr:Datum:Temp:Abs-Feuchte:Windchill:Wind:
Aussen-T/F 2601 17-11-2009 08:00:00 10.8 C 8.84 g/m*3 10.8 C 0 km/h
2602 17-11-2009 09:00:00 9.92 C 8.38 g/m*3 9.92 C 0 km/h
2603 17-11-2009 10:00:00 9.64 C 8.49 g/m*3 9.64 C 0 km/h
2604 17-11-2009 11:00:00 10.06 C 8.79 g/m*3 10.06 C 0 km/h
2605 17-11-2009 12:00:00 10.22 C 8.86 g/m*3 10.22 C 0 km/h
2606 17-11-2009 13:00:00 10.22 C 8.75 g/m*3 10.22 C 0 km/h
2607 17-11-2009 14:00:00 10.42 C 8.74 g/m*3 10.42 C 0 km/h
2608 17-11-2009 15:00:00 10.22 C 8.5 g/m*3 10.22 C 0 km/h
2609 17-11-2009 16:00:00 9.66 C 8.11 g/m*3 9.66 C 0 km/h
2610 17-11-2009 17:00:00 9.5 C 8.1 g/m*3 9.5 C 0 km/h
2611 17-11-2009 18:00:00 9.52 C 7.95 g/m*3 9.52 C 0 km/h
2612 17-11-2009 19:00:00 9.78 C 7.67 g/m*3 9.78 C 0 km/h
2613 17-11-2009 20:00:00 9.82 C 7.56 g/m*3 9.82 C 0 km/h
2614 17-11-2009 21:00:00 9.65 C 7.42 g/m*3 9.65 C 0 km/h
2615 17-11-2009 22:00:00 9.44 C 7.22 g/m*3 9.44 C 0 km/h
2616 17-11-2009 23:00:00 9.56 C 7.16 g/m*3 9.56 C 0 km/h
2617 18-11-2009 00:00:00 9.5 C 7.06 g/m*3 9.5 C 0 km/h
2618 18-11-2009 01:00:00 9.32 C 7 g/m*3 9.32 C 0 km/h
2619 18-11-2009 02:00:00 9.16 C 6.91 g/m*3 9.16 C 0 km/h
2620 18-11-2009 03:00:00 8.88 C 6.89 g/m*3 8.88 C 0 km/h
2621 18-11-2009 04:00:00 8.66 C 7.02 g/m*3 8.66 C 0 km/h
2622 18-11-2009 05:00:00 8.82 C 7.02 g/m*3 8.82 C 0 km/h
2623 18-11-2009 06:00:00 8.84 C 6.79 g/m*3 8.84 C 0 km/h
2624 18-11-2009 07:00:00 8.28 C 6.73 g/m*3 8.28 C 0 km/h
2625 18-11-2009 08:00:00 8.96 C 6.54 g/m*3 8.96 C 0 km/h
Sensor: Nr:Datum:Temp:Abs-Feuchte:Windchill:Wind:
Aussen-T/F 2626 18-11-2009 09:00:00 9.66 C 6.03 g/m*3 9.66 C 0 km/h
2627 18-11-2009 10:00:00 10.5 C 5.9 g/m*3 10.5 C 0 km/h
2628 18-11-2009 11:00:00 11.18 C 5.63 g/m*3 11.18 C 0 km/h
2629 18-11-2009 12:00:00 11.78 C 5.34 g/m*3 11.78 C 0 km/h
2630 18-11-2009 13:00:00 12.06 C 5.22 g/m*3 12.06 C 0 km/h
2631 18-11-2009 14:00:00 11.86 C 5.32 g/m*3 11.86 C 0 km/h
2632 18-11-2009 15:00:00 11.6 C 5.3 g/m*3 11.6 C 0 km/h
2633 18-11-2009 16:00:00 11.06 C 5.45 g/m*3 11.06 C 0 km/h
2634 18-11-2009 17:00:00 11.2 C 5.51 g/m*3 11.2 C 0 km/h
2635 18-11-2009 18:00:00 11 C 5.77 g/m*3 11 C 0 km/h
2636 18-11-2009 19:00:00 11.34 C 5.93 g/m*3 11.34 C 0 km/h
2637 18-11-2009 20:00:00 11.18 C 6.01 g/m*3 11.18 C 0 km/h
2638 18-11-2009 21:00:00 10.74 C 6.12 g/m*3 10.74 C 0 km/h
2639 18-11-2009 22:00:00 10.14 C 6.26 g/m*3 10.14 C 0 km/h
2640 18-11-2009 23:00:00 10.16 C 6.44 g/m*3 10.16 C 0 km/h
2641 19-11-2009 00:00:00 9.84 C 6.57 g/m*3 9.84 C 0 km/h
2642 19-11-2009 01:00:00 9.86 C 6.8 g/m*3 9.86 C 0 km/h
2643 19-11-2009 02:00:00 10.3 C 6.9 g/m*3 10.3 C 0 km/h
2644 19-11-2009 03:00:00 10.54 C 6.86 g/m*3 10.54 C 0 km/h
2645 19-11-2009 04:00:00 9.84 C 6.77 g/m*3 9.84 C 0 km/h
2646 19-11-2009 05:00:00 9.22 C 6.88 g/m*3 9.22 C 0 km/h
2647 19-11-2009 06:00:00 9.56 C 7 g/m*3 9.56 C 0 km/h
2648 19-11-2009 07:00:00 9.76 C 6.89 g/m*3 9.76 C 0 km/h
2649 19-11-2009 08:00:00 9.84 C 6.79 g/m*3 9.84 C 0 km/h
2650 19-11-2009 09:00:00 9.92 C 6.64 g/m*3 9.92 C 0 km/h
Sensor: Nr:Datum:Temp:Abs-Feuchte:Windchill:Wind:
Aussen-T/F 2651 19-11-2009 10:00:00 9.82 C 6.47 g/m*3 9.82 C 0 km/h
2652 19-11-2009 11:00:00 10.5 C 6.23 g/m*3 10.5 C 0 km/h
2653 19-11-2009 12:00:00 12.02 C 6.12 g/m*3 12.02 C 0 km/h
2654 19-11-2009 13:00:00 13.92 C 5.74 g/m*3 13.92 C 0 km/h
2655 19-11-2009 14:00:00 14.84 C 5.94 g/m*3 14.84 C 0 km/h
2656 19-11-2009 15:00:00 12.46 C 6.27 g/m*3 12.46 C 0 km/h
2657 19-11-2009 16:00:00 10.88 C 6.46 g/m*3 10.88 C 0 km/h
2658 19-11-2009 17:00:00 9.5 C 6.43 g/m*3 9.5 C 0 km/h
2659 19-11-2009 18:00:00 8.54 C 6.45 g/m*3 8.54 C 0 km/h
2660 19-11-2009 19:00:00 7.86 C 6.52 g/m*3 7.86 C 0 km/h
2661 19-11-2009 20:00:00 7.74 C 6.44 g/m*3 7.74 C 0 km/h
2662 19-11-2009 21:00:00 6.5 C 6.31 g/m*3 6.5 C 0 km/h
2663 19-11-2009 22:00:00 5.96 C 6.27 g/m*3 5.96 C 0 km/h
2664 19-11-2009 23:00:00 5.42 C 6.19 g/m*3 5.42 C 0 km/h
2665 20-11-2009 00:00:00 4.92 C 6.07 g/m*3 4.92 C 0 km/h
2666 20-11-2009 01:00:00 4.58 C 6.01 g/m*3 4.58 C 0 km/h
2667 20-11-2009 02:00:00 4.22 C 5.9 g/m*3 4.22 C 0 km/h
2668 20-11-2009 03:00:00 3.88 C 5.84 g/m*3 3.88 C 0 km/h
2669 20-11-2009 04:00:00 3.58 C 5.75 g/m*3 3.58 C 0 km/h
2670 20-11-2009 05:00:00 3.42 C 5.74 g/m*3 3.42 C 0 km/h
2671 20-11-2009 06:00:00 3.08 C 5.62 g/m*3 3.08 C 0 km/h
2672 20-11-2009 07:00:00 3.02 C 5.66 g/m*3 3.02 C 0 km/h
2673 20-11-2009 08:00:00 2.86 C 5.6 g/m*3 2.86 C 0 km/h
2674 20-11-2009 09:00:00 3.44 C 5.82 g/m*3 3.44 C 0 km/h
2675 20-11-2009 10:00:00 4.86 C 6.4 g/m*3 4.86 C 0 km/h
Sensor: Nr:Datum:Temp:Abs-Feuchte:Windchill:Wind:
Aussen-T/F 2676 20-11-2009 11:00:00 6.16 C 6.95 g/m*3 6.16 C 0 km/h
2677 20-11-2009 12:00:00 9.26 C 8.39 g/m*3 9.26 C 0 km/h
2678 20-11-2009 13:00:00 13.54 C 7.93 g/m*3 13.54 C 0 km/h
2679 20-11-2009 14:00:00 15.22 C 6.52 g/m*3 15.22 C 0 km/h
2680 20-11-2009 15:00:00 14.48 C 6.83 g/m*3 14.48 C 0 km/h
2681 20-11-2009 16:00:00 12.7 C 7.35 g/m*3 12.7 C 0 km/h
2682 20-11-2009 17:00:00 11.76 C 7.56 g/m*3 11.76 C 0 km/h
2683 20-11-2009 18:00:00 11.48 C 7.74 g/m*3 11.48 C 0 km/h
2684 20-11-2009 19:00:00 11.04 C 7.75 g/m*3 11.04 C 0 km/h
2685 20-11-2009 20:00:00 10.56 C 7.67 g/m*3 10.56 C 0 km/h
2686 20-11-2009 21:00:00 10.56 C 7.73 g/m*3 10.56 C 0 km/h
2687 20-11-2009 22:00:00 10.38 C 7.78 g/m*3 10.38 C 0 km/h
2688 20-11-2009 23:00:00 10.1 C 7.74 g/m*3 10.1 C 0 km/h
2689 21-11-2009 00:00:00 10.04 C 7.78 g/m*3 10.04 C 0 km/h
2690 21-11-2009 01:00:00 10.22 C 7.79 g/m*3 10.22 C 0 km/h
2691 21-11-2009 02:00:00 10.04 C 7.82 g/m*3 10.04 C 0 km/h
2692 21-11-2009 03:00:00 10.1 C 7.81 g/m*3 10.1 C 0 km/h
2693 21-11-2009 04:00:00 10 C 7.84 g/m*3 10 C 0 km/h
2694 21-11-2009 05:00:00 9.48 C 7.69 g/m*3 9.48 C 0 km/h
2695 21-11-2009 06:00:00 9.34 C 7.75 g/m*3 9.34 C 0 km/h
2696 21-11-2009 07:00:00 9.38 C 7.93 g/m*3 9.38 C 0 km/h
2697 21-11-2009 08:00:00 9.42 C 8.11 g/m*3 9.42 C 0 km/h
2698 21-11-2009 09:00:00 9.82 C 8.3 g/m*3 9.82 C 0 km/h
2699 21-11-2009 10:00:00 10.4 C 8.48 g/m*3 10.4 C 0 km/h
2700 21-11-2009 11:00:00 12.16 C 9 g/m*3 12.16 C 0 km/h
Sensor: Nr:Datum:Temp:Abs-Feuchte:Windchill:Wind:
Aussen-T/F 2701 21-11-2009 12:00:00 13.88 C 8.41 g/m*3 13.88 C 0 km/h
2702 21-11-2009 13:00:00 14.42 C 8.56 g/m*3 14.42 C 0 km/h
2703 21-11-2009 14:00:00 15.2 C 7.71 g/m*3 15.2 C 0 km/h
2704 21-11-2009 15:00:00 15 C 7.74 g/m*3 15 C 0 km/h
2705 21-11-2009 16:00:00 14.22 C 7.36 g/m*3 14.22 C 0 km/h
2706 21-11-2009 17:00:00 13.42 C 7.17 g/m*3 13.42 C 0 km/h
2707 21-11-2009 18:00:00 12.56 C 7.2 g/m*3 12.56 C 0 km/h
2708 21-11-2009 19:00:00 12.38 C 7.27 g/m*3 12.38 C 0 km/h
2709 21-11-2009 20:00:00 12.18 C 7.09 g/m*3 12.18 C 0 km/h
2710 21-11-2009 21:00:00 12.14 C 6.92 g/m*3 12.14 C 0 km/h
2711 21-11-2009 22:00:00 12.36 C 6.82 g/m*3 12.36 C 0 km/h
2712 21-11-2009 23:00:00 12 C 7.01 g/m*3 12 C 0 km/h
2713 22-11-2009 00:00:00 11.62 C 7.24 g/m*3 11.62 C 0 km/h
2714 22-11-2009 01:00:00 11.02 C 7.54 g/m*3 11.02 C 0 km/h
2715 22-11-2009 02:00:00 10.8 C 7.45 g/m*3 10.8 C 0 km/h
2716 22-11-2009 03:00:00 11.36 C 6.82 g/m*3 11.36 C 0 km/h
2717 22-11-2009 04:00:00 10.5 C 7.06 g/m*3 10.5 C 0 km/h
2718 22-11-2009 05:00:00 10.18 C 7.07 g/m*3 10.18 C 0 km/h
2719 22-11-2009 06:00:00 9.98 C 7.28 g/m*3 9.98 C 0 km/h
2720 22-11-2009 07:00:00 9.82 C 7.3 g/m*3 9.82 C 0 km/h
2721 22-11-2009 08:00:00 11.7 C 7.45 g/m*3 11.7 C 0 km/h
2722 22-11-2009 09:00:00 13.92 C 7.27 g/m*3 13.92 C 0 km/h
2723 22-11-2009 10:00:00 13.9 C 6.57 g/m*3 13.9 C 0 km/h
2724 22-11-2009 11:00:00 13.88 C 6.01 g/m*3 13.88 C 0 km/h
2725 22-11-2009 12:00:00 13.72 C 6.07 g/m*3 13.72 C 0 km/h
Sensor: Nr:Datum:Temp:Abs-Feuchte:Windchill:Wind:
Aussen-T/F 2726 22-11-2009 13:00:00 13.82 C 5.96 g/m*3 13.82 C 0 km/h
2727 22-11-2009 14:00:00 14 C 5.65 g/m*3 14 C 0 km/h
2728 22-11-2009 15:00:00 13.28 C 5.47 g/m*3 13.28 C 0 km/h
2729 22-11-2009 16:00:00 12.66 C 5.57 g/m*3 12.66 C 0 km/h
2730 22-11-2009 17:00:00 11.58 C 5.69 g/m*3 11.58 C 0 km/h
2731 22-11-2009 18:00:00 11.68 C 5.58 g/m*3 11.68 C 0 km/h
2732 22-11-2009 19:00:00 12.1 C 5.47 g/m*3 12.1 C 0 km/h
2733 22-11-2009 20:00:00 11.02 C 6.65 g/m*3 11.02 C 0 km/h
2734 22-11-2009 21:00:00 10.82 C 5.94 g/m*3 10.82 C 0 km/h
2735 22-11-2009 22:00:00 10.56 C 5.51 g/m*3 10.56 C 0 km/h
2736 22-11-2009 23:00:00 10.28 C 5.66 g/m*3 10.28 C 0 km/h
2737 23-11-2009 00:00:00 10.32 C 5.41 g/m*3 10.32 C 0 km/h
2738 23-11-2009 01:00:00 8.76 C 6.48 g/m*3 8.76 C 0 km/h
2739 23-11-2009 02:00:00 8.62 C 6.25 g/m*3 8.62 C 0 km/h
2740 23-11-2009 03:00:00 8.52 C 6.07 g/m*3 8.52 C 0 km/h
2741 23-11-2009 04:00:00 8.7 C 5.85 g/m*3 8.7 C 0 km/h
2742 23-11-2009 05:00:00 8.76 C 5.94 g/m*3 8.76 C 0 km/h
2743 23-11-2009 06:00:00 9.04 C 5.9 g/m*3 9.04 C 0 km/h
2744 23-11-2009 07:00:00 8.94 C 6.15 g/m*3 8.94 C 0 km/h
2745 23-11-2009 08:00:00 9.48 C 6.05 g/m*3 9.48 C 0 km/h
2746 23-11-2009 09:00:00 9.94 C 6.18 g/m*3 9.94 C 0 km/h
2747 23-11-2009 10:00:00 10.4 C 6.19 g/m*3 10.4 C 0 km/h
2748 23-11-2009 11:00:00 10.82 C 6.49 g/m*3 10.82 C 0 km/h
2749 23-11-2009 12:00:00 11.22 C 6.74 g/m*3 11.22 C 0 km/h
2750 23-11-2009 13:00:00 10.58 C 7.45 g/m*3 10.58 C 0 km/h
Sensor: Nr:Datum:Temp:Abs-Feuchte:Windchill:Wind:
Aussen-T/F 2751 23-11-2009 14:00:00 11.12 C 7.77 g/m*3 11.12 C 0 km/h
2752 23-11-2009 15:00:00 11.32 C 8.01 g/m*3 11.32 C 0 km/h
2753 23-11-2009 16:00:00 11.2 C 8.09 g/m*3 11.2 C 0 km/h
2754 23-11-2009 17:00:00 10.98 C 8.2 g/m*3 10.98 C 0 km/h
2755 23-11-2009 18:00:00 11.7 C 7.91 g/m*3 11.7 C 0 km/h
2756 23-11-2009 19:00:00 11.72 C 7.83 g/m*3 11.72 C 0 km/h
2757 23-11-2009 20:00:00 11.74 C 7.95 g/m*3 11.74 C 0 km/h
2758 23-11-2009 21:00:00 11.44 C 8.31 g/m*3 11.44 C 0 km/h
2759 23-11-2009 22:00:00 11.98 C 8.05 g/m*3 11.98 C 0 km/h
2760 23-11-2009 23:00:00 10.72 C 7.81 g/m*3 10.72 C 0 km/h
2761 24-11-2009 00:00:00 11.14 C 6.32 g/m*3 11.14 C 0 km/h
2762 24-11-2009 01:00:00 11.1 C 6.39 g/m*3 11.1 C 0 km/h
2763 24-11-2009 02:00:00 11.08 C 6.2 g/m*3 11.08 C 0 km/h
2764 24-11-2009 03:00:00 10.76 C 6.21 g/m*3 10.76 C 0 km/h
2765 24-11-2009 04:00:00 10.54 C 6.3 g/m*3 10.54 C 0 km/h
2766 24-11-2009 05:00:00 10.52 C 6.41 g/m*3 10.52 C 0 km/h
2767 24-11-2009 06:00:00 10.4 C 6.53 g/m*3 10.4 C 0 km/h
2768 24-11-2009 07:00:00 10.2 C 6.38 g/m*3 10.2 C 0 km/h
2769 24-11-2009 08:00:00 9.5 C 6.35 g/m*3 9.5 C 0 km/h
2770 24-11-2009 09:00:00 10.02 C 6.53 g/m*3 10.02 C 0 km/h
2771 24-11-2009 10:00:00 10.42 C 7.16 g/m*3 10.42 C 0 km/h
2772 24-11-2009 11:00:00 11.28 C 7.93 g/m*3 11.28 C 0 km/h
2773 24-11-2009 12:00:00 11.92 C 8.74 g/m*3 11.92 C 0 km/h
2774 24-11-2009 13:00:00 13.12 C 9.28 g/m*3 13.12 C 0 km/h
2775 24-11-2009 14:00:00 14.2 C 8.5 g/m*3 14.2 C 0 km/h
Sensor: Nr:Datum:Temp:Abs-Feuchte:Windchill:Wind:
Aussen-T/F 2776 24-11-2009 15:00:00 13.78 C 8.38 g/m*3 13.78 C 0 km/h
2777 24-11-2009 16:00:00 13.34 C 8.25 g/m*3 13.34 C 0 km/h
2778 24-11-2009 17:00:00 13.26 C 8.21 g/m*3 13.26 C 0 km/h
2779 24-11-2009 18:00:00 13.06 C 8.29 g/m*3 13.06 C 0 km/h
2780 24-11-2009 19:00:00 13.04 C 8.07 g/m*3 13.04 C 0 km/h
2781 24-11-2009 20:00:00 13.1 C 7.85 g/m*3 13.1 C 0 km/h
2782 24-11-2009 21:00:00 13.28 C 7.64 g/m*3 13.28 C 0 km/h
2783 24-11-2009 22:00:00 13.32 C 7.36 g/m*3 13.32 C 0 km/h
2784 24-11-2009 23:00:00 13.18 C 6.88 g/m*3 13.18 C 0 km/h
2785 25-11-2009 00:00:00 13.18 C 6.54 g/m*3 13.18 C 0 km/h
2786 25-11-2009 01:00:00 13.04 C 6.78 g/m*3 13.04 C 0 km/h
2787 25-11-2009 02:00:00 12.9 C 6.99 g/m*3 12.9 C 0 km/h
2788 25-11-2009 03:00:00 13.02 C 6.56 g/m*3 13.02 C 0 km/h
2789 25-11-2009 04:00:00 12.88 C 6.37 g/m*3 12.88 C 0 km/h
2790 25-11-2009 05:00:00 12.4 C 6.29 g/m*3 12.4 C 0 km/h
2791 25-11-2009 06:00:00 11.54 C 6.34 g/m*3 11.54 C 0 km/h
2792 25-11-2009 07:00:00 10.64 C 6.28 g/m*3 10.64 C 0 km/h
2793 25-11-2009 08:00:00 9.5 C 6.3 g/m*3 9.5 C 0 km/h
2794 25-11-2009 09:00:00 9.6 C 6.38 g/m*3 9.6 C 0 km/h
2795 25-11-2009 10:00:00 11.14 C 6.2 g/m*3 11.14 C 0 km/h
2796 25-11-2009 11:00:00 12.14 C 6.13 g/m*3 12.14 C 0 km/h
2797 25-11-2009 12:00:00 13.78 C 5.47 g/m*3 13.78 C 0 km/h
2798 25-11-2009 13:00:00 14.92 C 4.9 g/m*3 14.92 C 0 km/h
2799 25-11-2009 14:00:00 15.16 C 4.66 g/m*3 15.16 C 0 km/h
2800 25-11-2009 15:00:00 14.54 C 4.89 g/m*3 14.54 C 0 km/h
Sensor: Nr:Datum:Temp:Abs-Feuchte:Windchill:Wind:
Aussen-T/F 2801 25-11-2009 16:00:00 14.02 C 4.93 g/m*3 14.02 C 0 km/h
2802 25-11-2009 17:00:00 13.36 C 5.36 g/m*3 13.36 C 0 km/h
2803 25-11-2009 18:00:00 11.82 C 6.74 g/m*3 11.82 C 0 km/h
2804 25-11-2009 19:00:00 10.1 C 7.74 g/m*3 10.1 C 0 km/h
2805 25-11-2009 20:00:00 10.2 C 7.59 g/m*3 10.2 C 0 km/h
2806 25-11-2009 21:00:00 10.22 C 7.22 g/m*3 10.22 C 0 km/h
2807 25-11-2009 22:00:00 10.08 C 6.86 g/m*3 10.08 C 0 km/h
2808 25-11-2009 23:00:00 9.92 C 6.66 g/m*3 9.92 C 0 km/h
2809 26-11-2009 00:00:00 9.78 C 6.47 g/m*3 9.78 C 0 km/h
2810 26-11-2009 01:00:00 9.46 C 6.17 g/m*3 9.46 C 0 km/h
2811 26-11-2009 02:00:00 9.12 C 5.81 g/m*3 9.12 C 0 km/h
2812 26-11-2009 03:00:00 9.44 C 5.82 g/m*3 9.44 C 0 km/h
2813 26-11-2009 04:00:00 9.52 C 5.69 g/m*3 9.52 C 0 km/h
2814 26-11-2009 05:00:00 9.66 C 5.52 g/m*3 9.66 C 0 km/h
2815 26-11-2009 06:00:00 9.62 C 5.5 g/m*3 9.62 C 0 km/h
2816 26-11-2009 07:00:00 9.74 C 5.45 g/m*3 9.74 C 0 km/h
2817 26-11-2009 08:00:00 9.9 C 5.45 g/m*3 9.9 C 0 km/h
2818 26-11-2009 09:00:00 9.98 C 5.39 g/m*3 9.98 C 0 km/h
2819 26-11-2009 10:00:00 10.2 C 5.25 g/m*3 10.2 C 0 km/h
2820 26-11-2009 11:00:00 10.82 C 5.21 g/m*3 10.82 C 0 km/h
2821 26-11-2009 12:00:00 11.14 C 5.29 g/m*3 11.14 C 0 km/h
2822 26-11-2009 13:00:00 11.34 C 5.64 g/m*3 11.34 C 0 km/h
2823 26-11-2009 14:00:00 10.7 C 5.8 g/m*3 10.7 C 0 km/h
2824 26-11-2009 15:00:00 10.74 C 5.71 g/m*3 10.74 C 0 km/h
2825 26-11-2009 16:00:00 10.16 C 5.39 g/m*3 10.16 C 0 km/h
Sensor: Nr:Datum:Temp:Abs-Feuchte:Windchill:Wind:
Aussen-T/F 2826 26-11-2009 17:00:00 9.88 C 5.58 g/m*3 9.88 C 0 km/h
2827 26-11-2009 18:00:00 10.02 C 5.65 g/m*3 10.02 C 0 km/h
2828 26-11-2009 19:00:00 9.56 C 6.1 g/m*3 9.56 C 0 km/h
2829 26-11-2009 20:00:00 8.66 C 6.69 g/m*3 8.66 C 0 km/h
2830 26-11-2009 21:00:00 9.76 C 5.96 g/m*3 9.76 C 0 km/h
2831 26-11-2009 22:00:00 10.1 C 5.83 g/m*3 10.1 C 0 km/h
2832 26-11-2009 23:00:00 10.44 C 5.76 g/m*3 10.44 C 0 km/h
2833 27-11-2009 00:00:00 10.66 C 5.82 g/m*3 10.66 C 0 km/h
2834 27-11-2009 01:00:00 10.76 C 5.94 g/m*3 10.76 C 0 km/h
2835 27-11-2009 02:00:00 10.96 C 5.71 g/m*3 10.96 C 0 km/h
2836 27-11-2009 03:00:00 10.8 C 5.63 g/m*3 10.8 C 0 km/h
2837 27-11-2009 04:00:00 9.44 C 5.98 g/m*3 9.44 C 0 km/h
2838 27-11-2009 05:00:00 9.04 C 6.1 g/m*3 9.04 C 0 km/h
2839 27-11-2009 06:00:00 8.2 C 6.63 g/m*3 8.2 C 0 km/h
2840 27-11-2009 07:00:00 7.52 C 6.86 g/m*3 7.52 C 0 km/h
2841 27-11-2009 08:00:00 8.16 C 6.38 g/m*3 8.16 C 0 km/h
2842 27-11-2009 09:00:00 8.58 C 5.66 g/m*3 8.58 C 0 km/h
2843 27-11-2009 10:00:00 9.06 C 5.56 g/m*3 9.06 C 0 km/h
2844 27-11-2009 11:00:00 9.44 C 5.51 g/m*3 9.44 C 0 km/h
2845 27-11-2009 12:00:00 9.22 C 5.44 g/m*3 9.22 C 0 km/h
2846 27-11-2009 13:00:00 9.84 C 5.26 g/m*3 9.84 C 0 km/h
2847 27-11-2009 14:00:00 9.76 C 5 g/m*3 9.76 C 0 km/h
2848 27-11-2009 15:00:00 9.36 C 5.14 g/m*3 9.36 C 0 km/h
2849 27-11-2009 16:00:00 8.6 C 5.29 g/m*3 8.6 C 0 km/h
2850 27-11-2009 17:00:00 8.4 C 4.92 g/m*3 8.4 C 0 km/h
Sensor: Nr:Datum:Temp:Abs-Feuchte:Windchill:Wind:
Aussen-T/F 2851 27-11-2009 18:00:00 8.44 C 4.92 g/m*3 8.44 C 0 km/h
2852 27-11-2009 19:00:00 8.46 C 5.04 g/m*3 8.46 C 0 km/h
2853 27-11-2009 20:00:00 8.2 C 5.11 g/m*3 8.2 C 0 km/h
2854 27-11-2009 21:00:00 8.16 C 5.13 g/m*3 8.16 C 0 km/h
2855 27-11-2009 22:00:00 8.04 C 5.16 g/m*3 8.04 C 0 km/h
2856 27-11-2009 23:00:00 7.92 C 5.46 g/m*3 7.92 C 0 km/h
2857 28-11-2009 00:00:00 7.86 C 5.34 g/m*3 7.86 C 0 km/h
2858 28-11-2009 01:00:00 7.34 C 5.85 g/m*3 7.34 C 0 km/h
2859 28-11-2009 02:00:00 7.58 C 5.58 g/m*3 7.58 C 0 km/h
2860 28-11-2009 03:00:00 7.96 C 5.38 g/m*3 7.96 C 0 km/h
2861 28-11-2009 04:00:00 7.66 C 5.27 g/m*3 7.66 C 0 km/h
2862 28-11-2009 05:00:00 7.36 C 5.63 g/m*3 7.36 C 0 km/h
2863 28-11-2009 06:00:00 7.46 C 5.72 g/m*3 7.46 C 0 km/h
2864 28-11-2009 07:00:00 7.36 C 5.63 g/m*3 7.36 C 0 km/h
2865 28-11-2009 08:00:00 7.38 C 5.7 g/m*3 7.38 C 0 km/h
2866 28-11-2009 09:00:00 8.14 C 5.76 g/m*3 8.14 C 0 km/h
2867 28-11-2009 10:00:00 8.74 C 5.86 g/m*3 8.74 C 0 km/h
2868 28-11-2009 11:00:00 9.52 C 5.76 g/m*3 9.52 C 0 km/h
2869 28-11-2009 12:00:00 8.44 C 6.36 g/m*3 8.44 C 0 km/h
2870 28-11-2009 13:00:00 8.8 C 6.37 g/m*3 8.8 C 0 km/h
2871 28-11-2009 14:00:00 9.28 C 6.19 g/m*3 9.28 C 0 km/h
2872 28-11-2009 15:00:00 9.28 C 6.35 g/m*3 9.28 C 0 km/h
2873 28-11-2009 16:00:00 9.44 C 6.55 g/m*3 9.44 C 0 km/h
2874 28-11-2009 17:00:00 9.64 C 6.52 g/m*3 9.64 C 0 km/h
2875 28-11-2009 18:00:00 9.84 C 6.55 g/m*3 9.84 C 0 km/h
Sensor: Nr:Datum:Temp:Abs-Feuchte:Windchill:Wind:
Aussen-T/F 2876 28-11-2009 19:00:00 9.9 C 6.67 g/m*3 9.9 C 0 km/h
2877 28-11-2009 20:00:00 10.3 C 6.45 g/m*3 10.3 C 0 km/h
2878 28-11-2009 21:00:00 10.74 C 6.16 g/m*3 10.74 C 0 km/h
2879 28-11-2009 22:00:00 10.6 C 5.7 g/m*3 10.6 C 0 km/h
2880 28-11-2009 23:00:00 10.34 C 5.55 g/m*3 10.34 C 0 km/h
2881 29-11-2009 00:00:00 9.64 C 5.38 g/m*3 9.64 C 0 km/h
2882 29-11-2009 01:00:00 10.12 C 5.09 g/m*3 10.12 C 0 km/h
2883 29-11-2009 02:00:00 10.64 C 4.81 g/m*3 10.64 C 0 km/h
2884 29-11-2009 03:00:00 10 C 4.81 g/m*3 10 C 0 km/h
2885 29-11-2009 04:00:00 8.6 C 5.04 g/m*3 8.6 C 0 km/h
2886 29-11-2009 05:00:00 8.34 C 5 g/m*3 8.34 C 0 km/h
2887 29-11-2009 06:00:00 8.14 C 4.91 g/m*3 8.14 C 0 km/h
2888 29-11-2009 07:00:00 8.12 C 4.9 g/m*3 8.12 C 0 km/h
2889 29-11-2009 08:00:00 8.62 C 5.21 g/m*3 8.62 C 0 km/h
2890 29-11-2009 09:00:00 9.44 C 5.31 g/m*3 9.44 C 0 km/h
2891 29-11-2009 10:00:00 10.44 C 5.37 g/m*3 10.44 C 0 km/h
2892 29-11-2009 11:00:00 11.4 C 5.21 g/m*3 11.4 C 0 km/h
2893 29-11-2009 12:00:00 12.5 C 5.23 g/m*3 12.5 C 0 km/h
2894 29-11-2009 13:00:00 13.32 C 5.53 g/m*3 13.32 C 0 km/h
2895 29-11-2009 14:00:00 10.94 C 6.98 g/m*3 10.94 C 0 km/h
2896 29-11-2009 15:00:00 10.14 C 7.24 g/m*3 10.14 C 0 km/h
2897 29-11-2009 16:00:00 9.68 C 7.2 g/m*3 9.68 C 0 km/h
2898 29-11-2009 17:00:00 9.16 C 7.32 g/m*3 9.16 C 0 km/h
2899 29-11-2009 18:00:00 8.42 C 7.27 g/m*3 8.42 C 0 km/h
2900 29-11-2009 19:00:00 8.16 C 7.42 g/m*3 8.16 C 0 km/h
Sensor: Nr:Datum:Temp:Abs-Feuchte:Windchill:Wind:
Aussen-T/F 2901 29-11-2009 20:00:00 8 C 7.54 g/m*3 8 C 0 km/h
2902 29-11-2009 21:00:00 7.5 C 7.4 g/m*3 7.5 C 0 km/h
2903 29-11-2009 22:00:00 7.175 C 7.31 g/m*3 7.18 C 0 km/h
2904 29-11-2009 23:00:00 7.04 C 7.3 g/m*3 7.04 C 0 km/h
2905 30-11-2009 00:00:00 6.68 C 7.21 g/m*3 6.68 C 0 km/h
2906 30-11-2009 01:00:00 6.38 C 7.07 g/m*3 6.38 C 0 km/h
2907 30-11-2009 02:00:00 6.24 C 7 g/m*3 6.24 C 0 km/h
2908 30-11-2009 03:00:00 6.18 C 6.82 g/m*3 6.18 C 0 km/h
2909 30-11-2009 04:00:00 6.22 C 6.64 g/m*3 6.22 C 0 km/h
2910 30-11-2009 05:00:00 6.34 C 6.66 g/m*3 6.34 C 0 km/h
2911 30-11-2009 06:00:00 6.26 C 6.6 g/m*3 6.26 C 0 km/h
2912 30-11-2009 07:00:00 5.96 C 6.38 g/m*3 5.96 C 0 km/h
2913 30-11-2009 08:00:00 5.66 C 6.37 g/m*3 5.66 C 0 km/h
2914 30-11-2009 09:00:00 6.16 C 6.57 g/m*3 6.16 C 0 km/h
2915 30-11-2009 10:00:00 6.74 C 6.45 g/m*3 6.74 C 0 km/h
2916 30-11-2009 11:00:00 7.38 C 6.21 g/m*3 7.38 C 0 km/h
2917 30-11-2009 12:00:00 7.8 C 6.02 g/m*3 7.8 C 0 km/h
2918 30-11-2009 13:00:00 8.1 C 5.82 g/m*3 8.1 C 0 km/h
2919 30-11-2009 14:00:00 8.32 C 5.67 g/m*3 8.32 C 0 km/h
2920 30-11-2009 15:00:00 7.88 C 5.76 g/m*3 7.88 C 0 km/h
2921 30-11-2009 16:00:00 6.66 C 5.84 g/m*3 6.66 C 0 km/h
2922 30-11-2009 17:00:00 5.98 C 5.93 g/m*3 5.98 C 0 km/h
2923 30-11-2009 18:00:00 6 C 6.04 g/m*3 6 C 0 km/h
2924 30-11-2009 19:00:00 5.94 C 6.07 g/m*3 5.94 C 0 km/h
2925 30-11-2009 20:00:00 5.86 C 6.11 g/m*3 5.86 C 0 km/h
Sensor: Nr:Datum:Temp:Abs-Feuchte:Windchill:Wind:
Aussen-T/F 2926 30-11-2009 21:00:00 5.58 C 6.04 g/m*3 5.58 C 0 km/h
2927 30-11-2009 22:00:00 5.32 C 6.01 g/m*3 5.32 C 0 km/h
2928 30-11-2009 23:00:00 5.4 C 6.08 g/m*3 5.4 C 0 km/h
2929 01-12-2009 00:00:00 5.58 C 6.16 g/m*3 5.58 C 0 km/h
2930 01-12-2009 01:00:00 5.48 C 6.1 g/m*3 5.48 C 0 km/h
2931 01-12-2009 02:00:00 5.4 C 6.11 g/m*3 5.4 C 0 km/h
2932 01-12-2009 03:00:00 5.28 C 5.91 g/m*3 5.28 C 0 km/h
2933 01-12-2009 04:00:00 4.82 C 5.75 g/m*3 4.82 C 0 km/h
2934 01-12-2009 05:00:00 4.96 C 5.91 g/m*3 4.96 C 0 km/h
2935 01-12-2009 06:00:00 5.06 C 5.94 g/m*3 5.06 C 0 km/h
2936 01-12-2009 07:00:00 4.98 C 5.96 g/m*3 4.98 C 0 km/h
2937 01-12-2009 08:00:00 4.84 C 5.96 g/m*3 4.84 C 0 km/h
2938 01-12-2009 09:00:00 5.2 C 6.06 g/m*3 5.2 C 0 km/h
2939 01-12-2009 10:00:00 5.66 C 6.12 g/m*3 5.66 C 0 km/h
2940 01-12-2009 11:00:00 6.34 C 6.03 g/m*3 6.34 C 0 km/h
2941 01-12-2009 12:00:00 6.82 C 5.84 g/m*3 6.82 C 0 km/h
2942 01-12-2009 13:00:00 6.9 C 5.76 g/m*3 6.9 C 0 km/h
2943 01-12-2009 14:00:00 6.8 C 5.78 g/m*3 6.8 C 0 km/h
2944 01-12-2009 15:00:00 6.58 C 5.87 g/m*3 6.58 C 0 km/h
2945 01-12-2009 16:00:00 6.2 C 5.81 g/m*3 6.2 C 0 km/h
2946 01-12-2009 17:00:00 5.86 C 5.85 g/m*3 5.86 C 0 km/h
2947 01-12-2009 18:00:00 5.74 C 5.91 g/m*3 5.74 C 0 km/h
2948 01-12-2009 19:00:00 5.64 C 5.88 g/m*3 5.64 C 0 km/h
2949 01-12-2009 20:00:00 5.54 C 5.84 g/m*3 5.54 C 0 km/h
2950 01-12-2009 21:00:00 5.44 C 5.89 g/m*3 5.44 C 0 km/h
Sensor: Nr:Datum:Temp:Abs-Feuchte:Windchill:Wind:
Aussen-T/F 2951 01-12-2009 22:00:00 5.42 C 5.94 g/m*3 5.42 C 0 km/h
2952 01-12-2009 23:00:00 5.2 C 5.77 g/m*3 5.2 C 0 km/h
2953 02-12-2009 00:00:00 5.16 C 5.58 g/m*3 5.16 C 0 km/h
2954 02-12-2009 01:00:00 4.58 C 5.47 g/m*3 4.58 C 0 km/h
2955 02-12-2009 02:00:00 4.64 C 5.65 g/m*3 4.64 C 0 km/h
2956 02-12-2009 03:00:00 4.82 C 5.8 g/m*3 4.82 C 0 km/h
2957 02-12-2009 04:00:00 4.92 C 5.89 g/m*3 4.92 C 0 km/h
2958 02-12-2009 05:00:00 4.88 C 5.86 g/m*3 4.88 C 0 km/h
2959 02-12-2009 06:00:00 4.94 C 5.89 g/m*3 4.94 C 0 km/h
2960 02-12-2009 07:00:00 5.08 C 5.96 g/m*3 5.08 C 0 km/h
2961 02-12-2009 08:00:00 4.72 C 5.83 g/m*3 4.72 C 0 km/h
2962 02-12-2009 09:00:00 4.54 C 5.69 g/m*3 4.54 C 0 km/h
2963 02-12-2009 10:00:00 5.04 C 5.31 g/m*3 5.04 C 0 km/h
2964 02-12-2009 11:00:00 5.64 C 4.86 g/m*3 5.64 C 0 km/h
2965 02-12-2009 12:00:00 7.06 C 4.37 g/m*3 7.06 C 0 km/h
2966 02-12-2009 13:00:00 7.74 C 4.28 g/m*3 7.74 C 0 km/h
2967 02-12-2009 14:00:00 7.88 C 4.32 g/m*3 7.88 C 0 km/h
2968 02-12-2009 15:00:00 7.62 C 4.28 g/m*3 7.62 C 0 km/h
2969 02-12-2009 16:00:00 7.08 C 4.3 g/m*3 7.08 C 0 km/h
2970 02-12-2009 17:00:00 6.66 C 4.52 g/m*3 6.66 C 0 km/h
2971 02-12-2009 18:00:00 6.46 C 4.65 g/m*3 6.46 C 0 km/h
2972 02-12-2009 19:00:00 6.56 C 4.83 g/m*3 6.56 C 0 km/h
2973 02-12-2009 20:00:00 6.56 C 5.04 g/m*3 6.56 C 0 km/h
2974 02-12-2009 21:00:00 6.92 C 5.09 g/m*3 6.92 C 0 km/h
2975 02-12-2009 22:00:00 6.96 C 5.21 g/m*3 6.96 C 0 km/h
Sensor: Nr:Datum:Temp:Abs-Feuchte:Windchill:Wind:
Aussen-T/F 2976 02-12-2009 23:00:00 6.58 C 5.34 g/m*3 6.58 C 0 km/h
2977 03-12-2009 00:00:00 6.84 C 5.41 g/m*3 6.84 C 0 km/h
2978 03-12-2009 01:00:00 7.12 C 5.29 g/m*3 7.12 C 0 km/h
2979 03-12-2009 02:00:00 7.24 C 5.27 g/m*3 7.24 C 0 km/h
2980 03-12-2009 03:00:00 7.46 C 5.49 g/m*3 7.46 C 0 km/h
2981 03-12-2009 04:00:00 7.94 C 5.85 g/m*3 7.94 C 0 km/h
2982 03-12-2009 05:00:00 7.48 C 6.27 g/m*3 7.48 C 0 km/h
2983 03-12-2009 06:00:00 7.86 C 6.34 g/m*3 7.86 C 0 km/h
2984 03-12-2009 07:00:00 7.5 C 6.29 g/m*3 7.5 C 0 km/h
2985 03-12-2009 08:00:00 7.84 C 6.27 g/m*3 7.84 C 0 km/h
2986 03-12-2009 09:00:00 8.1 C 6.46 g/m*3 8.1 C 0 km/h
2987 03-12-2009 10:00:00 9.14 C 6.44 g/m*3 9.14 C 0 km/h
2988 03-12-2009 11:00:00 10.1 C 6.34 g/m*3 10.1 C 0 km/h
2989 03-12-2009 12:00:00 10.38 C 6.22 g/m*3 10.38 C 0 km/h
2990 03-12-2009 13:00:00 10.54 C 6.18 g/m*3 10.54 C 0 km/h
2991 03-12-2009 14:00:00 10.46 C 6.13 g/m*3 10.46 C 0 km/h
2992 03-12-2009 15:00:00 9.72 C 6.3 g/m*3 9.72 C 0 km/h
2993 03-12-2009 16:00:00 9.38 C 6.18 g/m*3 9.38 C 0 km/h
2994 03-12-2009 17:00:00 9.3 C 6.2 g/m*3 9.3 C 0 km/h
2995 03-12-2009 18:00:00 8.72 C 6.48 g/m*3 8.72 C 0 km/h
2996 03-12-2009 19:00:00 9.08 C 6.24 g/m*3 9.08 C 0 km/h
2997 03-12-2009 20:00:00 9.14 C 5.96 g/m*3 9.14 C 0 km/h
2998 03-12-2009 21:00:00 8.58 C 5.94 g/m*3 8.58 C 0 km/h
2999 03-12-2009 22:00:00 8.28 C 6.03 g/m*3 8.28 C 0 km/h
3000 03-12-2009 23:00:00 6.68 C 5.99 g/m*3 6.68 C 0 km/h
Sensor: Nr:Datum:Temp:Abs-Feuchte:Windchill:Wind:
Aussen-T/F 3001 04-12-2009 00:00:00 6.68 C 5.4 g/m*3 6.68 C 0 km/h
3002 04-12-2009 01:00:00 6.26 C 5.09 g/m*3 6.26 C 0 km/h
3003 04-12-2009 02:00:00 5.84 C 5.07 g/m*3 5.84 C 0 km/h
3004 04-12-2009 03:00:00 5.46 C 5.17 g/m*3 5.46 C 0 km/h
3005 04-12-2009 04:00:00 5.06 C 4.75 g/m*3 5.06 C 0 km/h
3006 04-12-2009 05:00:00 3.7 C 4.5 g/m*3 3.7 C 0 km/h
3007 04-12-2009 06:00:00 3.22 C 4.67 g/m*3 3.22 C 0 km/h
3008 04-12-2009 07:00:00 3.72 C 4.56 g/m*3 3.72 C 0 km/h
3009 04-12-2009 08:00:00 3.08 C 4.58 g/m*3 3.08 C 0 km/h
3010 04-12-2009 09:00:00 4.06 C 4.51 g/m*3 4.06 C 0 km/h
3011 04-12-2009 10:00:00 4.1 C 4.13 g/m*3 4.1 C 0 km/h
3012 04-12-2009 11:00:00 4.16 C 4.09 g/m*3 4.16 C 0 km/h
3013 04-12-2009 12:00:00 5.26 C 4.13 g/m*3 5.26 C 0 km/h
3014 04-12-2009 13:00:00 5.04 C 3.9 g/m*3 5.04 C 0 km/h
3015 04-12-2009 14:00:00 4.9 C 3.77 g/m*3 4.9 C 0 km/h
3016 04-12-2009 15:00:00 4.72 C 3.64 g/m*3 4.72 C 0 km/h
3017 04-12-2009 16:00:00 4.88 C 3.78 g/m*3 4.88 C 0 km/h
3018 04-12-2009 17:00:00 4.74 C 3.99 g/m*3 4.74 C 0 km/h
3019 04-12-2009 18:00:00 4.84 C 4.14 g/m*3 4.84 C 0 km/h
3020 04-12-2009 19:00:00 5.02 C 4.12 g/m*3 5.02 C 0 km/h
3021 04-12-2009 20:00:00 5.02 C 4.22 g/m*3 5.02 C 0 km/h
3022 04-12-2009 21:00:00 5.12 C 4.31 g/m*3 5.12 C 0 km/h
3023 04-12-2009 22:00:00 5.14 C 4.27 g/m*3 5.14 C 0 km/h
3024 04-12-2009 23:00:00 3.72 C 4.12 g/m*3 3.72 C 0 km/h
3025 05-12-2009 00:00:00 2.68 C 4.28 g/m*3 2.68 C 0 km/h
Sensor: Nr:Datum:Temp:Abs-Feuchte:Windchill:Wind:
Aussen-T/F 3026 05-12-2009 01:00:00 2.96 C 4.35 g/m*3 2.96 C 0 km/h
3027 05-12-2009 02:00:00 2.78 C 4.3 g/m*3 2.78 C 0 km/h
3028 05-12-2009 03:00:00 3.02 C 4.37 g/m*3 3.02 C 0 km/h
3029 05-12-2009 04:00:00 3.3 C 4.34 g/m*3 3.3 C 0 km/h
3030 05-12-2009 05:00:00 3.36 C 4.32 g/m*3 3.36 C 0 km/h
3031 05-12-2009 06:00:00 3.46 C 4.26 g/m*3 3.46 C 0 km/h
3032 05-12-2009 07:00:00 3.7 C 4.13 g/m*3 3.7 C 0 km/h
3033 05-12-2009 08:00:00 4.02 C 4.05 g/m*3 4.02 C 0 km/h
3034 05-12-2009 09:00:00 4.34 C 4.12 g/m*3 4.34 C 0 km/h
3035 05-12-2009 10:00:00 5.02 C 4.16 g/m*3 5.02 C 0 km/h
3036 05-12-2009 11:00:00 5.4 C 4.62 g/m*3 5.4 C 0 km/h
3037 05-12-2009 12:00:00 6.26 C 4.93 g/m*3 6.26 C 0 km/h
3038 05-12-2009 13:00:00 6.82 C 5.24 g/m*3 6.82 C 0 km/h
3039 05-12-2009 14:00:00 7.1 C 5.46 g/m*3 7.1 C 0 km/h
3040 05-12-2009 15:00:00 6.44 C 5.77 g/m*3 6.44 C 0 km/h
3041 05-12-2009 16:00:00 6.14 C 6.07 g/m*3 6.14 C 0 km/h
3042 05-12-2009 17:00:00 6.54 C 6.35 g/m*3 6.54 C 0 km/h
3043 05-12-2009 18:00:00 7.26 C 6.26 g/m*3 7.26 C 0 km/h
3044 05-12-2009 19:00:00 7.4 C 6.38 g/m*3 7.4 C 0 km/h
3045 05-12-2009 20:00:00 7.68 C 6.62 g/m*3 7.68 C 0 km/h
3046 05-12-2009 21:00:00 7.86 C 6.75 g/m*3 7.86 C 0 km/h
3047 05-12-2009 22:00:00 7.86 C 6.8 g/m*3 7.86 C 0 km/h
3048 05-12-2009 23:00:00 8.14 C 6.89 g/m*3 8.14 C 0 km/h
3049 06-12-2009 00:00:00 8.96 C 7.03 g/m*3 8.96 C 0 km/h
3050 06-12-2009 01:00:00 9.38 C 7.14 g/m*3 9.38 C 0 km/h
Sensor: Nr:Datum:Temp:Abs-Feuchte:Windchill:Wind:
Aussen-T/F 3051 06-12-2009 02:00:00 9.64 C 7.16 g/m*3 9.64 C 0 km/h
3052 06-12-2009 03:00:00 9.9 C 7.11 g/m*3 9.9 C 0 km/h
3053 06-12-2009 04:00:00 9.92 C 7.14 g/m*3 9.92 C 0 km/h
3054 06-12-2009 05:00:00 9.72 C 7.31 g/m*3 9.72 C 0 km/h
3055 06-12-2009 06:00:00 9.18 C 7.49 g/m*3 9.18 C 0 km/h
3056 06-12-2009 07:00:00 8.5 C 7.56 g/m*3 8.5 C 0 km/h
3057 06-12-2009 08:00:00 8.2 C 7.59 g/m*3 8.2 C 0 km/h
3058 06-12-2009 09:00:00 8.46 C 7.78 g/m*3 8.46 C 0 km/h
3059 06-12-2009 10:00:00 9.16 C 7.89 g/m*3 9.16 C 0 km/h
3060 06-12-2009 11:00:00 9.76 C 7.92 g/m*3 9.76 C 0 km/h
3061 06-12-2009 12:00:00 10.16 C 7.67 g/m*3 10.16 C 0 km/h
3062 06-12-2009 13:00:00 10.62 C 7.33 g/m*3 10.62 C 0 km/h
3063 06-12-2009 14:00:00 11.78 C 7.08 g/m*3 11.78 C 0 km/h
3064 06-12-2009 15:00:00 11.28 C 7.4 g/m*3 11.28 C 0 km/h
3065 06-12-2009 16:00:00 11.1 C 7.37 g/m*3 11.1 C 0 km/h
3066 06-12-2009 17:00:00 10.92 C 7.59 g/m*3 10.92 C 0 km/h
3067 06-12-2009 18:00:00 11 C 7.71 g/m*3 11 C 0 km/h
3068 06-12-2009 19:00:00 11.28 C 7.84 g/m*3 11.28 C 0 km/h
3069 06-12-2009 20:00:00 10.64 C 8.24 g/m*3 10.64 C 0 km/h
3070 06-12-2009 21:00:00 9.7 C 7.93 g/m*3 9.7 C 0 km/h
3071 06-12-2009 22:00:00 8.86 C 7.79 g/m*3 8.86 C 0 km/h
3072 06-12-2009 23:00:00 7.8 C 7.08 g/m*3 7.8 C 0 km/h
3073 07-12-2009 00:00:00 6.78 C 6.43 g/m*3 6.78 C 0 km/h
3074 07-12-2009 01:00:00 6.48 C 6.41 g/m*3 6.48 C 0 km/h
3075 07-12-2009 02:00:00 4.84 C 5.94 g/m*3 4.84 C 0 km/h
Sensor: Nr:Datum:Temp:Abs-Feuchte:Windchill:Wind:
Aussen-T/F 3076 07-12-2009 03:00:00 4.18 C 5.84 g/m*3 4.18 C 0 km/h
3077 07-12-2009 04:00:00 3.42 C 5.63 g/m*3 3.42 C 0 km/h
3078 07-12-2009 05:00:00 2.6 C 5.43 g/m*3 2.6 C 0 km/h
3079 07-12-2009 06:00:00 2.5 C 5.43 g/m*3 2.5 C 0 km/h
3080 07-12-2009 07:00:00 2.88 C 5.6 g/m*3 2.88 C 0 km/h
3081 07-12-2009 08:00:00 3.12 C 5.69 g/m*3 3.12 C 0 km/h
3082 07-12-2009 09:00:00 3.8 C 5.96 g/m*3 3.8 C 0 km/h
3083 07-12-2009 10:00:00 5.78 C 6.5 g/m*3 5.78 C 0 km/h
3084 07-12-2009 11:00:00 6.82 C 6.22 g/m*3 6.82 C 0 km/h
3085 07-12-2009 12:00:00 7.52 C 6.01 g/m*3 7.52 C 0 km/h
3086 07-12-2009 13:00:00 7.72 C 5.78 g/m*3 7.72 C 0 km/h
3087 07-12-2009 14:00:00 7.88 C 5.38 g/m*3 7.88 C 0 km/h
3088 07-12-2009 15:00:00 7.2 C 5.26 g/m*3 7.2 C 0 km/h
3089 07-12-2009 16:00:00 6.58 C 5.38 g/m*3 6.58 C 0 km/h
3090 07-12-2009 17:00:00 6.34 C 5.85 g/m*3 6.34 C 0 km/h
3091 07-12-2009 18:00:00 6.54 C 6.06 g/m*3 6.54 C 0 km/h
3092 07-12-2009 19:00:00 6.34 C 6.15 g/m*3 6.34 C 0 km/h
3093 07-12-2009 20:00:00 6.3 C 6.37 g/m*3 6.3 C 0 km/h
3094 07-12-2009 21:00:00 6.36 C 6.72 g/m*3 6.36 C 0 km/h
3095 07-12-2009 22:00:00 6.06 C 6.75 g/m*3 6.06 C 0 km/h
3096 07-12-2009 23:00:00 6.34 C 7.01 g/m*3 6.34 C 0 km/h
3097 08-12-2009 00:00:00 6.44 C 7.1 g/m*3 6.44 C 0 km/h
3098 08-12-2009 01:00:00 6.98 C 7.35 g/m*3 6.98 C 0 km/h
3099 08-12-2009 02:00:00 7.2 C 7.46 g/m*3 7.2 C 0 km/h
3100 08-12-2009 03:00:00 7.7 C 7.7 g/m*3 7.7 C 0 km/h
Sensor: Nr:Datum:Temp:Abs-Feuchte:Windchill:Wind:
Aussen-T/F 3101 08-12-2009 04:00:00 7.92 C 7.81 g/m*3 7.92 C 0 km/h
3102 08-12-2009 05:00:00 8.28 C 7.61 g/m*3 8.28 C 0 km/h
3103 08-12-2009 06:00:00 7.62 C 6.07 g/m*3 7.62 C 0 km/h
3104 08-12-2009 07:00:00 6.74 C 5.96 g/m*3 6.74 C 0 km/h
3105 08-12-2009 08:00:00 6.02 C 6.05 g/m*3 6.02 C 0 km/h
3106 08-12-2009 09:00:00 6.34 C 5.98 g/m*3 6.34 C 0 km/h
3107 08-12-2009 10:00:00 6.98 C 5.82 g/m*3 6.98 C 0 km/h
3108 08-12-2009 11:00:00 7.42 C 5.83 g/m*3 7.42 C 0 km/h
3109 08-12-2009 12:00:00 7.66 C 5.68 g/m*3 7.66 C 0 km/h
3110 08-12-2009 13:00:00 7.76 C 5.49 g/m*3 7.76 C 0 km/h
3111 08-12-2009 14:00:00 7.68 C 5.57 g/m*3 7.68 C 0 km/h
3112 08-12-2009 15:00:00 7.54 C 5.62 g/m*3 7.54 C 0 km/h
3113 08-12-2009 16:00:00 6.96 C 5.64 g/m*3 6.96 C 0 km/h
3114 08-12-2009 17:00:00 6.44 C 5.69 g/m*3 6.44 C 0 km/h
3115 08-12-2009 18:00:00 5.84 C 5.77 g/m*3 5.84 C 0 km/h
3116 08-12-2009 19:00:00 6 C 5.85 g/m*3 6 C 0 km/h
3117 08-12-2009 20:00:00 6.28 C 5.97 g/m*3 6.28 C 0 km/h
3118 08-12-2009 21:00:00 6.42 C 6.12 g/m*3 6.42 C 0 km/h
3119 08-12-2009 22:00:00 6.36 C 6.14 g/m*3 6.36 C 0 km/h
3120 08-12-2009 23:00:00 6.42 C 6.27 g/m*3 6.42 C 0 km/h
3121 09-12-2009 00:00:00 6.08 C 6.44 g/m*3 6.08 C 0 km/h
3122 09-12-2009 01:00:00 6.02 C 6.48 g/m*3 6.02 C 0 km/h
3123 09-12-2009 02:00:00 5.82 C 6.33 g/m*3 5.82 C 0 km/h
3124 09-12-2009 03:00:00 5.74 C 6.22 g/m*3 5.74 C 0 km/h
3125 09-12-2009 04:00:00 5.9 C 5.94 g/m*3 5.9 C 0 km/h
Sensor: Nr:Datum:Temp:Abs-Feuchte:Windchill:Wind:
Aussen-T/F 3126 09-12-2009 05:00:00 5.96 C 5.78 g/m*3 5.96 C 0 km/h
3127 09-12-2009 06:00:00 6.04 C 5.62 g/m*3 6.04 C 0 km/h
3128 09-12-2009 07:00:00 6.34 C 5.57 g/m*3 6.34 C 0 km/h
3129 09-12-2009 08:00:00 5.9 C 5.57 g/m*3 5.9 C 0 km/h
3130 09-12-2009 09:00:00 5.66 C 5.72 g/m*3 5.66 C 0 km/h
3131 09-12-2009 10:00:00 7.26 C 5.69 g/m*3 7.26 C 0 km/h
3132 09-12-2009 11:00:00 7.96 C 5.59 g/m*3 7.96 C 0 km/h
3133 09-12-2009 12:00:00 8.44 C 5.63 g/m*3 8.44 C 0 km/h
3134 09-12-2009 13:00:00 8.94 C 5.74 g/m*3 8.94 C 0 km/h
3135 09-12-2009 14:00:00 9.06 C 5.95 g/m*3 9.06 C 0 km/h
3136 09-12-2009 15:00:00 9.16 C 5.91 g/m*3 9.16 C 0 km/h
3137 09-12-2009 16:00:00 8.76 C 6.15 g/m*3 8.76 C 0 km/h
3138 09-12-2009 17:00:00 8.38 C 6.34 g/m*3 8.38 C 0 km/h
3139 09-12-2009 18:00:00 8.22 C 6.52 g/m*3 8.22 C 0 km/h
3140 09-12-2009 19:00:00 7.82 C 6.64 g/m*3 7.82 C 0 km/h
3141 09-12-2009 20:00:00 7.76 C 6.98 g/m*3 7.76 C 0 km/h
3142 09-12-2009 21:00:00 7.7 C 7.07 g/m*3 7.7 C 0 km/h
3143 09-12-2009 22:00:00 7.62 C 7.13 g/m*3 7.62 C 0 km/h
3144 09-12-2009 23:00:00 7.52 C 7.21 g/m*3 7.52 C 0 km/h
3145 10-12-2009 00:00:00 7.44 C 7.35 g/m*3 7.44 C 0 km/h
3146 10-12-2009 01:00:00 7.58 C 7.48 g/m*3 7.58 C 0 km/h
3147 10-12-2009 02:00:00 7.64 C 7.51 g/m*3 7.64 C 0 km/h
3148 10-12-2009 03:00:00 7.74 C 7.61 g/m*3 7.74 C 0 km/h
3149 10-12-2009 04:00:00 7.8 C 7.67 g/m*3 7.8 C 0 km/h
3150 10-12-2009 05:00:00 7.86 C 7.72 g/m*3 7.86 C 0 km/h
Sensor: Nr:Datum:Temp:Abs-Feuchte:Windchill:Wind:
Aussen-T/F 3151 10-12-2009 06:00:00 8.5 C 8.08 g/m*3 8.5 C 0 km/h
3152 10-12-2009 07:00:00 8.9 C 8.32 g/m*3 8.9 C 0 km/h
3153 10-12-2009 08:00:00 8.62 C 8.17 g/m*3 8.62 C 0 km/h
3154 10-12-2009 09:00:00 8.8 C 8.27 g/m*3 8.8 C 0 km/h
3155 10-12-2009 10:00:00 8.98 C 8.33 g/m*3 8.98 C 0 km/h
3156 10-12-2009 11:00:00 9.68 C 8.36 g/m*3 9.68 C 0 km/h
3157 10-12-2009 12:00:00 10.04 C 7.35 g/m*3 10.04 C 0 km/h
3158 10-12-2009 13:00:00 10.62 C 6.33 g/m*3 10.62 C 0 km/h
3159 10-12-2009 14:00:00 10.84 C 5.95 g/m*3 10.84 C 0 km/h
3160 10-12-2009 15:00:00 10.58 C 5.46 g/m*3 10.58 C 0 km/h
3161 10-12-2009 16:00:00 9.96 C 5.1 g/m*3 9.96 C 0 km/h
3162 10-12-2009 17:00:00 9.32 C 5.38 g/m*3 9.32 C 0 km/h
3163 10-12-2009 18:00:00 8.66 C 5.42 g/m*3 8.66 C 0 km/h
3164 10-12-2009 19:00:00 8.3 C 6.02 g/m*3 8.3 C 0 km/h
3165 10-12-2009 20:00:00 8.52 C 6.04 g/m*3 8.52 C 0 km/h
3166 10-12-2009 21:00:00 8.08 C 6.23 g/m*3 8.08 C 0 km/h
3167 10-12-2009 22:00:00 8.4 C 6.16 g/m*3 8.4 C 0 km/h
3168 10-12-2009 23:00:00 8 C 6.55 g/m*3 8 C 0 km/h
3169 11-12-2009 00:00:00 7.64 C 7.06 g/m*3 7.64 C 0 km/h
3170 11-12-2009 01:00:00 7.84 C 7.07 g/m*3 7.84 C 0 km/h
3171 11-12-2009 02:00:00 7.92 C 6.93 g/m*3 7.92 C 0 km/h
3172 11-12-2009 03:00:00 7.94 C 6.98 g/m*3 7.94 C 0 km/h
3173 11-12-2009 04:00:00 8.1 C 6.91 g/m*3 8.1 C 0 km/h
3174 11-12-2009 05:00:00 7.86 C 7 g/m*3 7.86 C 0 km/h
3175 11-12-2009 06:00:00 7.62 C 6.87 g/m*3 7.62 C 0 km/h
Sensor: Nr:Datum:Temp:Abs-Feuchte:Windchill:Wind:
Aussen-T/F 3176 11-12-2009 07:00:00 7.34 C 6.99 g/m*3 7.34 C 0 km/h
3177 11-12-2009 08:00:00 7.7 C 6.6 g/m*3 7.7 C 0 km/h
3178 11-12-2009 09:00:00 7.64 C 6.22 g/m*3 7.64 C 0 km/h
3179 11-12-2009 10:00:00 7.38 C 5.53 g/m*3 7.38 C 0 km/h
3180 11-12-2009 11:00:00 7.74 C 5.4 g/m*3 7.74 C 0 km/h
3181 11-12-2009 12:00:00 7.9 C 5.29 g/m*3 7.9 C 0 km/h
3182 11-12-2009 13:00:00 7.8 C 5.34 g/m*3 7.8 C 0 km/h
3183 11-12-2009 14:00:00 7.38 C 5.19 g/m*3 7.38 C 0 km/h
3184 11-12-2009 15:00:00 7 C 5.25 g/m*3 7 C 0 km/h
3185 11-12-2009 16:00:00 6.36 C 5.66 g/m*3 6.36 C 0 km/h
3186 11-12-2009 17:00:00 6.02 C 5.86 g/m*3 6.02 C 0 km/h
3187 11-12-2009 18:00:00 5.68 C 6.31 g/m*3 5.68 C 0 km/h
3188 11-12-2009 19:00:00 5.16 C 6.29 g/m*3 5.16 C 0 km/h
3189 11-12-2009 20:00:00 3.88 C 5.75 g/m*3 3.88 C 0 km/h
3190 11-12-2009 21:00:00 3.34 C 5.61 g/m*3 3.34 C 0 km/h
3191 11-12-2009 22:00:00 3.38 C 5.67 g/m*3 3.38 C 0 km/h
3192 11-12-2009 23:00:00 3.34 C 5.66 g/m*3 3.34 C 0 km/h
3193 12-12-2009 00:00:00 3.26 C 5.65 g/m*3 3.26 C 0 km/h
3194 12-12-2009 01:00:00 3.24 C 5.68 g/m*3 3.24 C 0 km/h
3195 12-12-2009 02:00:00 3.24 C 5.7 g/m*3 3.24 C 0 km/h
3196 12-12-2009 03:00:00 3.28 C 5.68 g/m*3 3.28 C 0 km/h
3197 12-12-2009 04:00:00 2.98 C 5.5 g/m*3 2.98 C 0 km/h
3198 12-12-2009 05:00:00 2.94 C 5.48 g/m*3 2.94 C 0 km/h
3199 12-12-2009 06:00:00 3.02 C 5.49 g/m*3 3.02 C 0 km/h
3200 12-12-2009 07:00:00 3.1 C 5.51 g/m*3 3.1 C 0 km/h
Sensor: Nr:Datum:Temp:Abs-Feuchte:Windchill:Wind:
Aussen-T/F 3201 12-12-2009 08:00:00 3.16 C 5.53 g/m*3 3.16 C 0 km/h
3202 12-12-2009 09:00:00 3.3 C 5.58 g/m*3 3.3 C 0 km/h
3203 12-12-2009 10:00:00 3.4 C 5.56 g/m*3 3.4 C 0 km/h
3204 12-12-2009 11:00:00 3.66 C 5.63 g/m*3 3.66 C 0 km/h
3205 12-12-2009 12:00:00